<?xml version="1.0" encoding="UTF-8" standalone="no" ?>
<gpx xmlns="http://www.topografix.com/GPX/1/1" xmlns:xsi="http://www.w3.org/2001/XMLSchema-instance" xsi:schemaLocation="http://www.topografix.com/GPX/1/1 http://www.topografix.com/GPX/1/1/gpx.xsd" version="1.1" creator="VisuGPX - https://www.visugpx.com">
  <metadata>
    <name>06. TMV1000 : Bitche-Dabo</name>
    <desc><![CDATA[13 juin 2021 à 16:55:17

{DC1}Heure de fin	: 14:58:29
Durée totale	: -2754h05:50
Moyenne globale	: -
Pente moyenne	: 3.26 %
Aire incluse	: 7105.4255 ha
Bornes emprise	: 49.0594 7.1797 ; 48.6465 7.4335
Détails par segments
distance  | durée    | vit.moy. | vit.max. | déniv. + | déniv -
   km     | hh:mn:ss |   km/h   |   km/h   |    m     |    m
   106.97 | -656:55:26 |     -0.2 |    607.4 |     1881 |    -1604{DC2}

Metadata:
Nom: 1. Ensisheim-HK final TMV300-500 (16.04.21)
Auteur: (null)
Description: (null)
]]></desc>
  </metadata>
  <trk>
    <name><![CDATA[06. TMV1000 : Bitche-Dabo]]></name>
    <cmt><![CDATA[13 juin 2021 à 16:55:17]]></cmt>
    <desc><![CDATA[{DC1}Heure de fin	: 14:58:29
Durée totale	: -2754h05:50
Moyenne globale	: -
Pente moyenne	: 3.26 %
Aire incluse	: 7105.4255 ha
Bornes emprise	: 49.0594 7.1797 ; 48.6465 7.4335
Détails par segments
distance  | durée    | vit.moy. | vit.max. | déniv. + | déniv -
   km     | hh:mn:ss |   km/h   |   km/h   |    m     |    m
   106.97 | -656:55:26 |     -0.2 |    607.4 |     1881 |    -1604{DC2}

Metadata:
Nom: 1. Ensisheim-HK final TMV300-500 (16.04.21)
Auteur: (null)
Description: (null)
]]></desc>
    <trkseg>
      <trkpt lat="49.05381" lon="7.43136">
        <ele>339</ele>
        <time>2021-01-16T21:03:03Z</time>
      </trkpt>
      <trkpt lat="49.05386" lon="7.43165">
        <ele>339</ele>
        <time>2021-01-16T21:03:16Z</time>
      </trkpt>
      <trkpt lat="49.05386" lon="7.43177">
        <ele>339</ele>
        <time>2021-01-16T21:03:22Z</time>
      </trkpt>
      <trkpt lat="49.05398" lon="7.43189">
        <ele>339</ele>
        <time>2021-01-16T21:03:24Z</time>
      </trkpt>
      <trkpt lat="49.05455" lon="7.4335">
        <ele>334</ele>
        <time>2021-01-16T21:03:41Z</time>
      </trkpt>
      <trkpt lat="49.05459" lon="7.43333">
        <ele>333</ele>
        <time>2021-01-16T21:03:43Z</time>
      </trkpt>
      <trkpt lat="49.05448" lon="7.43224">
        <ele>329</ele>
        <time>2021-01-16T21:04:34Z</time>
      </trkpt>
      <trkpt lat="49.05456" lon="7.43202">
        <ele>329</ele>
        <time>2021-01-16T21:04:46Z</time>
      </trkpt>
      <trkpt lat="49.05454" lon="7.43148">
        <ele>327</ele>
        <time>2021-01-16T21:05:11Z</time>
      </trkpt>
      <trkpt lat="49.0546" lon="7.43128">
        <ele>327</ele>
        <time>2021-01-16T21:05:21Z</time>
      </trkpt>
      <trkpt lat="49.05426" lon="7.43062">
        <ele>324</ele>
        <time>2021-01-16T21:05:35Z</time>
      </trkpt>
      <trkpt lat="49.05432" lon="7.43049">
        <ele>324</ele>
        <time>2021-01-16T21:05:38Z</time>
      </trkpt>
      <trkpt lat="49.05339" lon="7.42885">
        <ele>315</ele>
        <time>2021-01-16T21:07:17Z</time>
      </trkpt>
      <trkpt lat="49.05373" lon="7.42833">
        <ele>311</ele>
        <time>2021-01-16T21:07:25Z</time>
      </trkpt>
      <trkpt lat="49.05407" lon="7.42884">
        <ele>308</ele>
        <time>2021-01-16T21:07:31Z</time>
      </trkpt>
      <trkpt lat="49.05446" lon="7.42826">
        <ele>304</ele>
        <time>2021-01-16T21:07:38Z</time>
      </trkpt>
      <trkpt lat="49.05446" lon="7.42803">
        <ele>303</ele>
        <time>2021-01-16T21:07:42Z</time>
      </trkpt>
      <trkpt lat="49.0534" lon="7.42691">
        <ele>296</ele>
        <time>2021-01-16T21:08:14Z</time>
      </trkpt>
      <trkpt lat="49.05264" lon="7.42598">
        <ele>294</ele>
        <time>2021-01-16T21:08:38Z</time>
      </trkpt>
      <trkpt lat="49.05259" lon="7.42579">
        <ele>293</ele>
        <time>2021-01-16T21:08:40Z</time>
      </trkpt>
      <trkpt lat="49.05311" lon="7.4237">
        <ele>291</ele>
        <time>2021-01-16T21:09:04Z</time>
      </trkpt>
      <trkpt lat="49.05308" lon="7.42358">
        <ele>291</ele>
        <time>2021-01-16T21:09:05Z</time>
      </trkpt>
      <trkpt lat="49.05287" lon="7.42344">
        <ele>291</ele>
        <time>2021-01-16T21:09:09Z</time>
      </trkpt>
      <trkpt lat="49.0529" lon="7.42318">
        <ele>291</ele>
        <time>2021-01-16T21:09:14Z</time>
      </trkpt>
      <trkpt lat="49.05392" lon="7.42069">
        <ele>291</ele>
        <time>2021-01-16T21:09:50Z</time>
      </trkpt>
      <trkpt lat="49.05467" lon="7.41895">
        <ele>293</ele>
        <time>2021-01-16T21:10:26Z</time>
      </trkpt>
      <trkpt lat="49.05527" lon="7.41759">
        <ele>297</ele>
        <time>2021-01-16T21:11:03Z</time>
      </trkpt>
      <trkpt lat="49.05581" lon="7.41634">
        <ele>303</ele>
        <time>2021-01-16T21:11:54Z</time>
      </trkpt>
      <trkpt lat="49.05637" lon="7.41504">
        <ele>313</ele>
        <time>2021-01-16T21:13:00Z</time>
      </trkpt>
      <trkpt lat="49.05671" lon="7.41423">
        <ele>319</ele>
        <time>2021-01-16T21:13:47Z</time>
      </trkpt>
      <trkpt lat="49.05709" lon="7.41334">
        <ele>326</ele>
        <time>2021-01-16T21:14:42Z</time>
      </trkpt>
      <trkpt lat="49.05738" lon="7.41262">
        <ele>332</ele>
        <time>2021-01-16T21:15:24Z</time>
      </trkpt>
      <trkpt lat="49.05747" lon="7.41224">
        <ele>335</ele>
        <time>2021-01-16T21:15:44Z</time>
      </trkpt>
      <trkpt lat="49.05763" lon="7.41053">
        <ele>347</ele>
        <time>2021-01-16T21:17:02Z</time>
      </trkpt>
      <trkpt lat="49.05812" lon="7.40825">
        <ele>362</ele>
        <time>2021-01-16T21:18:46Z</time>
      </trkpt>
      <trkpt lat="49.05853" lon="7.40633">
        <ele>375</ele>
        <time>2021-01-16T21:20:16Z</time>
      </trkpt>
      <trkpt lat="49.05882" lon="7.40498">
        <ele>385</ele>
        <time>2021-01-16T21:21:31Z</time>
      </trkpt>
      <trkpt lat="49.05917" lon="7.40334">
        <ele>397</ele>
        <time>2021-01-16T21:22:55Z</time>
      </trkpt>
      <trkpt lat="49.05924" lon="7.40296">
        <ele>398</ele>
        <time>2021-01-16T21:23:08Z</time>
      </trkpt>
      <trkpt lat="49.05936" lon="7.40221">
        <ele>399</ele>
        <time>2021-01-16T21:23:16Z</time>
      </trkpt>
      <trkpt lat="49.05928" lon="7.40082">
        <ele>401</ele>
        <time>2021-01-16T21:23:41Z</time>
      </trkpt>
      <trkpt lat="49.05914" lon="7.39912">
        <ele>404</ele>
        <time>2021-01-16T21:24:12Z</time>
      </trkpt>
      <trkpt lat="49.05898" lon="7.39866">
        <ele>405</ele>
        <time>2021-01-16T21:24:18Z</time>
      </trkpt>
      <trkpt lat="49.05884" lon="7.3988">
        <ele>403</ele>
        <time>2021-01-16T21:24:47Z</time>
      </trkpt>
      <trkpt lat="49.05831" lon="7.40067">
        <ele>402</ele>
        <time>2021-01-16T21:25:01Z</time>
      </trkpt>
      <trkpt lat="49.05758" lon="7.40181">
        <ele>402</ele>
        <time>2021-01-16T21:25:04Z</time>
      </trkpt>
      <trkpt lat="49.05708" lon="7.40225">
        <ele>402</ele>
        <time>2021-01-16T21:25:06Z</time>
      </trkpt>
      <trkpt lat="49.05632" lon="7.4025">
        <ele>401</ele>
        <time>2021-01-16T21:25:29Z</time>
      </trkpt>
      <trkpt lat="49.05554" lon="7.40255">
        <ele>399</ele>
        <time>2021-01-16T21:25:51Z</time>
      </trkpt>
      <trkpt lat="49.05551" lon="7.40209">
        <ele>399</ele>
        <time>2021-01-16T21:26:00Z</time>
      </trkpt>
      <trkpt lat="49.05537" lon="7.40181">
        <ele>398</ele>
        <time>2021-01-16T21:26:06Z</time>
      </trkpt>
      <trkpt lat="49.05518" lon="7.40169">
        <ele>398</ele>
        <time>2021-01-16T21:26:11Z</time>
      </trkpt>
      <trkpt lat="49.0546" lon="7.40155">
        <ele>396</ele>
        <time>2021-01-16T21:26:26Z</time>
      </trkpt>
      <trkpt lat="49.05453" lon="7.40149">
        <ele>396</ele>
        <time>2021-01-16T21:26:28Z</time>
      </trkpt>
      <trkpt lat="49.05448" lon="7.40129">
        <ele>395</ele>
        <time>2021-01-16T21:26:32Z</time>
      </trkpt>
      <trkpt lat="49.05453" lon="7.40107">
        <ele>395</ele>
        <time>2021-01-16T21:26:36Z</time>
      </trkpt>
      <trkpt lat="49.05503" lon="7.40064">
        <ele>394</ele>
        <time>2021-01-16T21:26:51Z</time>
      </trkpt>
      <trkpt lat="49.05551" lon="7.39996">
        <ele>393</ele>
        <time>2021-01-16T21:27:09Z</time>
      </trkpt>
      <trkpt lat="49.05514" lon="7.40027">
        <ele>393</ele>
        <time>2021-01-16T21:27:23Z</time>
      </trkpt>
      <trkpt lat="49.05449" lon="7.40047">
        <ele>393</ele>
        <time>2021-01-16T21:27:45Z</time>
      </trkpt>
      <trkpt lat="49.05404" lon="7.40022">
        <ele>394</ele>
        <time>2021-01-16T21:28:06Z</time>
      </trkpt>
      <trkpt lat="49.05347" lon="7.39966">
        <ele>395</ele>
        <time>2021-01-16T21:28:36Z</time>
      </trkpt>
      <trkpt lat="49.0529" lon="7.39883">
        <ele>396</ele>
        <time>2021-01-16T21:29:09Z</time>
      </trkpt>
      <trkpt lat="49.05039" lon="7.39412">
        <ele>398</ele>
        <time>2021-01-16T21:31:34Z</time>
      </trkpt>
      <trkpt lat="49.0499" lon="7.39351">
        <ele>397</ele>
        <time>2021-01-16T21:31:50Z</time>
      </trkpt>
      <trkpt lat="49.04901" lon="7.39308">
        <ele>392</ele>
        <time>2021-01-16T21:32:13Z</time>
      </trkpt>
      <trkpt lat="49.04765" lon="7.39322">
        <ele>383</ele>
        <time>2021-01-16T21:32:43Z</time>
      </trkpt>
      <trkpt lat="49.04739" lon="7.39329">
        <ele>382</ele>
        <time>2021-01-16T21:32:50Z</time>
      </trkpt>
      <trkpt lat="49.04725" lon="7.3934">
        <ele>381</ele>
        <time>2021-01-16T21:32:53Z</time>
      </trkpt>
      <trkpt lat="49.04716" lon="7.39363">
        <ele>381</ele>
        <time>2021-01-16T21:32:57Z</time>
      </trkpt>
      <trkpt lat="49.04715" lon="7.39402">
        <ele>379</ele>
        <time>2021-01-16T21:33:03Z</time>
      </trkpt>
      <trkpt lat="49.04723" lon="7.39421">
        <ele>379</ele>
        <time>2021-01-16T21:33:07Z</time>
      </trkpt>
      <trkpt lat="49.04809" lon="7.39553">
        <ele>375</ele>
        <time>2021-01-16T21:33:40Z</time>
      </trkpt>
      <trkpt lat="49.04835" lon="7.39604">
        <ele>375</ele>
        <time>2021-01-16T21:33:54Z</time>
      </trkpt>
      <trkpt lat="49.04853" lon="7.39678">
        <ele>375</ele>
        <time>2021-01-16T21:34:14Z</time>
      </trkpt>
      <trkpt lat="49.04862" lon="7.39799">
        <ele>376</ele>
        <time>2021-01-16T21:34:46Z</time>
      </trkpt>
      <trkpt lat="49.04861" lon="7.39829">
        <ele>376</ele>
        <time>2021-01-16T21:34:53Z</time>
      </trkpt>
      <trkpt lat="49.04851" lon="7.3987">
        <ele>376</ele>
        <time>2021-01-16T21:35:03Z</time>
      </trkpt>
      <trkpt lat="49.04807" lon="7.39944">
        <ele>377</ele>
        <time>2021-01-16T21:35:24Z</time>
      </trkpt>
      <trkpt lat="49.04803" lon="7.39962">
        <ele>377</ele>
        <time>2021-01-16T21:35:29Z</time>
      </trkpt>
      <trkpt lat="49.04785" lon="7.40166">
        <ele>381</ele>
        <time>2021-01-16T21:36:26Z</time>
      </trkpt>
      <trkpt lat="49.04777" lon="7.40188">
        <ele>381</ele>
        <time>2021-01-16T21:36:36Z</time>
      </trkpt>
      <trkpt lat="49.04762" lon="7.40206">
        <ele>382</ele>
        <time>2021-01-16T21:36:44Z</time>
      </trkpt>
      <trkpt lat="49.0474" lon="7.40208">
        <ele>382</ele>
        <time>2021-01-16T21:36:57Z</time>
      </trkpt>
      <trkpt lat="49.0466" lon="7.40184">
        <ele>386</ele>
        <time>2021-01-16T21:37:42Z</time>
      </trkpt>
      <trkpt lat="49.04582" lon="7.40146">
        <ele>389</ele>
        <time>2021-01-16T21:38:27Z</time>
      </trkpt>
      <trkpt lat="49.04483" lon="7.40119">
        <ele>390</ele>
        <time>2021-01-16T21:39:12Z</time>
      </trkpt>
      <trkpt lat="49.04369" lon="7.40096">
        <ele>391</ele>
        <time>2021-01-16T21:39:46Z</time>
      </trkpt>
      <trkpt lat="49.04345" lon="7.401">
        <ele>390</ele>
        <time>2021-01-16T21:39:53Z</time>
      </trkpt>
      <trkpt lat="49.04326" lon="7.40113">
        <ele>390</ele>
        <time>2021-01-16T21:39:58Z</time>
      </trkpt>
      <trkpt lat="49.04312" lon="7.4014">
        <ele>389</ele>
        <time>2021-01-16T21:40:05Z</time>
      </trkpt>
      <trkpt lat="49.04308" lon="7.40181">
        <ele>389</ele>
        <time>2021-01-16T21:40:12Z</time>
      </trkpt>
      <trkpt lat="49.04317" lon="7.40233">
        <ele>388</ele>
        <time>2021-01-16T21:40:21Z</time>
      </trkpt>
      <trkpt lat="49.04346" lon="7.40329">
        <ele>388</ele>
        <time>2021-01-16T21:40:40Z</time>
      </trkpt>
      <trkpt lat="49.04381" lon="7.40395">
        <ele>388</ele>
        <time>2021-01-16T21:41:00Z</time>
      </trkpt>
      <trkpt lat="49.04424" lon="7.40444">
        <ele>389</ele>
        <time>2021-01-16T21:41:23Z</time>
      </trkpt>
      <trkpt lat="49.04464" lon="7.40532">
        <ele>390</ele>
        <time>2021-01-16T21:41:57Z</time>
      </trkpt>
      <trkpt lat="49.04481" lon="7.40589">
        <ele>391</ele>
        <time>2021-01-16T21:42:18Z</time>
      </trkpt>
      <trkpt lat="49.04488" lon="7.40637">
        <ele>392</ele>
        <time>2021-01-16T21:42:35Z</time>
      </trkpt>
      <trkpt lat="49.04461" lon="7.40746">
        <ele>395</ele>
        <time>2021-01-16T21:43:10Z</time>
      </trkpt>
      <trkpt lat="49.044" lon="7.40809">
        <ele>395</ele>
        <time>2021-01-16T21:43:37Z</time>
      </trkpt>
      <trkpt lat="49.04362" lon="7.40815">
        <ele>395</ele>
        <time>2021-01-16T21:43:51Z</time>
      </trkpt>
      <trkpt lat="49.04319" lon="7.40808">
        <ele>396</ele>
        <time>2021-01-16T21:44:04Z</time>
      </trkpt>
      <trkpt lat="49.04294" lon="7.40793">
        <ele>396</ele>
        <time>2021-01-16T21:44:12Z</time>
      </trkpt>
      <trkpt lat="49.04247" lon="7.40732">
        <ele>394</ele>
        <time>2021-01-16T21:44:30Z</time>
      </trkpt>
      <trkpt lat="49.04223" lon="7.40715">
        <ele>393</ele>
        <time>2021-01-16T21:44:38Z</time>
      </trkpt>
      <trkpt lat="49.04134" lon="7.40712">
        <ele>391</ele>
        <time>2021-01-16T21:45:00Z</time>
      </trkpt>
      <trkpt lat="49.04102" lon="7.40698">
        <ele>389</ele>
        <time>2021-01-16T21:45:08Z</time>
      </trkpt>
      <trkpt lat="49.03965" lon="7.4055">
        <ele>378</ele>
        <time>2021-01-16T21:45:46Z</time>
      </trkpt>
      <trkpt lat="49.03914" lon="7.40504">
        <ele>373</ele>
        <time>2021-01-16T21:46:00Z</time>
      </trkpt>
      <trkpt lat="49.03876" lon="7.40495">
        <ele>371</ele>
        <time>2021-01-16T21:46:08Z</time>
      </trkpt>
      <trkpt lat="49.03847" lon="7.40509">
        <ele>368</ele>
        <time>2021-01-16T21:46:15Z</time>
      </trkpt>
      <trkpt lat="49.03836" lon="7.40531">
        <ele>367</ele>
        <time>2021-01-16T21:46:19Z</time>
      </trkpt>
      <trkpt lat="49.0382" lon="7.40662">
        <ele>362</ele>
        <time>2021-01-16T21:46:40Z</time>
      </trkpt>
      <trkpt lat="49.03795" lon="7.40715">
        <ele>359</ele>
        <time>2021-01-16T21:46:50Z</time>
      </trkpt>
      <trkpt lat="49.0378" lon="7.40729">
        <ele>358</ele>
        <time>2021-01-16T21:46:54Z</time>
      </trkpt>
      <trkpt lat="49.03765" lon="7.4073">
        <ele>357</ele>
        <time>2021-01-16T21:46:58Z</time>
      </trkpt>
      <trkpt lat="49.03693" lon="7.40709">
        <ele>352</ele>
        <time>2021-01-16T21:47:14Z</time>
      </trkpt>
      <trkpt lat="49.03679" lon="7.40724">
        <ele>351</ele>
        <time>2021-01-16T21:47:18Z</time>
      </trkpt>
      <trkpt lat="49.03669" lon="7.40767">
        <ele>348</ele>
        <time>2021-01-16T21:47:25Z</time>
      </trkpt>
      <trkpt lat="49.03676" lon="7.40877">
        <ele>343</ele>
        <time>2021-01-16T21:47:41Z</time>
      </trkpt>
      <trkpt lat="49.0367" lon="7.40959">
        <ele>340</ele>
        <time>2021-01-16T21:47:54Z</time>
      </trkpt>
      <trkpt lat="49.03659" lon="7.40984">
        <ele>339</ele>
        <time>2021-01-16T21:47:58Z</time>
      </trkpt>
      <trkpt lat="49.03615" lon="7.41019">
        <ele>337</ele>
        <time>2021-01-16T21:48:10Z</time>
      </trkpt>
      <trkpt lat="49.03595" lon="7.41068">
        <ele>335</ele>
        <time>2021-01-16T21:48:19Z</time>
      </trkpt>
      <trkpt lat="49.03596" lon="7.41123">
        <ele>333</ele>
        <time>2021-01-16T21:48:29Z</time>
      </trkpt>
      <trkpt lat="49.03611" lon="7.41258">
        <ele>331</ele>
        <time>2021-01-16T21:48:54Z</time>
      </trkpt>
      <trkpt lat="49.03625" lon="7.41302">
        <ele>331</ele>
        <time>2021-01-16T21:49:03Z</time>
      </trkpt>
      <trkpt lat="49.03654" lon="7.41363">
        <ele>330</ele>
        <time>2021-01-16T21:49:17Z</time>
      </trkpt>
      <trkpt lat="49.03656" lon="7.41408">
        <ele>329</ele>
        <time>2021-01-16T21:49:26Z</time>
      </trkpt>
      <trkpt lat="49.0365" lon="7.41446">
        <ele>328</ele>
        <time>2021-01-16T21:49:33Z</time>
      </trkpt>
      <trkpt lat="49.03642" lon="7.41461">
        <ele>328</ele>
        <time>2021-01-16T21:49:36Z</time>
      </trkpt>
      <trkpt lat="49.036" lon="7.41491">
        <ele>327</ele>
        <time>2021-01-16T21:49:49Z</time>
      </trkpt>
      <trkpt lat="49.0355" lon="7.41482">
        <ele>325</ele>
        <time>2021-01-16T21:50:01Z</time>
      </trkpt>
      <trkpt lat="49.03522" lon="7.41503">
        <ele>324</ele>
        <time>2021-01-16T21:50:09Z</time>
      </trkpt>
      <trkpt lat="49.03509" lon="7.41549">
        <ele>323</ele>
        <time>2021-01-16T21:50:17Z</time>
      </trkpt>
      <trkpt lat="49.03499" lon="7.41709">
        <ele>318</ele>
        <time>2021-01-16T21:50:43Z</time>
      </trkpt>
      <trkpt lat="49.03492" lon="7.41724">
        <ele>317</ele>
        <time>2021-01-16T21:50:46Z</time>
      </trkpt>
      <trkpt lat="49.03483" lon="7.41727">
        <ele>317</ele>
        <time>2021-01-16T21:50:48Z</time>
      </trkpt>
      <trkpt lat="49.03463" lon="7.41724">
        <ele>316</ele>
        <time>2021-01-16T21:50:53Z</time>
      </trkpt>
      <trkpt lat="49.03457" lon="7.41716">
        <ele>315</ele>
        <time>2021-01-16T21:50:55Z</time>
      </trkpt>
      <trkpt lat="49.03453" lon="7.41702">
        <ele>315</ele>
        <time>2021-01-16T21:50:57Z</time>
      </trkpt>
      <trkpt lat="49.03471" lon="7.41604">
        <ele>312</ele>
        <time>2021-01-16T21:51:06Z</time>
      </trkpt>
      <trkpt lat="49.0347" lon="7.41548">
        <ele>310</ele>
        <time>2021-01-16T21:51:11Z</time>
      </trkpt>
      <trkpt lat="49.03455" lon="7.41482">
        <ele>307</ele>
        <time>2021-01-16T21:51:17Z</time>
      </trkpt>
      <trkpt lat="49.0341" lon="7.41347">
        <ele>306</ele>
        <time>2021-01-16T21:51:32Z</time>
      </trkpt>
      <trkpt lat="49.03405" lon="7.41309">
        <ele>306</ele>
        <time>2021-01-16T21:51:36Z</time>
      </trkpt>
      <trkpt lat="49.03407" lon="7.41283">
        <ele>306</ele>
        <time>2021-01-16T21:51:39Z</time>
      </trkpt>
      <trkpt lat="49.03395" lon="7.41288">
        <ele>305</ele>
        <time>2021-01-16T21:51:45Z</time>
      </trkpt>
      <trkpt lat="49.03383" lon="7.41297">
        <ele>305</ele>
        <time>2021-01-16T21:51:49Z</time>
      </trkpt>
      <trkpt lat="49.03327" lon="7.41417">
        <ele>308</ele>
        <time>2021-01-16T21:52:36Z</time>
      </trkpt>
      <trkpt lat="49.03314" lon="7.41467">
        <ele>310</ele>
        <time>2021-01-16T21:52:56Z</time>
      </trkpt>
      <trkpt lat="49.03251" lon="7.41644">
        <ele>315</ele>
        <time>2021-01-16T21:54:07Z</time>
      </trkpt>
      <trkpt lat="49.03178" lon="7.41818">
        <ele>320</ele>
        <time>2021-01-16T21:55:14Z</time>
      </trkpt>
      <trkpt lat="49.03138" lon="7.419">
        <ele>323</ele>
        <time>2021-01-16T21:55:49Z</time>
      </trkpt>
      <trkpt lat="49.03036" lon="7.42111">
        <ele>332</ele>
        <time>2021-01-16T21:57:31Z</time>
      </trkpt>
      <trkpt lat="49.03027" lon="7.42145">
        <ele>334</ele>
        <time>2021-01-16T21:57:47Z</time>
      </trkpt>
      <trkpt lat="49.0302" lon="7.42226">
        <ele>337</ele>
        <time>2021-01-16T21:58:20Z</time>
      </trkpt>
      <trkpt lat="49.03043" lon="7.42328">
        <ele>340</ele>
        <time>2021-01-16T21:59:02Z</time>
      </trkpt>
      <trkpt lat="49.03052" lon="7.42357">
        <ele>340</ele>
        <time>2021-01-16T21:59:13Z</time>
      </trkpt>
      <trkpt lat="49.03073" lon="7.42548">
        <ele>344</ele>
        <time>2021-01-16T22:00:11Z</time>
      </trkpt>
      <trkpt lat="49.03079" lon="7.42625">
        <ele>343</ele>
        <time>2021-01-16T22:00:16Z</time>
      </trkpt>
      <trkpt lat="49.0323" lon="7.42885">
        <ele>343</ele>
        <time>2021-01-16T22:00:26Z</time>
      </trkpt>
      <trkpt lat="49.03175" lon="7.42918">
        <ele>338</ele>
        <time>2021-01-16T22:01:21Z</time>
      </trkpt>
      <trkpt lat="49.03047" lon="7.42979">
        <ele>338</ele>
        <time>2021-01-16T22:02:02Z</time>
      </trkpt>
      <trkpt lat="49.02954" lon="7.43012">
        <ele>341</ele>
        <time>2021-01-16T22:02:50Z</time>
      </trkpt>
      <trkpt lat="49.02881" lon="7.43002">
        <ele>347</ele>
        <time>2021-01-16T22:03:41Z</time>
      </trkpt>
      <trkpt lat="49.02761" lon="7.4295">
        <ele>358</ele>
        <time>2021-01-16T22:05:27Z</time>
      </trkpt>
      <trkpt lat="49.02728" lon="7.42904">
        <ele>363</ele>
        <time>2021-01-16T22:06:07Z</time>
      </trkpt>
      <trkpt lat="49.02696" lon="7.42865">
        <ele>367</ele>
        <time>2021-01-16T22:06:45Z</time>
      </trkpt>
      <trkpt lat="49.02575" lon="7.42764">
        <ele>378</ele>
        <time>2021-01-16T22:08:27Z</time>
      </trkpt>
      <trkpt lat="49.02511" lon="7.42714">
        <ele>382</ele>
        <time>2021-01-16T22:09:08Z</time>
      </trkpt>
      <trkpt lat="49.02455" lon="7.42646">
        <ele>386</ele>
        <time>2021-01-16T22:09:43Z</time>
      </trkpt>
      <trkpt lat="49.02314" lon="7.42418">
        <ele>390</ele>
        <time>2021-01-16T22:11:11Z</time>
      </trkpt>
      <trkpt lat="49.02299" lon="7.42402">
        <ele>390</ele>
        <time>2021-01-16T22:11:18Z</time>
      </trkpt>
      <trkpt lat="49.02257" lon="7.42382">
        <ele>390</ele>
        <time>2021-01-16T22:11:34Z</time>
      </trkpt>
      <trkpt lat="49.02146" lon="7.4238">
        <ele>390</ele>
        <time>2021-01-16T22:12:08Z</time>
      </trkpt>
      <trkpt lat="49.02117" lon="7.42398">
        <ele>390</ele>
        <time>2021-01-16T22:12:17Z</time>
      </trkpt>
      <trkpt lat="49.02062" lon="7.42403">
        <ele>390</ele>
        <time>2021-01-16T22:12:32Z</time>
      </trkpt>
      <trkpt lat="49.02015" lon="7.42383">
        <ele>389</ele>
        <time>2021-01-16T22:12:48Z</time>
      </trkpt>
      <trkpt lat="49.01963" lon="7.42302">
        <ele>391</ele>
        <time>2021-01-16T22:13:18Z</time>
      </trkpt>
      <trkpt lat="49.01934" lon="7.42283">
        <ele>392</ele>
        <time>2021-01-16T22:13:30Z</time>
      </trkpt>
      <trkpt lat="49.01927" lon="7.42281">
        <ele>392</ele>
        <time>2021-01-16T22:13:36Z</time>
      </trkpt>
      <trkpt lat="49.01854" lon="7.42144">
        <ele>395</ele>
        <time>2021-01-16T22:14:48Z</time>
      </trkpt>
      <trkpt lat="49.01741" lon="7.41919">
        <ele>396</ele>
        <time>2021-01-16T22:15:03Z</time>
      </trkpt>
      <trkpt lat="49.01695" lon="7.41811">
        <ele>398</ele>
        <time>2021-01-16T22:15:32Z</time>
      </trkpt>
      <trkpt lat="49.0167" lon="7.41768">
        <ele>399</ele>
        <time>2021-01-16T22:16:20Z</time>
      </trkpt>
      <trkpt lat="49.01614" lon="7.41741">
        <ele>399</ele>
        <time>2021-01-16T22:16:29Z</time>
      </trkpt>
      <trkpt lat="49.01521" lon="7.4166">
        <ele>401</ele>
        <time>2021-01-16T22:17:05Z</time>
      </trkpt>
      <trkpt lat="49.0146" lon="7.41541">
        <ele>404</ele>
        <time>2021-01-16T22:18:07Z</time>
      </trkpt>
      <trkpt lat="49.01418" lon="7.41405">
        <ele>406</ele>
        <time>2021-01-16T22:18:54Z</time>
      </trkpt>
      <trkpt lat="49.01388" lon="7.41262">
        <ele>407</ele>
        <time>2021-01-16T22:19:03Z</time>
      </trkpt>
      <trkpt lat="49.0136" lon="7.41122">
        <ele>411</ele>
        <time>2021-01-16T22:20:56Z</time>
      </trkpt>
      <trkpt lat="49.01308" lon="7.40978">
        <ele>412</ele>
        <time>2021-01-16T22:21:47Z</time>
      </trkpt>
      <trkpt lat="49.01235" lon="7.40825">
        <ele>409</ele>
        <time>2021-01-16T22:22:18Z</time>
      </trkpt>
      <trkpt lat="49.01154" lon="7.4071">
        <ele>404</ele>
        <time>2021-01-16T22:22:46Z</time>
      </trkpt>
      <trkpt lat="49.01113" lon="7.40679">
        <ele>402</ele>
        <time>2021-01-16T22:22:55Z</time>
      </trkpt>
      <trkpt lat="49.01003" lon="7.40499">
        <ele>397</ele>
        <time>2021-01-16T22:23:19Z</time>
      </trkpt>
      <trkpt lat="49.00931" lon="7.40606">
        <ele>393</ele>
        <time>2021-01-16T22:23:45Z</time>
      </trkpt>
      <trkpt lat="49.00882" lon="7.40608">
        <ele>391</ele>
        <time>2021-01-16T22:23:58Z</time>
      </trkpt>
      <trkpt lat="49.00869" lon="7.40604">
        <ele>391</ele>
        <time>2021-01-16T22:24:03Z</time>
      </trkpt>
      <trkpt lat="49.00834" lon="7.40575">
        <ele>389</ele>
        <time>2021-01-16T22:24:14Z</time>
      </trkpt>
      <trkpt lat="49.00724" lon="7.40685">
        <ele>384</ele>
        <time>2021-01-16T22:24:47Z</time>
      </trkpt>
      <trkpt lat="49.00679" lon="7.4077">
        <ele>380</ele>
        <time>2021-01-16T22:25:04Z</time>
      </trkpt>
      <trkpt lat="49.00659" lon="7.40756">
        <ele>378</ele>
        <time>2021-01-16T22:25:09Z</time>
      </trkpt>
      <trkpt lat="49.00606" lon="7.40651">
        <ele>373</ele>
        <time>2021-01-16T22:25:29Z</time>
      </trkpt>
      <trkpt lat="49.00584" lon="7.40626">
        <ele>372</ele>
        <time>2021-01-16T22:25:35Z</time>
      </trkpt>
      <trkpt lat="49.00559" lon="7.40608">
        <ele>371</ele>
        <time>2021-01-16T22:25:42Z</time>
      </trkpt>
      <trkpt lat="49.00534" lon="7.40602">
        <ele>370</ele>
        <time>2021-01-16T22:25:49Z</time>
      </trkpt>
      <trkpt lat="49.00482" lon="7.40578">
        <ele>368</ele>
        <time>2021-01-16T22:26:03Z</time>
      </trkpt>
      <trkpt lat="49.0044" lon="7.40542">
        <ele>367</ele>
        <time>2021-01-16T22:26:16Z</time>
      </trkpt>
      <trkpt lat="49.00428" lon="7.40522">
        <ele>366</ele>
        <time>2021-01-16T22:26:21Z</time>
      </trkpt>
      <trkpt lat="49.0042" lon="7.4049">
        <ele>366</ele>
        <time>2021-01-16T22:26:26Z</time>
      </trkpt>
      <trkpt lat="49.00342" lon="7.40408">
        <ele>364</ele>
        <time>2021-01-16T22:26:53Z</time>
      </trkpt>
      <trkpt lat="49.00299" lon="7.40305">
        <ele>363</ele>
        <time>2021-01-16T22:27:16Z</time>
      </trkpt>
      <trkpt lat="49.00298" lon="7.40239">
        <ele>362</ele>
        <time>2021-01-16T22:27:28Z</time>
      </trkpt>
      <trkpt lat="49.00249" lon="7.40106">
        <ele>360</ele>
        <time>2021-01-16T22:27:57Z</time>
      </trkpt>
      <trkpt lat="49.00179" lon="7.39966">
        <ele>355</ele>
        <time>2021-01-16T22:28:27Z</time>
      </trkpt>
      <trkpt lat="49.00176" lon="7.3989">
        <ele>352</ele>
        <time>2021-01-16T22:28:39Z</time>
      </trkpt>
      <trkpt lat="49.00161" lon="7.39825">
        <ele>348</ele>
        <time>2021-01-16T22:28:49Z</time>
      </trkpt>
      <trkpt lat="49.00153" lon="7.39812">
        <ele>347</ele>
        <time>2021-01-16T22:28:51Z</time>
      </trkpt>
      <trkpt lat="49.00133" lon="7.39826">
        <ele>344</ele>
        <time>2021-01-16T22:28:56Z</time>
      </trkpt>
      <trkpt lat="49.00113" lon="7.39871">
        <ele>340</ele>
        <time>2021-01-16T22:29:03Z</time>
      </trkpt>
      <trkpt lat="49.00103" lon="7.39831">
        <ele>338</ele>
        <time>2021-01-16T22:29:08Z</time>
      </trkpt>
      <trkpt lat="49.00019" lon="7.39848">
        <ele>330</ele>
        <time>2021-01-16T22:29:24Z</time>
      </trkpt>
      <trkpt lat="48.99992" lon="7.39848">
        <ele>327</ele>
        <time>2021-01-16T22:29:30Z</time>
      </trkpt>
      <trkpt lat="48.99889" lon="7.39898">
        <ele>314</ele>
        <time>2021-01-16T22:29:52Z</time>
      </trkpt>
      <trkpt lat="48.99859" lon="7.39952">
        <ele>311</ele>
        <time>2021-01-16T22:30:02Z</time>
      </trkpt>
      <trkpt lat="48.99848" lon="7.39984">
        <ele>309</ele>
        <time>2021-01-16T22:30:08Z</time>
      </trkpt>
      <trkpt lat="48.99838" lon="7.39995">
        <ele>309</ele>
        <time>2021-01-16T22:30:11Z</time>
      </trkpt>
      <trkpt lat="48.99828" lon="7.40028">
        <ele>307</ele>
        <time>2021-01-16T22:30:16Z</time>
      </trkpt>
      <trkpt lat="48.99818" lon="7.40035">
        <ele>306</ele>
        <time>2021-01-16T22:30:19Z</time>
      </trkpt>
      <trkpt lat="48.99745" lon="7.40037">
        <ele>302</ele>
        <time>2021-01-16T22:30:37Z</time>
      </trkpt>
      <trkpt lat="48.99726" lon="7.40047">
        <ele>302</ele>
        <time>2021-01-16T22:30:42Z</time>
      </trkpt>
      <trkpt lat="48.99697" lon="7.40051">
        <ele>302</ele>
        <time>2021-01-16T22:30:51Z</time>
      </trkpt>
      <trkpt lat="48.99685" lon="7.40009">
        <ele>302</ele>
        <time>2021-01-16T22:31:01Z</time>
      </trkpt>
      <trkpt lat="48.99678" lon="7.40004">
        <ele>302</ele>
        <time>2021-01-16T22:31:05Z</time>
      </trkpt>
      <trkpt lat="48.99662" lon="7.40002">
        <ele>303</ele>
        <time>2021-01-16T22:31:12Z</time>
      </trkpt>
      <trkpt lat="48.99597" lon="7.39977">
        <ele>303</ele>
        <time>2021-01-16T22:31:43Z</time>
      </trkpt>
      <trkpt lat="48.99587" lon="7.39971">
        <ele>303</ele>
        <time>2021-01-16T22:31:48Z</time>
      </trkpt>
      <trkpt lat="48.99584" lon="7.3996">
        <ele>304</ele>
        <time>2021-01-16T22:31:52Z</time>
      </trkpt>
      <trkpt lat="48.99616" lon="7.39911">
        <ele>305</ele>
        <time>2021-01-16T22:32:20Z</time>
      </trkpt>
      <trkpt lat="48.99637" lon="7.39859">
        <ele>307</ele>
        <time>2021-01-16T22:32:43Z</time>
      </trkpt>
      <trkpt lat="48.99688" lon="7.39807">
        <ele>310</ele>
        <time>2021-01-16T22:33:14Z</time>
      </trkpt>
      <trkpt lat="48.99785" lon="7.39726">
        <ele>310</ele>
        <time>2021-01-16T22:33:57Z</time>
      </trkpt>
      <trkpt lat="48.9979" lon="7.39684">
        <ele>310</ele>
        <time>2021-01-16T22:34:04Z</time>
      </trkpt>
      <trkpt lat="48.99803" lon="7.39657">
        <ele>310</ele>
        <time>2021-01-16T22:34:11Z</time>
      </trkpt>
      <trkpt lat="48.99787" lon="7.39628">
        <ele>310</ele>
        <time>2021-01-16T22:34:18Z</time>
      </trkpt>
      <trkpt lat="48.99788" lon="7.39594">
        <ele>310</ele>
        <time>2021-01-16T22:34:24Z</time>
      </trkpt>
      <trkpt lat="48.99804" lon="7.39579">
        <ele>309</ele>
        <time>2021-01-16T22:34:29Z</time>
      </trkpt>
      <trkpt lat="48.99829" lon="7.3957">
        <ele>309</ele>
        <time>2021-01-16T22:34:36Z</time>
      </trkpt>
      <trkpt lat="48.99839" lon="7.39558">
        <ele>309</ele>
        <time>2021-01-16T22:34:39Z</time>
      </trkpt>
      <trkpt lat="48.99841" lon="7.39546">
        <ele>308</ele>
        <time>2021-01-16T22:34:40Z</time>
      </trkpt>
      <trkpt lat="48.99872" lon="7.39548">
        <ele>308</ele>
        <time>2021-01-16T22:34:50Z</time>
      </trkpt>
      <trkpt lat="48.99986" lon="7.39536">
        <ele>307</ele>
        <time>2021-01-16T22:35:24Z</time>
      </trkpt>
      <trkpt lat="49.00089" lon="7.39483">
        <ele>308</ele>
        <time>2021-01-16T22:36:06Z</time>
      </trkpt>
      <trkpt lat="49.00121" lon="7.39478">
        <ele>308</ele>
        <time>2021-01-16T22:36:18Z</time>
      </trkpt>
      <trkpt lat="49.00142" lon="7.39366">
        <ele>309</ele>
        <time>2021-01-16T22:36:46Z</time>
      </trkpt>
      <trkpt lat="49.002" lon="7.39246">
        <ele>309</ele>
        <time>2021-01-16T22:37:19Z</time>
      </trkpt>
      <trkpt lat="49.00217" lon="7.39288">
        <ele>310</ele>
        <time>2021-01-16T22:37:30Z</time>
      </trkpt>
      <trkpt lat="49.0021" lon="7.39339">
        <ele>311</ele>
        <time>2021-01-16T22:37:43Z</time>
      </trkpt>
      <trkpt lat="49.00218" lon="7.39371">
        <ele>311</ele>
        <time>2021-01-16T22:37:51Z</time>
      </trkpt>
      <trkpt lat="49.00231" lon="7.39385">
        <ele>312</ele>
        <time>2021-01-16T22:37:59Z</time>
      </trkpt>
      <trkpt lat="49.003" lon="7.39411">
        <ele>313</ele>
        <time>2021-01-16T22:38:33Z</time>
      </trkpt>
      <trkpt lat="49.00332" lon="7.39421">
        <ele>295.4</ele>
      </trkpt>
      <trkpt lat="49.00345" lon="7.394">
        <ele>300.3</ele>
      </trkpt>
      <trkpt lat="49.00338" lon="7.39357">
        <ele>316</ele>
        <time>2021-01-16T22:39:02Z</time>
      </trkpt>
      <trkpt lat="49.00341" lon="7.39343">
        <ele>317</ele>
        <time>2021-01-16T22:39:09Z</time>
      </trkpt>
      <trkpt lat="49.00395" lon="7.39191">
        <ele>324</ele>
        <time>2021-01-16T22:40:26Z</time>
      </trkpt>
      <trkpt lat="49.00428" lon="7.39133">
        <ele>328</ele>
        <time>2021-01-16T22:41:02Z</time>
      </trkpt>
      <trkpt lat="49.00498" lon="7.39059">
        <ele>333</ele>
        <time>2021-01-16T22:41:58Z</time>
      </trkpt>
      <trkpt lat="49.00533" lon="7.39013">
        <ele>337</ele>
        <time>2021-01-16T22:42:27Z</time>
      </trkpt>
      <trkpt lat="49.00564" lon="7.38994">
        <ele>338</ele>
        <time>2021-01-16T22:42:47Z</time>
      </trkpt>
      <trkpt lat="49.00596" lon="7.3899">
        <ele>340</ele>
        <time>2021-01-16T22:43:06Z</time>
      </trkpt>
      <trkpt lat="49.00604" lon="7.38964">
        <ele>341</ele>
        <time>2021-01-16T22:43:17Z</time>
      </trkpt>
      <trkpt lat="49.00602" lon="7.38926">
        <ele>342</ele>
        <time>2021-01-16T22:43:33Z</time>
      </trkpt>
      <trkpt lat="49.0062" lon="7.38753">
        <ele>347</ele>
        <time>2021-01-16T22:44:34Z</time>
      </trkpt>
      <trkpt lat="49.00618" lon="7.38724">
        <ele>347</ele>
        <time>2021-01-16T22:44:44Z</time>
      </trkpt>
      <trkpt lat="49.00596" lon="7.38704">
        <ele>347</ele>
        <time>2021-01-16T22:44:53Z</time>
      </trkpt>
      <trkpt lat="49.00565" lon="7.38728">
        <ele>348</ele>
        <time>2021-01-16T22:45:04Z</time>
      </trkpt>
      <trkpt lat="49.00461" lon="7.3876">
        <ele>350</ele>
        <time>2021-01-16T22:45:38Z</time>
      </trkpt>
      <trkpt lat="49.00418" lon="7.38768">
        <ele>352</ele>
        <time>2021-01-16T22:45:55Z</time>
      </trkpt>
      <trkpt lat="49.00405" lon="7.38745">
        <ele>353</ele>
        <time>2021-01-16T22:46:04Z</time>
      </trkpt>
      <trkpt lat="49.00391" lon="7.3865">
        <ele>355</ele>
        <time>2021-01-16T22:46:47Z</time>
      </trkpt>
      <trkpt lat="49.00377" lon="7.38575">
        <ele>360</ele>
        <time>2021-01-16T22:47:29Z</time>
      </trkpt>
      <trkpt lat="49.0037" lon="7.38551">
        <ele>362</ele>
        <time>2021-01-16T22:47:47Z</time>
      </trkpt>
      <trkpt lat="49.00357" lon="7.38524">
        <ele>364</ele>
        <time>2021-01-16T22:48:05Z</time>
      </trkpt>
      <trkpt lat="49.00333" lon="7.38498">
        <ele>368</ele>
        <time>2021-01-16T22:48:32Z</time>
      </trkpt>
      <trkpt lat="49.00276" lon="7.38455">
        <ele>374</ele>
        <time>2021-01-16T22:49:31Z</time>
      </trkpt>
      <trkpt lat="49.00266" lon="7.38456">
        <ele>375</ele>
        <time>2021-01-16T22:49:36Z</time>
      </trkpt>
      <trkpt lat="49.00242" lon="7.38434">
        <ele>377</ele>
        <time>2021-01-16T22:49:57Z</time>
      </trkpt>
      <trkpt lat="49.0014" lon="7.38294">
        <ele>386</ele>
        <time>2021-01-16T22:51:04Z</time>
      </trkpt>
      <trkpt lat="49.00133" lon="7.38288">
        <ele>387</ele>
        <time>2021-01-16T22:51:07Z</time>
      </trkpt>
      <trkpt lat="49.00133" lon="7.38276">
        <ele>387</ele>
        <time>2021-01-16T22:51:11Z</time>
      </trkpt>
      <trkpt lat="49.00125" lon="7.38249">
        <ele>388</ele>
        <time>2021-01-16T22:51:19Z</time>
      </trkpt>
      <trkpt lat="49.0008" lon="7.38153">
        <ele>391</ele>
        <time>2021-01-16T22:51:50Z</time>
      </trkpt>
      <trkpt lat="49.00022" lon="7.37996">
        <ele>394</ele>
        <time>2021-01-16T22:52:28Z</time>
      </trkpt>
      <trkpt lat="48.99998" lon="7.37901">
        <ele>395</ele>
        <time>2021-01-16T22:52:43Z</time>
      </trkpt>
      <trkpt lat="49.00015" lon="7.37891">
        <ele>395</ele>
        <time>2021-01-16T22:52:49Z</time>
      </trkpt>
      <trkpt lat="49.00021" lon="7.37884">
        <ele>395</ele>
        <time>2021-01-16T22:52:51Z</time>
      </trkpt>
      <trkpt lat="49.00003" lon="7.37761">
        <ele>396</ele>
        <time>2021-01-16T22:53:10Z</time>
      </trkpt>
      <trkpt lat="48.99986" lon="7.37737">
        <ele>396</ele>
        <time>2021-01-16T22:53:15Z</time>
      </trkpt>
      <trkpt lat="48.99935" lon="7.37702">
        <ele>396</ele>
        <time>2021-01-16T22:53:27Z</time>
      </trkpt>
      <trkpt lat="48.99816" lon="7.37646">
        <ele>397</ele>
        <time>2021-01-16T22:53:51Z</time>
      </trkpt>
      <trkpt lat="48.99807" lon="7.37636">
        <ele>397</ele>
        <time>2021-01-16T22:53:54Z</time>
      </trkpt>
      <trkpt lat="48.997" lon="7.37539">
        <ele>398</ele>
        <time>2021-01-16T22:54:25Z</time>
      </trkpt>
      <trkpt lat="48.9969" lon="7.3753">
        <ele>398</ele>
        <time>2021-01-16T22:54:27Z</time>
      </trkpt>
      <trkpt lat="48.99669" lon="7.3757">
        <ele>399</ele>
        <time>2021-01-16T22:54:36Z</time>
      </trkpt>
      <trkpt lat="48.9958" lon="7.3759">
        <ele>400</ele>
        <time>2021-01-16T22:55:06Z</time>
      </trkpt>
      <trkpt lat="48.9957" lon="7.376">
        <ele>401</ele>
        <time>2021-01-16T22:55:09Z</time>
      </trkpt>
      <trkpt lat="48.99547" lon="7.37647">
        <ele>400</ele>
        <time>2021-01-16T22:55:19Z</time>
      </trkpt>
      <trkpt lat="48.99458" lon="7.37739">
        <ele>398</ele>
        <time>2021-01-16T22:55:35Z</time>
      </trkpt>
      <trkpt lat="48.99402" lon="7.37738">
        <ele>396</ele>
        <time>2021-01-16T22:55:43Z</time>
      </trkpt>
      <trkpt lat="48.99393" lon="7.37722">
        <ele>395</ele>
        <time>2021-01-16T22:55:45Z</time>
      </trkpt>
      <trkpt lat="48.99338" lon="7.37542">
        <ele>389</ele>
        <time>2021-01-16T22:56:02Z</time>
      </trkpt>
      <trkpt lat="48.99273" lon="7.37358">
        <ele>378</ele>
        <time>2021-01-16T22:56:20Z</time>
      </trkpt>
      <trkpt lat="48.9926" lon="7.37346">
        <ele>377</ele>
        <time>2021-01-16T22:56:21Z</time>
      </trkpt>
      <trkpt lat="48.99245" lon="7.3735">
        <ele>375</ele>
        <time>2021-01-16T22:56:23Z</time>
      </trkpt>
      <trkpt lat="48.99226" lon="7.3738">
        <ele>373</ele>
        <time>2021-01-16T22:56:27Z</time>
      </trkpt>
      <trkpt lat="48.99215" lon="7.37442">
        <ele>370</ele>
        <time>2021-01-16T22:56:32Z</time>
      </trkpt>
      <trkpt lat="48.99223" lon="7.37558">
        <ele>365</ele>
        <time>2021-01-16T22:56:41Z</time>
      </trkpt>
      <trkpt lat="48.99261" lon="7.37832">
        <ele>359</ele>
        <time>2021-01-16T22:57:11Z</time>
      </trkpt>
      <trkpt lat="48.99266" lon="7.3793">
        <ele>358</ele>
        <time>2021-01-16T22:57:21Z</time>
      </trkpt>
      <trkpt lat="48.99258" lon="7.37952">
        <ele>357</ele>
        <time>2021-01-16T22:57:24Z</time>
      </trkpt>
      <trkpt lat="48.99249" lon="7.37941">
        <ele>356</ele>
        <time>2021-01-16T22:57:25Z</time>
      </trkpt>
      <trkpt lat="48.99246" lon="7.37879">
        <ele>355</ele>
        <time>2021-01-16T22:57:31Z</time>
      </trkpt>
      <trkpt lat="48.99216" lon="7.37794">
        <ele>352</ele>
        <time>2021-01-16T22:57:40Z</time>
      </trkpt>
      <trkpt lat="48.99134" lon="7.376">
        <ele>344</ele>
        <time>2021-01-16T22:58:00Z</time>
      </trkpt>
      <trkpt lat="48.9906" lon="7.37454">
        <ele>338</ele>
        <time>2021-01-16T22:58:15Z</time>
      </trkpt>
      <trkpt lat="48.99046" lon="7.37435">
        <ele>337</ele>
        <time>2021-01-16T22:58:18Z</time>
      </trkpt>
      <trkpt lat="48.99025" lon="7.37373">
        <ele>335</ele>
        <time>2021-01-16T22:58:24Z</time>
      </trkpt>
      <trkpt lat="48.99017" lon="7.37274">
        <ele>332</ele>
        <time>2021-01-16T22:58:33Z</time>
      </trkpt>
      <trkpt lat="48.98994" lon="7.37158">
        <ele>328</ele>
        <time>2021-01-16T22:58:45Z</time>
      </trkpt>
      <trkpt lat="48.98973" lon="7.36967">
        <ele>321</ele>
        <time>2021-01-16T22:59:01Z</time>
      </trkpt>
      <trkpt lat="48.98897" lon="7.36714">
        <ele>308</ele>
        <time>2021-01-16T22:59:24Z</time>
      </trkpt>
      <trkpt lat="48.989" lon="7.36646">
        <ele>305</ele>
        <time>2021-01-16T22:59:30Z</time>
      </trkpt>
      <trkpt lat="48.98908" lon="7.36614">
        <ele>303</ele>
        <time>2021-01-16T22:59:33Z</time>
      </trkpt>
      <trkpt lat="48.98943" lon="7.36514">
        <ele>299</ele>
        <time>2021-01-16T22:59:43Z</time>
      </trkpt>
      <trkpt lat="48.9896" lon="7.36486">
        <ele>298</ele>
        <time>2021-01-16T22:59:46Z</time>
      </trkpt>
      <trkpt lat="48.9903" lon="7.36502">
        <ele>295</ele>
        <time>2021-01-16T22:59:56Z</time>
      </trkpt>
      <trkpt lat="48.99056" lon="7.36496">
        <ele>295</ele>
        <time>2021-01-16T23:00:00Z</time>
      </trkpt>
      <trkpt lat="48.99072" lon="7.36429">
        <ele>293</ele>
        <time>2021-01-16T23:00:09Z</time>
      </trkpt>
      <trkpt lat="48.99068" lon="7.36419">
        <ele>293</ele>
        <time>2021-01-16T23:00:10Z</time>
      </trkpt>
      <trkpt lat="48.98997" lon="7.3638">
        <ele>292</ele>
        <time>2021-01-16T23:00:22Z</time>
      </trkpt>
      <trkpt lat="48.98982" lon="7.36356">
        <ele>292</ele>
        <time>2021-01-16T23:00:26Z</time>
      </trkpt>
      <trkpt lat="48.98974" lon="7.36328">
        <ele>291</ele>
        <time>2021-01-16T23:00:29Z</time>
      </trkpt>
      <trkpt lat="48.9895" lon="7.36289">
        <ele>291</ele>
        <time>2021-01-16T23:00:36Z</time>
      </trkpt>
      <trkpt lat="48.98867" lon="7.35959">
        <ele>291</ele>
        <time>2021-01-16T23:01:27Z</time>
      </trkpt>
      <trkpt lat="48.9883" lon="7.35868">
        <ele>291</ele>
        <time>2021-01-16T23:01:42Z</time>
      </trkpt>
      <trkpt lat="48.98829" lon="7.35853">
        <ele>290</ele>
        <time>2021-01-16T23:01:43Z</time>
      </trkpt>
      <trkpt lat="48.98772" lon="7.35818">
        <ele>290</ele>
        <time>2021-01-16T23:01:54Z</time>
      </trkpt>
      <trkpt lat="48.98713" lon="7.35678">
        <ele>289</ele>
        <time>2021-01-16T23:02:11Z</time>
      </trkpt>
      <trkpt lat="48.98705" lon="7.35664">
        <ele>289</ele>
        <time>2021-01-16T23:02:13Z</time>
      </trkpt>
      <trkpt lat="48.98697" lon="7.35647">
        <ele>288</ele>
        <time>2021-01-16T23:02:16Z</time>
      </trkpt>
      <trkpt lat="48.98682" lon="7.35571">
        <ele>288</ele>
        <time>2021-01-16T23:02:25Z</time>
      </trkpt>
      <trkpt lat="48.98681" lon="7.35558">
        <ele>288</ele>
        <time>2021-01-16T23:02:27Z</time>
      </trkpt>
      <trkpt lat="48.98705" lon="7.35354">
        <ele>290</ele>
        <time>2021-01-16T23:03:06Z</time>
      </trkpt>
      <trkpt lat="48.9873" lon="7.35164">
        <ele>291</ele>
        <time>2021-01-16T23:03:43Z</time>
      </trkpt>
      <trkpt lat="48.98732" lon="7.35142">
        <ele>291</ele>
        <time>2021-01-16T23:03:46Z</time>
      </trkpt>
      <trkpt lat="48.98717" lon="7.35018">
        <ele>291</ele>
        <time>2021-01-16T23:03:59Z</time>
      </trkpt>
      <trkpt lat="48.98657" lon="7.348">
        <ele>291</ele>
        <time>2021-01-16T23:04:29Z</time>
      </trkpt>
      <trkpt lat="48.98648" lon="7.34797">
        <ele>291</ele>
        <time>2021-01-16T23:04:36Z</time>
      </trkpt>
      <trkpt lat="48.9863" lon="7.348">
        <ele>292</ele>
        <time>2021-01-16T23:04:43Z</time>
      </trkpt>
      <trkpt lat="48.9856" lon="7.34762">
        <ele>296</ele>
        <time>2021-01-16T23:05:23Z</time>
      </trkpt>
      <trkpt lat="48.98464" lon="7.34747">
        <ele>301</ele>
        <time>2021-01-16T23:06:28Z</time>
      </trkpt>
      <trkpt lat="48.98442" lon="7.34751">
        <ele>303</ele>
        <time>2021-01-16T23:06:43Z</time>
      </trkpt>
      <trkpt lat="48.98397" lon="7.34781">
        <ele>307</ele>
        <time>2021-01-16T23:07:17Z</time>
      </trkpt>
      <trkpt lat="48.9836" lon="7.34815">
        <ele>311</ele>
        <time>2021-01-16T23:07:50Z</time>
      </trkpt>
      <trkpt lat="48.98326" lon="7.34851">
        <ele>315</ele>
        <time>2021-01-16T23:08:24Z</time>
      </trkpt>
      <trkpt lat="48.98269" lon="7.3493">
        <ele>321</ele>
        <time>2021-01-16T23:09:23Z</time>
      </trkpt>
      <trkpt lat="48.98218" lon="7.34967">
        <ele>325</ele>
        <time>2021-01-16T23:10:05Z</time>
      </trkpt>
      <trkpt lat="48.98145" lon="7.34985">
        <ele>331</ele>
        <time>2021-01-16T23:10:54Z</time>
      </trkpt>
      <trkpt lat="48.98084" lon="7.34988">
        <ele>334</ele>
        <time>2021-01-16T23:11:32Z</time>
      </trkpt>
      <trkpt lat="48.97992" lon="7.35">
        <ele>339</ele>
        <time>2021-01-16T23:12:18Z</time>
      </trkpt>
      <trkpt lat="48.97839" lon="7.35112">
        <ele>350</ele>
        <time>2021-01-16T23:14:04Z</time>
      </trkpt>
      <trkpt lat="48.9781" lon="7.35134">
        <ele>352</ele>
        <time>2021-01-16T23:14:28Z</time>
      </trkpt>
      <trkpt lat="48.97729" lon="7.35222">
        <ele>362</ele>
        <time>2021-01-16T23:15:51Z</time>
      </trkpt>
      <trkpt lat="48.97696" lon="7.35327">
        <ele>369</ele>
        <time>2021-01-16T23:16:53Z</time>
      </trkpt>
      <trkpt lat="48.977" lon="7.35344">
        <ele>370</ele>
        <time>2021-01-16T23:17:09Z</time>
      </trkpt>
      <trkpt lat="48.97726" lon="7.35394">
        <ele>372</ele>
        <time>2021-01-16T23:17:38Z</time>
      </trkpt>
      <trkpt lat="48.97749" lon="7.35458">
        <ele>374</ele>
        <time>2021-01-16T23:18:05Z</time>
      </trkpt>
      <trkpt lat="48.97749" lon="7.35482">
        <ele>375</ele>
        <time>2021-01-16T23:18:17Z</time>
      </trkpt>
      <trkpt lat="48.97741" lon="7.35521">
        <ele>376</ele>
        <time>2021-01-16T23:18:29Z</time>
      </trkpt>
      <trkpt lat="48.9774" lon="7.35559">
        <ele>377</ele>
        <time>2021-01-16T23:18:38Z</time>
      </trkpt>
      <trkpt lat="48.97731" lon="7.35642">
        <ele>376</ele>
        <time>2021-01-16T23:18:53Z</time>
      </trkpt>
      <trkpt lat="48.97697" lon="7.35751">
        <ele>373</ele>
        <time>2021-01-16T23:19:13Z</time>
      </trkpt>
      <trkpt lat="48.97684" lon="7.35776">
        <ele>372</ele>
        <time>2021-01-16T23:19:18Z</time>
      </trkpt>
      <trkpt lat="48.97589" lon="7.35838">
        <ele>368</ele>
        <time>2021-01-16T23:19:42Z</time>
      </trkpt>
      <trkpt lat="48.97569" lon="7.35841">
        <ele>367</ele>
        <time>2021-01-16T23:19:47Z</time>
      </trkpt>
      <trkpt lat="48.97395" lon="7.35812">
        <ele>361</ele>
        <time>2021-01-16T23:20:34Z</time>
      </trkpt>
      <trkpt lat="48.97371" lon="7.35824">
        <ele>361</ele>
        <time>2021-01-16T23:20:41Z</time>
      </trkpt>
      <trkpt lat="48.97309" lon="7.35884">
        <ele>360</ele>
        <time>2021-01-16T23:21:03Z</time>
      </trkpt>
      <trkpt lat="48.97154" lon="7.3599">
        <ele>355</ele>
        <time>2021-01-16T23:21:47Z</time>
      </trkpt>
      <trkpt lat="48.97114" lon="7.36027">
        <ele>354</ele>
        <time>2021-01-16T23:21:59Z</time>
      </trkpt>
      <trkpt lat="48.971" lon="7.36026">
        <ele>353</ele>
        <time>2021-01-16T23:22:03Z</time>
      </trkpt>
      <trkpt lat="48.9706" lon="7.35963">
        <ele>352</ele>
        <time>2021-01-16T23:22:17Z</time>
      </trkpt>
      <trkpt lat="48.97012" lon="7.35844">
        <ele>350</ele>
        <time>2021-01-16T23:22:44Z</time>
      </trkpt>
      <trkpt lat="48.96959" lon="7.35906">
        <ele>348</ele>
        <time>2021-01-16T23:23:02Z</time>
      </trkpt>
      <trkpt lat="48.96943" lon="7.35913">
        <ele>348</ele>
        <time>2021-01-16T23:23:05Z</time>
      </trkpt>
      <trkpt lat="48.9693" lon="7.35911">
        <ele>348</ele>
        <time>2021-01-16T23:23:08Z</time>
      </trkpt>
      <trkpt lat="48.96851" lon="7.35826">
        <ele>343</ele>
        <time>2021-01-16T23:23:22Z</time>
      </trkpt>
      <trkpt lat="48.96743" lon="7.35686">
        <ele>332</ele>
        <time>2021-01-16T23:23:39Z</time>
      </trkpt>
      <trkpt lat="48.96712" lon="7.35614">
        <ele>328</ele>
        <time>2021-01-16T23:23:46Z</time>
      </trkpt>
      <trkpt lat="48.96695" lon="7.35602">
        <ele>327</ele>
        <time>2021-01-16T23:23:48Z</time>
      </trkpt>
      <trkpt lat="48.96638" lon="7.35607">
        <ele>324</ele>
        <time>2021-01-16T23:23:55Z</time>
      </trkpt>
      <trkpt lat="48.96627" lon="7.35623">
        <ele>323</ele>
        <time>2021-01-16T23:24:01Z</time>
      </trkpt>
      <trkpt lat="48.96625" lon="7.35654">
        <ele>322</ele>
        <time>2021-01-16T23:24:06Z</time>
      </trkpt>
      <trkpt lat="48.9663" lon="7.35716">
        <ele>323</ele>
        <time>2021-01-16T23:24:22Z</time>
      </trkpt>
      <trkpt lat="48.9661" lon="7.35798">
        <ele>325</ele>
        <time>2021-01-16T23:24:56Z</time>
      </trkpt>
      <trkpt lat="48.96602" lon="7.35801">
        <ele>326</ele>
        <time>2021-01-16T23:24:58Z</time>
      </trkpt>
      <trkpt lat="48.96549" lon="7.35791">
        <ele>328</ele>
        <time>2021-01-16T23:25:37Z</time>
      </trkpt>
      <trkpt lat="48.96528" lon="7.35795">
        <ele>329</ele>
        <time>2021-01-16T23:25:51Z</time>
      </trkpt>
      <trkpt lat="48.96501" lon="7.35811">
        <ele>331</ele>
        <time>2021-01-16T23:26:10Z</time>
      </trkpt>
      <trkpt lat="48.96462" lon="7.35852">
        <ele>335</ele>
        <time>2021-01-16T23:26:42Z</time>
      </trkpt>
      <trkpt lat="48.96396" lon="7.35949">
        <ele>343</ele>
        <time>2021-01-16T23:27:49Z</time>
      </trkpt>
      <trkpt lat="48.96299" lon="7.3615">
        <ele>359</ele>
        <time>2021-01-16T23:30:06Z</time>
      </trkpt>
      <trkpt lat="48.9627" lon="7.36171">
        <ele>362</ele>
        <time>2021-01-16T23:30:34Z</time>
      </trkpt>
      <trkpt lat="48.96231" lon="7.3616">
        <ele>366</ele>
        <time>2021-01-16T23:31:09Z</time>
      </trkpt>
      <trkpt lat="48.96127" lon="7.36191">
        <ele>377</ele>
        <time>2021-01-16T23:32:38Z</time>
      </trkpt>
      <trkpt lat="48.96061" lon="7.36187">
        <ele>381</ele>
        <time>2021-01-16T23:33:23Z</time>
      </trkpt>
      <trkpt lat="48.96036" lon="7.36184">
        <ele>382</ele>
        <time>2021-01-16T23:33:39Z</time>
      </trkpt>
      <trkpt lat="48.95919" lon="7.36116">
        <ele>387</ele>
        <time>2021-01-16T23:34:35Z</time>
      </trkpt>
      <trkpt lat="48.9589" lon="7.3605">
        <ele>386</ele>
        <time>2021-01-16T23:34:50Z</time>
      </trkpt>
      <trkpt lat="48.95884" lon="7.36025">
        <ele>386</ele>
        <time>2021-01-16T23:34:55Z</time>
      </trkpt>
      <trkpt lat="48.95885" lon="7.36004">
        <ele>386</ele>
        <time>2021-01-16T23:34:59Z</time>
      </trkpt>
      <trkpt lat="48.95901" lon="7.35964">
        <ele>386</ele>
        <time>2021-01-16T23:35:07Z</time>
      </trkpt>
      <trkpt lat="48.95941" lon="7.35901">
        <ele>385</ele>
        <time>2021-01-16T23:35:22Z</time>
      </trkpt>
      <trkpt lat="48.96036" lon="7.35818">
        <ele>387</ele>
        <time>2021-01-16T23:36:03Z</time>
      </trkpt>
      <trkpt lat="48.96021" lon="7.35776">
        <ele>388</ele>
        <time>2021-01-16T23:36:20Z</time>
      </trkpt>
      <trkpt lat="48.95884" lon="7.3584">
        <ele>397</ele>
        <time>2021-01-16T23:37:39Z</time>
      </trkpt>
      <trkpt lat="48.95805" lon="7.35929">
        <ele>403</ele>
        <time>2021-01-16T23:38:35Z</time>
      </trkpt>
      <trkpt lat="48.9575" lon="7.36012">
        <ele>406</ele>
        <time>2021-01-16T23:39:06Z</time>
      </trkpt>
      <trkpt lat="48.95736" lon="7.36029">
        <ele>406</ele>
        <time>2021-01-16T23:39:13Z</time>
      </trkpt>
      <trkpt lat="48.95711" lon="7.36074">
        <ele>408</ele>
        <time>2021-01-16T23:39:26Z</time>
      </trkpt>
      <trkpt lat="48.9564" lon="7.36169">
        <ele>406</ele>
        <time>2021-01-16T23:39:43Z</time>
      </trkpt>
      <trkpt lat="48.95614" lon="7.36188">
        <ele>405</ele>
        <time>2021-01-16T23:39:47Z</time>
      </trkpt>
      <trkpt lat="48.95438" lon="7.36158">
        <ele>394</ele>
        <time>2021-01-16T23:40:26Z</time>
      </trkpt>
      <trkpt lat="48.95431" lon="7.36156">
        <ele>394</ele>
        <time>2021-01-16T23:40:27Z</time>
      </trkpt>
      <trkpt lat="48.9541" lon="7.36196">
        <ele>391</ele>
        <time>2021-01-16T23:40:35Z</time>
      </trkpt>
      <trkpt lat="48.95407" lon="7.36234">
        <ele>389</ele>
        <time>2021-01-16T23:40:40Z</time>
      </trkpt>
      <trkpt lat="48.95442" lon="7.36383">
        <ele>382</ele>
        <time>2021-01-16T23:41:04Z</time>
      </trkpt>
      <trkpt lat="48.95446" lon="7.36467">
        <ele>379</ele>
        <time>2021-01-16T23:41:18Z</time>
      </trkpt>
      <trkpt lat="48.95432" lon="7.36512">
        <ele>377</ele>
        <time>2021-01-16T23:41:26Z</time>
      </trkpt>
      <trkpt lat="48.95396" lon="7.36543">
        <ele>374</ele>
        <time>2021-01-16T23:41:36Z</time>
      </trkpt>
      <trkpt lat="48.95385" lon="7.36548">
        <ele>374</ele>
        <time>2021-01-16T23:41:39Z</time>
      </trkpt>
      <trkpt lat="48.9536" lon="7.36551">
        <ele>372</ele>
        <time>2021-01-16T23:41:45Z</time>
      </trkpt>
      <trkpt lat="48.95239" lon="7.36511">
        <ele>363</ele>
        <time>2021-01-16T23:42:13Z</time>
      </trkpt>
      <trkpt lat="48.95205" lon="7.36509">
        <ele>360</ele>
        <time>2021-01-16T23:42:20Z</time>
      </trkpt>
      <trkpt lat="48.95155" lon="7.36522">
        <ele>357</ele>
        <time>2021-01-16T23:42:32Z</time>
      </trkpt>
      <trkpt lat="48.95164" lon="7.36508">
        <ele>356</ele>
        <time>2021-01-16T23:42:35Z</time>
      </trkpt>
      <trkpt lat="48.95198" lon="7.36477">
        <ele>353</ele>
        <time>2021-01-16T23:42:44Z</time>
      </trkpt>
      <trkpt lat="48.95216" lon="7.36471">
        <ele>351</ele>
        <time>2021-01-16T23:42:48Z</time>
      </trkpt>
      <trkpt lat="48.95318" lon="7.3646">
        <ele>344</ele>
        <time>2021-01-16T23:43:11Z</time>
      </trkpt>
      <trkpt lat="48.95316" lon="7.36447">
        <ele>343</ele>
        <time>2021-01-16T23:43:14Z</time>
      </trkpt>
      <trkpt lat="48.95306" lon="7.36437">
        <ele>343</ele>
        <time>2021-01-16T23:43:16Z</time>
      </trkpt>
      <trkpt lat="48.95215" lon="7.36399">
        <ele>336</ele>
        <time>2021-01-16T23:43:38Z</time>
      </trkpt>
      <trkpt lat="48.95188" lon="7.36397">
        <ele>334</ele>
        <time>2021-01-16T23:43:44Z</time>
      </trkpt>
      <trkpt lat="48.9516" lon="7.36405">
        <ele>331</ele>
        <time>2021-01-16T23:43:50Z</time>
      </trkpt>
      <trkpt lat="48.95041" lon="7.36455">
        <ele>322</ele>
        <time>2021-01-16T23:44:17Z</time>
      </trkpt>
      <trkpt lat="48.94889" lon="7.36443">
        <ele>311</ele>
        <time>2021-01-16T23:44:52Z</time>
      </trkpt>
      <trkpt lat="48.94837" lon="7.36428">
        <ele>309</ele>
        <time>2021-01-16T23:45:05Z</time>
      </trkpt>
      <trkpt lat="48.94815" lon="7.36442">
        <ele>309</ele>
        <time>2021-01-16T23:45:11Z</time>
      </trkpt>
      <trkpt lat="48.9479" lon="7.36471">
        <ele>308</ele>
        <time>2021-01-16T23:45:19Z</time>
      </trkpt>
      <trkpt lat="48.94776" lon="7.3654">
        <ele>306</ele>
        <time>2021-01-16T23:45:32Z</time>
      </trkpt>
      <trkpt lat="48.94776" lon="7.36593">
        <ele>305</ele>
        <time>2021-01-16T23:45:42Z</time>
      </trkpt>
      <trkpt lat="48.94805" lon="7.36686">
        <ele>303</ele>
        <time>2021-01-16T23:46:02Z</time>
      </trkpt>
      <trkpt lat="48.94804" lon="7.36705">
        <ele>303</ele>
        <time>2021-01-16T23:46:06Z</time>
      </trkpt>
      <trkpt lat="48.94795" lon="7.36723">
        <ele>303</ele>
        <time>2021-01-16T23:46:10Z</time>
      </trkpt>
      <trkpt lat="48.9478" lon="7.36719">
        <ele>302</ele>
        <time>2021-01-16T23:46:14Z</time>
      </trkpt>
      <trkpt lat="48.94757" lon="7.36693">
        <ele>302</ele>
        <time>2021-01-16T23:46:22Z</time>
      </trkpt>
      <trkpt lat="48.94696" lon="7.36605">
        <ele>298</ele>
        <time>2021-01-16T23:46:42Z</time>
      </trkpt>
      <trkpt lat="48.94672" lon="7.36597">
        <ele>296</ele>
        <time>2021-01-16T23:46:48Z</time>
      </trkpt>
      <trkpt lat="48.94603" lon="7.36616">
        <ele>292</ele>
        <time>2021-01-16T23:47:04Z</time>
      </trkpt>
      <trkpt lat="48.94519" lon="7.36657">
        <ele>287</ele>
        <time>2021-01-16T23:47:24Z</time>
      </trkpt>
      <trkpt lat="48.94401" lon="7.36769">
        <ele>281</ele>
        <time>2021-01-16T23:48:01Z</time>
      </trkpt>
      <trkpt lat="48.94374" lon="7.36781">
        <ele>282</ele>
        <time>2021-01-16T23:48:14Z</time>
      </trkpt>
      <trkpt lat="48.94338" lon="7.36776">
        <ele>285</ele>
        <time>2021-01-16T23:48:37Z</time>
      </trkpt>
      <trkpt lat="48.94307" lon="7.36716">
        <ele>286</ele>
        <time>2021-01-16T23:48:59Z</time>
      </trkpt>
      <trkpt lat="48.94237" lon="7.36593">
        <ele>288</ele>
        <time>2021-01-16T23:49:22Z</time>
      </trkpt>
      <trkpt lat="48.94163" lon="7.3652">
        <ele>289</ele>
        <time>2021-01-16T23:49:35Z</time>
      </trkpt>
      <trkpt lat="48.94102" lon="7.36404">
        <ele>292</ele>
        <time>2021-01-16T23:50:23Z</time>
      </trkpt>
      <trkpt lat="48.94108" lon="7.36346">
        <ele>296</ele>
        <time>2021-01-16T23:51:05Z</time>
      </trkpt>
      <trkpt lat="48.94098" lon="7.36318">
        <ele>298</ele>
        <time>2021-01-16T23:51:21Z</time>
      </trkpt>
      <trkpt lat="48.94076" lon="7.36308">
        <ele>301</ele>
        <time>2021-01-16T23:52:14Z</time>
      </trkpt>
      <trkpt lat="48.94044" lon="7.36366">
        <ele>301</ele>
        <time>2021-01-16T23:52:26Z</time>
      </trkpt>
      <trkpt lat="48.94022" lon="7.36384">
        <ele>297</ele>
        <time>2021-01-16T23:52:59Z</time>
      </trkpt>
      <trkpt lat="48.93858" lon="7.36284">
        <ele>291</ele>
        <time>2021-01-16T23:53:20Z</time>
      </trkpt>
      <trkpt lat="48.93785" lon="7.36239">
        <ele>287</ele>
        <time>2021-01-16T23:53:36Z</time>
      </trkpt>
      <trkpt lat="48.93766" lon="7.3615">
        <ele>286</ele>
        <time>2021-01-16T23:53:38Z</time>
      </trkpt>
      <trkpt lat="48.93737" lon="7.3615">
        <ele>285</ele>
        <time>2021-01-16T23:53:41Z</time>
      </trkpt>
      <trkpt lat="48.93732" lon="7.3618">
        <ele>282</ele>
        <time>2021-01-16T23:53:55Z</time>
      </trkpt>
      <trkpt lat="48.93721" lon="7.36218">
        <ele>278</ele>
        <time>2021-01-16T23:54:08Z</time>
      </trkpt>
      <trkpt lat="48.93688" lon="7.36237">
        <ele>276</ele>
        <time>2021-01-16T23:54:48Z</time>
      </trkpt>
      <trkpt lat="48.9361" lon="7.36253">
        <ele>275</ele>
        <time>2021-01-16T23:55:03Z</time>
      </trkpt>
      <trkpt lat="48.93482" lon="7.36255">
        <ele>271</ele>
        <time>2021-01-16T23:55:37Z</time>
      </trkpt>
      <trkpt lat="48.93412" lon="7.36223">
        <ele>266</ele>
        <time>2021-01-16T23:56:12Z</time>
      </trkpt>
      <trkpt lat="48.9335" lon="7.36218">
        <ele>265</ele>
        <time>2021-01-16T23:56:17Z</time>
      </trkpt>
      <trkpt lat="48.93254" lon="7.36227">
        <ele>263</ele>
        <time>2021-01-16T23:56:31Z</time>
      </trkpt>
      <trkpt lat="48.93213" lon="7.36267">
        <ele>261</ele>
        <time>2021-01-16T23:56:42Z</time>
      </trkpt>
      <trkpt lat="48.93133" lon="7.36266">
        <ele>247</ele>
        <time>2021-01-17T00:01:22Z</time>
      </trkpt>
      <trkpt lat="48.92955" lon="7.3622">
        <ele>247</ele>
        <time>2021-01-17T00:01:28Z</time>
      </trkpt>
      <trkpt lat="48.92924" lon="7.36222">
        <ele>248</ele>
        <time>2021-01-17T00:01:40Z</time>
      </trkpt>
      <trkpt lat="48.92859" lon="7.36277">
        <ele>247</ele>
        <time>2021-01-17T00:01:43Z</time>
      </trkpt>
      <trkpt lat="48.92809" lon="7.36293">
        <ele>247</ele>
        <time>2021-01-17T00:01:48Z</time>
      </trkpt>
      <trkpt lat="48.92751" lon="7.36269">
        <ele>246</ele>
        <time>2021-01-17T00:01:58Z</time>
      </trkpt>
      <trkpt lat="48.92703" lon="7.36271">
        <ele>245</ele>
        <time>2021-01-17T00:02:03Z</time>
      </trkpt>
      <trkpt lat="48.92676" lon="7.36253">
        <ele>238</ele>
        <time>2021-01-17T00:02:19Z</time>
      </trkpt>
      <trkpt lat="48.92617" lon="7.36319">
        <ele>232</ele>
        <time>2021-01-17T00:02:29Z</time>
      </trkpt>
      <trkpt lat="48.92572" lon="7.3643">
        <ele>231</ele>
        <time>2021-01-17T00:02:31Z</time>
      </trkpt>
      <trkpt lat="48.92419" lon="7.3678">
        <ele>225</ele>
        <time>2021-01-17T00:02:42Z</time>
      </trkpt>
      <trkpt lat="48.92411" lon="7.36857">
        <ele>224</ele>
        <time>2021-01-17T00:02:44Z</time>
      </trkpt>
      <trkpt lat="48.92377" lon="7.37031">
        <ele>220</ele>
        <time>2021-01-17T00:03:01Z</time>
      </trkpt>
      <trkpt lat="48.92371" lon="7.37046">
        <ele>220</ele>
        <time>2021-01-17T00:03:03Z</time>
      </trkpt>
      <trkpt lat="48.92337" lon="7.37087">
        <ele>220</ele>
        <time>2021-01-17T00:03:11Z</time>
      </trkpt>
      <trkpt lat="48.92323" lon="7.37096">
        <ele>220</ele>
        <time>2021-01-17T00:03:15Z</time>
      </trkpt>
      <trkpt lat="48.92246" lon="7.37105">
        <ele>219</ele>
        <time>2021-01-17T00:03:36Z</time>
      </trkpt>
      <trkpt lat="48.92234" lon="7.37112">
        <ele>220</ele>
        <time>2021-01-17T00:03:39Z</time>
      </trkpt>
      <trkpt lat="48.92193" lon="7.37096">
        <ele>220</ele>
        <time>2021-01-17T00:03:52Z</time>
      </trkpt>
      <trkpt lat="48.92185" lon="7.37096">
        <ele>220</ele>
        <time>2021-01-17T00:03:54Z</time>
      </trkpt>
      <trkpt lat="48.92155" lon="7.3713">
        <ele>221</ele>
        <time>2021-01-17T00:04:04Z</time>
      </trkpt>
      <trkpt lat="48.92111" lon="7.37162">
        <ele>222</ele>
        <time>2021-01-17T00:04:17Z</time>
      </trkpt>
      <trkpt lat="48.92103" lon="7.37155">
        <ele>222</ele>
        <time>2021-01-17T00:04:19Z</time>
      </trkpt>
      <trkpt lat="48.92105" lon="7.37125">
        <ele>222</ele>
        <time>2021-01-17T00:04:25Z</time>
      </trkpt>
      <trkpt lat="48.92024" lon="7.37065">
        <ele>222</ele>
        <time>2021-01-17T00:04:45Z</time>
      </trkpt>
      <trkpt lat="48.92007" lon="7.37113">
        <ele>222</ele>
        <time>2021-01-17T00:04:52Z</time>
      </trkpt>
      <trkpt lat="48.91997" lon="7.37152">
        <ele>222</ele>
        <time>2021-01-17T00:04:57Z</time>
      </trkpt>
      <trkpt lat="48.91944" lon="7.37194">
        <ele>222</ele>
        <time>2021-01-17T00:05:08Z</time>
      </trkpt>
      <trkpt lat="48.91911" lon="7.37205">
        <ele>221</ele>
        <time>2021-01-17T00:05:14Z</time>
      </trkpt>
      <trkpt lat="48.91896" lon="7.37195">
        <ele>221</ele>
        <time>2021-01-17T00:05:18Z</time>
      </trkpt>
      <trkpt lat="48.91848" lon="7.37115">
        <ele>220</ele>
        <time>2021-01-17T00:05:30Z</time>
      </trkpt>
      <trkpt lat="48.91831" lon="7.37104">
        <ele>220</ele>
        <time>2021-01-17T00:05:33Z</time>
      </trkpt>
      <trkpt lat="48.91751" lon="7.37079">
        <ele>220</ele>
        <time>2021-01-17T00:05:47Z</time>
      </trkpt>
      <trkpt lat="48.91742" lon="7.37083">
        <ele>220</ele>
        <time>2021-01-17T00:05:48Z</time>
      </trkpt>
      <trkpt lat="48.91707" lon="7.37068">
        <ele>219</ele>
        <time>2021-01-17T00:05:55Z</time>
      </trkpt>
      <trkpt lat="48.91694" lon="7.37078">
        <ele>219</ele>
        <time>2021-01-17T00:05:57Z</time>
      </trkpt>
      <trkpt lat="48.91678" lon="7.37111">
        <ele>220</ele>
        <time>2021-01-17T00:06:03Z</time>
      </trkpt>
      <trkpt lat="48.91672" lon="7.37192">
        <ele>221</ele>
        <time>2021-01-17T00:06:19Z</time>
      </trkpt>
      <trkpt lat="48.91656" lon="7.37256">
        <ele>223</ele>
        <time>2021-01-17T00:06:34Z</time>
      </trkpt>
      <trkpt lat="48.9164" lon="7.37288">
        <ele>223</ele>
        <time>2021-01-17T00:06:44Z</time>
      </trkpt>
      <trkpt lat="48.91633" lon="7.37297">
        <ele>224</ele>
        <time>2021-01-17T00:06:47Z</time>
      </trkpt>
      <trkpt lat="48.91612" lon="7.37301">
        <ele>224</ele>
        <time>2021-01-17T00:06:58Z</time>
      </trkpt>
      <trkpt lat="48.91599" lon="7.37309">
        <ele>225</ele>
        <time>2021-01-17T00:07:06Z</time>
      </trkpt>
      <trkpt lat="48.91578" lon="7.37354">
        <ele>227</ele>
        <time>2021-01-17T00:07:29Z</time>
      </trkpt>
      <trkpt lat="48.9154" lon="7.37501">
        <ele>233</ele>
        <time>2021-01-17T00:08:33Z</time>
      </trkpt>
      <trkpt lat="48.91498" lon="7.37395">
        <ele>240</ele>
        <time>2021-01-17T00:09:35Z</time>
      </trkpt>
      <trkpt lat="48.91469" lon="7.37317">
        <ele>244</ele>
        <time>2021-01-17T00:10:15Z</time>
      </trkpt>
      <trkpt lat="48.91441" lon="7.3727">
        <ele>247</ele>
        <time>2021-01-17T00:10:46Z</time>
      </trkpt>
      <trkpt lat="48.91385" lon="7.37194">
        <ele>253</ele>
        <time>2021-01-17T00:11:41Z</time>
      </trkpt>
      <trkpt lat="48.91338" lon="7.37143">
        <ele>258</ele>
        <time>2021-01-17T00:12:24Z</time>
      </trkpt>
      <trkpt lat="48.91281" lon="7.37112">
        <ele>263</ele>
        <time>2021-01-17T00:13:06Z</time>
      </trkpt>
      <trkpt lat="48.91226" lon="7.37037">
        <ele>267</ele>
        <time>2021-01-17T00:13:54Z</time>
      </trkpt>
      <trkpt lat="48.91173" lon="7.37016">
        <ele>270</ele>
        <time>2021-01-17T00:14:27Z</time>
      </trkpt>
      <trkpt lat="48.91158" lon="7.37012">
        <ele>271</ele>
        <time>2021-01-17T00:14:37Z</time>
      </trkpt>
      <trkpt lat="48.91105" lon="7.37028">
        <ele>274</ele>
        <time>2021-01-17T00:15:07Z</time>
      </trkpt>
      <trkpt lat="48.91078" lon="7.37063">
        <ele>275</ele>
        <time>2021-01-17T00:15:26Z</time>
      </trkpt>
      <trkpt lat="48.91068" lon="7.37086">
        <ele>276</ele>
        <time>2021-01-17T00:15:36Z</time>
      </trkpt>
      <trkpt lat="48.91052" lon="7.37096">
        <ele>277</ele>
        <time>2021-01-17T00:15:45Z</time>
      </trkpt>
      <trkpt lat="48.90919" lon="7.371">
        <ele>280</ele>
        <time>2021-01-17T00:16:43Z</time>
      </trkpt>
      <trkpt lat="48.90908" lon="7.37088">
        <ele>281</ele>
        <time>2021-01-17T00:16:48Z</time>
      </trkpt>
      <trkpt lat="48.90876" lon="7.36978">
        <ele>282</ele>
        <time>2021-01-17T00:17:20Z</time>
      </trkpt>
      <trkpt lat="48.90798" lon="7.36842">
        <ele>286</ele>
        <time>2021-01-17T00:18:10Z</time>
      </trkpt>
      <trkpt lat="48.9077" lon="7.36812">
        <ele>287</ele>
        <time>2021-01-17T00:18:28Z</time>
      </trkpt>
      <trkpt lat="48.907" lon="7.36756">
        <ele>291</ele>
        <time>2021-01-17T00:19:16Z</time>
      </trkpt>
      <trkpt lat="48.90649" lon="7.3675">
        <ele>294</ele>
        <time>2021-01-17T00:19:47Z</time>
      </trkpt>
      <trkpt lat="48.90582" lon="7.36657">
        <ele>300</ele>
        <time>2021-01-17T00:20:48Z</time>
      </trkpt>
      <trkpt lat="48.90546" lon="7.36577">
        <ele>304</ele>
        <time>2021-01-17T00:21:29Z</time>
      </trkpt>
      <trkpt lat="48.90479" lon="7.3647">
        <ele>309</ele>
        <time>2021-01-17T00:22:23Z</time>
      </trkpt>
      <trkpt lat="48.9043" lon="7.36413">
        <ele>312</ele>
        <time>2021-01-17T00:23:01Z</time>
      </trkpt>
      <trkpt lat="48.90378" lon="7.36379">
        <ele>316</ele>
        <time>2021-01-17T00:23:37Z</time>
      </trkpt>
      <trkpt lat="48.90306" lon="7.36307">
        <ele>321</ele>
        <time>2021-01-17T00:24:29Z</time>
      </trkpt>
      <trkpt lat="48.90246" lon="7.36208">
        <ele>326</ele>
        <time>2021-01-17T00:25:25Z</time>
      </trkpt>
      <trkpt lat="48.90118" lon="7.36076">
        <ele>335</ele>
        <time>2021-01-17T00:26:57Z</time>
      </trkpt>
      <trkpt lat="48.90044" lon="7.3602">
        <ele>339</ele>
        <time>2021-01-17T00:27:47Z</time>
      </trkpt>
      <trkpt lat="48.90005" lon="7.35989">
        <ele>342</ele>
        <time>2021-01-17T00:28:12Z</time>
      </trkpt>
      <trkpt lat="48.89963" lon="7.35929">
        <ele>344</ele>
        <time>2021-01-17T00:28:44Z</time>
      </trkpt>
      <trkpt lat="48.89841" lon="7.35777">
        <ele>350</ele>
        <time>2021-01-17T00:30:00Z</time>
      </trkpt>
      <trkpt lat="48.89795" lon="7.35705">
        <ele>352</ele>
        <time>2021-01-17T00:30:30Z</time>
      </trkpt>
      <trkpt lat="48.89721" lon="7.35502">
        <ele>356</ele>
        <time>2021-01-17T00:31:43Z</time>
      </trkpt>
      <trkpt lat="48.89676" lon="7.35359">
        <ele>360</ele>
        <time>2021-01-17T00:32:32Z</time>
      </trkpt>
      <trkpt lat="48.89669" lon="7.35351">
        <ele>360</ele>
        <time>2021-01-17T00:32:36Z</time>
      </trkpt>
      <trkpt lat="48.89666" lon="7.35339">
        <ele>360</ele>
        <time>2021-01-17T00:32:41Z</time>
      </trkpt>
      <trkpt lat="48.89651" lon="7.35224">
        <ele>362</ele>
        <time>2021-01-17T00:33:15Z</time>
      </trkpt>
      <trkpt lat="48.89644" lon="7.35206">
        <ele>362</ele>
        <time>2021-01-17T00:33:21Z</time>
      </trkpt>
      <trkpt lat="48.89627" lon="7.35203">
        <ele>362</ele>
        <time>2021-01-17T00:33:29Z</time>
      </trkpt>
      <trkpt lat="48.89522" lon="7.35229">
        <ele>364</ele>
        <time>2021-01-17T00:34:10Z</time>
      </trkpt>
      <trkpt lat="48.89478" lon="7.35208">
        <ele>364</ele>
        <time>2021-01-17T00:34:27Z</time>
      </trkpt>
      <trkpt lat="48.89451" lon="7.35184">
        <ele>364</ele>
        <time>2021-01-17T00:34:38Z</time>
      </trkpt>
      <trkpt lat="48.89372" lon="7.3516">
        <ele>365</ele>
        <time>2021-01-17T00:35:03Z</time>
      </trkpt>
      <trkpt lat="48.89324" lon="7.35105">
        <ele>365</ele>
        <time>2021-01-17T00:35:20Z</time>
      </trkpt>
      <trkpt lat="48.89267" lon="7.34993">
        <ele>365</ele>
        <time>2021-01-17T00:35:48Z</time>
      </trkpt>
      <trkpt lat="48.891" lon="7.34997">
        <ele>369</ele>
        <time>2021-01-17T00:37:03Z</time>
      </trkpt>
      <trkpt lat="48.89078" lon="7.34987">
        <ele>370</ele>
        <time>2021-01-17T00:37:15Z</time>
      </trkpt>
      <trkpt lat="48.89047" lon="7.34942">
        <ele>371</ele>
        <time>2021-01-17T00:37:40Z</time>
      </trkpt>
      <trkpt lat="48.89034" lon="7.34907">
        <ele>372</ele>
        <time>2021-01-17T00:37:55Z</time>
      </trkpt>
      <trkpt lat="48.88979" lon="7.3472">
        <ele>379</ele>
        <time>2021-01-17T00:39:12Z</time>
      </trkpt>
      <trkpt lat="48.88925" lon="7.34608">
        <ele>380</ele>
        <time>2021-01-17T00:39:50Z</time>
      </trkpt>
      <trkpt lat="48.88874" lon="7.34411">
        <ele>382</ele>
        <time>2021-01-17T00:40:39Z</time>
      </trkpt>
      <trkpt lat="48.88864" lon="7.34356">
        <ele>382</ele>
        <time>2021-01-17T00:40:52Z</time>
      </trkpt>
      <trkpt lat="48.88855" lon="7.34131">
        <ele>382</ele>
        <time>2021-01-17T00:41:40Z</time>
      </trkpt>
      <trkpt lat="48.88864" lon="7.34097">
        <ele>382</ele>
        <time>2021-01-17T00:41:48Z</time>
      </trkpt>
      <trkpt lat="48.8889" lon="7.34054">
        <ele>382</ele>
        <time>2021-01-17T00:42:00Z</time>
      </trkpt>
      <trkpt lat="48.88921" lon="7.33912">
        <ele>381</ele>
        <time>2021-01-17T00:42:29Z</time>
      </trkpt>
      <trkpt lat="48.88924" lon="7.33715">
        <ele>378</ele>
        <time>2021-01-17T00:43:04Z</time>
      </trkpt>
      <trkpt lat="48.88905" lon="7.33538">
        <ele>372</ele>
        <time>2021-01-17T00:43:34Z</time>
      </trkpt>
      <trkpt lat="48.88884" lon="7.3344">
        <ele>369</ele>
        <time>2021-01-17T00:43:49Z</time>
      </trkpt>
      <trkpt lat="48.88875" lon="7.33323">
        <ele>364</ele>
        <time>2021-01-17T00:44:07Z</time>
      </trkpt>
      <trkpt lat="48.88867" lon="7.33299">
        <ele>363</ele>
        <time>2021-01-17T00:44:11Z</time>
      </trkpt>
      <trkpt lat="48.88846" lon="7.33153">
        <ele>358</ele>
        <time>2021-01-17T00:44:35Z</time>
      </trkpt>
      <trkpt lat="48.88819" lon="7.33074">
        <ele>358</ele>
        <time>2021-01-17T00:44:51Z</time>
      </trkpt>
      <trkpt lat="48.88747" lon="7.32952">
        <ele>358</ele>
        <time>2021-01-17T00:45:34Z</time>
      </trkpt>
      <trkpt lat="48.88711" lon="7.32922">
        <ele>358</ele>
        <time>2021-01-17T00:45:53Z</time>
      </trkpt>
      <trkpt lat="48.88625" lon="7.32904">
        <ele>359</ele>
        <time>2021-01-17T00:46:27Z</time>
      </trkpt>
      <trkpt lat="48.8854" lon="7.32915">
        <ele>360</ele>
        <time>2021-01-17T00:46:53Z</time>
      </trkpt>
      <trkpt lat="48.88448" lon="7.32967">
        <ele>361</ele>
        <time>2021-01-17T00:47:24Z</time>
      </trkpt>
      <trkpt lat="48.88423" lon="7.32986">
        <ele>361</ele>
        <time>2021-01-17T00:47:31Z</time>
      </trkpt>
      <trkpt lat="48.88379" lon="7.32989">
        <ele>362</ele>
        <time>2021-01-17T00:47:49Z</time>
      </trkpt>
      <trkpt lat="48.88337" lon="7.32975">
        <ele>363</ele>
        <time>2021-01-17T00:48:10Z</time>
      </trkpt>
      <trkpt lat="48.88289" lon="7.32943">
        <ele>365</ele>
        <time>2021-01-17T00:48:39Z</time>
      </trkpt>
      <trkpt lat="48.88235" lon="7.32843">
        <ele>366</ele>
        <time>2021-01-17T00:49:20Z</time>
      </trkpt>
      <trkpt lat="48.88218" lon="7.32816">
        <ele>366</ele>
        <time>2021-01-17T00:49:29Z</time>
      </trkpt>
      <trkpt lat="48.8821" lon="7.32776">
        <ele>365</ele>
        <time>2021-01-17T00:49:37Z</time>
      </trkpt>
      <trkpt lat="48.88206" lon="7.32767">
        <ele>365</ele>
        <time>2021-01-17T00:49:39Z</time>
      </trkpt>
      <trkpt lat="48.88162" lon="7.32586">
        <ele>362</ele>
        <time>2021-01-17T00:50:10Z</time>
      </trkpt>
      <trkpt lat="48.88104" lon="7.32434">
        <ele>357</ele>
        <time>2021-01-17T00:50:38Z</time>
      </trkpt>
      <trkpt lat="48.88089" lon="7.32412">
        <ele>356</ele>
        <time>2021-01-17T00:50:44Z</time>
      </trkpt>
      <trkpt lat="48.88115" lon="7.32389">
        <ele>354</ele>
        <time>2021-01-17T00:51:14Z</time>
      </trkpt>
      <trkpt lat="48.88197" lon="7.32412">
        <ele>352</ele>
        <time>2021-01-17T00:51:38Z</time>
      </trkpt>
      <trkpt lat="48.88276" lon="7.3254">
        <ele>349</ele>
        <time>2021-01-17T00:51:52Z</time>
      </trkpt>
      <trkpt lat="48.88306" lon="7.32656">
        <ele>347</ele>
        <time>2021-01-17T00:52:04Z</time>
      </trkpt>
      <trkpt lat="48.88301" lon="7.32746">
        <ele>332</ele>
        <time>2021-01-17T00:52:49Z</time>
      </trkpt>
      <trkpt lat="48.88336" lon="7.32782">
        <ele>328</ele>
        <time>2021-01-17T00:53:02Z</time>
      </trkpt>
      <trkpt lat="48.88376" lon="7.32747">
        <ele>318</ele>
        <time>2021-01-17T00:53:30Z</time>
      </trkpt>
      <trkpt lat="48.88404" lon="7.32577">
        <ele>315</ele>
        <time>2021-01-17T00:53:41Z</time>
      </trkpt>
      <trkpt lat="48.88385" lon="7.32306">
        <ele>311</ele>
        <time>2021-01-17T00:53:54Z</time>
      </trkpt>
      <trkpt lat="48.88366" lon="7.32163">
        <ele>303</ele>
        <time>2021-01-17T00:54:20Z</time>
      </trkpt>
      <trkpt lat="48.88401" lon="7.32096">
        <ele>298</ele>
        <time>2021-01-17T00:54:41Z</time>
      </trkpt>
      <trkpt lat="48.88485" lon="7.32083">
        <ele>294</ele>
        <time>2021-01-17T00:54:54Z</time>
      </trkpt>
      <trkpt lat="48.88526" lon="7.32104">
        <ele>292</ele>
        <time>2021-01-17T00:55:06Z</time>
      </trkpt>
      <trkpt lat="48.88566" lon="7.31875">
        <ele>291</ele>
        <time>2021-01-17T00:55:11Z</time>
      </trkpt>
      <trkpt lat="48.88533" lon="7.31794">
        <ele>290</ele>
        <time>2021-01-17T00:55:17Z</time>
      </trkpt>
      <trkpt lat="48.88488" lon="7.31488">
        <ele>289</ele>
        <time>2021-01-17T00:55:26Z</time>
      </trkpt>
      <trkpt lat="48.8848" lon="7.31381">
        <ele>287</ele>
        <time>2021-01-17T00:55:40Z</time>
      </trkpt>
      <trkpt lat="48.885" lon="7.31323">
        <ele>286</ele>
        <time>2021-01-17T00:55:55Z</time>
      </trkpt>
      <trkpt lat="48.88468" lon="7.31298">
        <ele>284</ele>
        <time>2021-01-17T00:57:12Z</time>
      </trkpt>
      <trkpt lat="48.88418" lon="7.31356">
        <ele>284</ele>
        <time>2021-01-17T00:57:18Z</time>
      </trkpt>
      <trkpt lat="48.88308" lon="7.31248">
        <ele>268.2</ele>
      </trkpt>
      <trkpt lat="48.88189" lon="7.30856">
        <ele>265</ele>
      </trkpt>
      <trkpt lat="48.88192" lon="7.30698">
        <ele>264.8</ele>
      </trkpt>
      <trkpt lat="48.88085" lon="7.30693">
        <ele>285</ele>
        <time>2021-01-17T00:57:50Z</time>
      </trkpt>
      <trkpt lat="48.88071" lon="7.30691">
        <ele>286</ele>
        <time>2021-01-17T00:57:57Z</time>
      </trkpt>
      <trkpt lat="48.8806" lon="7.30683">
        <ele>286</ele>
        <time>2021-01-17T00:58:01Z</time>
      </trkpt>
      <trkpt lat="48.88059" lon="7.30682">
        <ele>288</ele>
        <time>2021-01-17T00:58:17Z</time>
      </trkpt>
      <trkpt lat="48.88051" lon="7.30666">
        <ele>289</ele>
        <time>2021-01-17T00:58:22Z</time>
      </trkpt>
      <trkpt lat="48.88086" lon="7.30536">
        <ele>294</ele>
        <time>2021-01-17T00:59:37Z</time>
      </trkpt>
      <trkpt lat="48.88103" lon="7.30386">
        <ele>296</ele>
        <time>2021-01-17T01:00:00Z</time>
      </trkpt>
      <trkpt lat="48.88075" lon="7.30225">
        <ele>297</ele>
        <time>2021-01-17T01:00:09Z</time>
      </trkpt>
      <trkpt lat="48.88021" lon="7.30058">
        <ele>298</ele>
        <time>2021-01-17T01:00:25Z</time>
      </trkpt>
      <trkpt lat="48.87912" lon="7.2998">
        <ele>301</ele>
        <time>2021-01-17T01:00:57Z</time>
      </trkpt>
      <trkpt lat="48.87843" lon="7.29987">
        <ele>316</ele>
        <time>2021-01-17T01:04:33Z</time>
      </trkpt>
      <trkpt lat="48.87628" lon="7.29793">
        <ele>318</ele>
        <time>2021-01-17T01:04:57Z</time>
      </trkpt>
      <trkpt lat="48.8755" lon="7.29746">
        <ele>319</ele>
        <time>2021-01-17T01:05:09Z</time>
      </trkpt>
      <trkpt lat="48.87357" lon="7.29727">
        <ele>323</ele>
        <time>2021-01-17T01:05:50Z</time>
      </trkpt>
      <trkpt lat="48.87256" lon="7.297">
        <ele>327</ele>
        <time>2021-01-17T01:06:36Z</time>
      </trkpt>
      <trkpt lat="48.87054" lon="7.29783">
        <ele>357</ele>
        <time>2021-01-17T01:12:17Z</time>
      </trkpt>
      <trkpt lat="48.86901" lon="7.29806">
        <ele>357</ele>
        <time>2021-01-17T01:12:27Z</time>
      </trkpt>
      <trkpt lat="48.86719" lon="7.2985">
        <ele>360</ele>
        <time>2021-01-17T01:13:08Z</time>
      </trkpt>
      <trkpt lat="48.86631" lon="7.29926">
        <ele>365</ele>
        <time>2021-01-17T01:14:55Z</time>
      </trkpt>
      <trkpt lat="48.86533" lon="7.30015">
        <ele>367</ele>
        <time>2021-01-17T01:15:26Z</time>
      </trkpt>
      <trkpt lat="48.86492" lon="7.3006">
        <ele>367</ele>
        <time>2021-01-17T01:15:39Z</time>
      </trkpt>
      <trkpt lat="48.8647" lon="7.30074">
        <ele>367</ele>
        <time>2021-01-17T01:15:48Z</time>
      </trkpt>
      <trkpt lat="48.86477" lon="7.30145">
        <ele>368</ele>
        <time>2021-01-17T01:16:01Z</time>
      </trkpt>
      <trkpt lat="48.86463" lon="7.30142">
        <ele>368</ele>
        <time>2021-01-17T01:16:07Z</time>
      </trkpt>
      <trkpt lat="48.86451" lon="7.30121">
        <ele>369</ele>
        <time>2021-01-17T01:16:11Z</time>
      </trkpt>
      <trkpt lat="48.86426" lon="7.30046">
        <ele>371</ele>
        <time>2021-01-17T01:16:35Z</time>
      </trkpt>
      <trkpt lat="48.86412" lon="7.30023">
        <ele>371</ele>
        <time>2021-01-17T01:16:40Z</time>
      </trkpt>
      <trkpt lat="48.86377" lon="7.29987">
        <ele>373</ele>
        <time>2021-01-17T01:16:58Z</time>
      </trkpt>
      <trkpt lat="48.86348" lon="7.29984">
        <ele>373</ele>
        <time>2021-01-17T01:17:09Z</time>
      </trkpt>
      <trkpt lat="48.86335" lon="7.2999">
        <ele>373</ele>
        <time>2021-01-17T01:17:14Z</time>
      </trkpt>
      <trkpt lat="48.86275" lon="7.30035">
        <ele>373</ele>
        <time>2021-01-17T01:17:29Z</time>
      </trkpt>
      <trkpt lat="48.86255" lon="7.30044">
        <ele>372</ele>
        <time>2021-01-17T01:17:33Z</time>
      </trkpt>
      <trkpt lat="48.8625" lon="7.30054">
        <ele>372</ele>
        <time>2021-01-17T01:17:39Z</time>
      </trkpt>
      <trkpt lat="48.86248" lon="7.30123">
        <ele>372</ele>
        <time>2021-01-17T01:18:11Z</time>
      </trkpt>
      <trkpt lat="48.86256" lon="7.30187">
        <ele>370</ele>
        <time>2021-01-17T01:18:41Z</time>
      </trkpt>
      <trkpt lat="48.86251" lon="7.302">
        <ele>369</ele>
        <time>2021-01-17T01:18:48Z</time>
      </trkpt>
      <trkpt lat="48.86252" lon="7.30218">
        <ele>368</ele>
        <time>2021-01-17T01:18:56Z</time>
      </trkpt>
      <trkpt lat="48.86242" lon="7.30243">
        <ele>367</ele>
        <time>2021-01-17T01:19:10Z</time>
      </trkpt>
      <trkpt lat="48.86231" lon="7.30251">
        <ele>366</ele>
        <time>2021-01-17T01:19:18Z</time>
      </trkpt>
      <trkpt lat="48.86303" lon="7.3026">
        <ele>360</ele>
        <time>2021-01-17T01:20:13Z</time>
      </trkpt>
      <trkpt lat="48.86302" lon="7.30271">
        <ele>360</ele>
        <time>2021-01-17T01:20:18Z</time>
      </trkpt>
      <trkpt lat="48.86239" lon="7.30315">
        <ele>353</ele>
        <time>2021-01-17T01:21:06Z</time>
      </trkpt>
      <trkpt lat="48.86219" lon="7.30313">
        <ele>351</ele>
        <time>2021-01-17T01:21:20Z</time>
      </trkpt>
      <trkpt lat="48.86186" lon="7.30358">
        <ele>346</ele>
        <time>2021-01-17T01:21:36Z</time>
      </trkpt>
      <trkpt lat="48.86163" lon="7.30382">
        <ele>343</ele>
        <time>2021-01-17T01:21:42Z</time>
      </trkpt>
      <trkpt lat="48.86204" lon="7.30379">
        <ele>339</ele>
        <time>2021-01-17T01:21:50Z</time>
      </trkpt>
      <trkpt lat="48.86154" lon="7.30413">
        <ele>332</ele>
        <time>2021-01-17T01:22:07Z</time>
      </trkpt>
      <trkpt lat="48.86215" lon="7.30398">
        <ele>325</ele>
        <time>2021-01-17T01:22:25Z</time>
      </trkpt>
      <trkpt lat="48.86244" lon="7.30392">
        <ele>323</ele>
        <time>2021-01-17T01:22:31Z</time>
      </trkpt>
      <trkpt lat="48.86251" lon="7.30398">
        <ele>322</ele>
        <time>2021-01-17T01:22:34Z</time>
      </trkpt>
      <trkpt lat="48.86255" lon="7.30412">
        <ele>321</ele>
        <time>2021-01-17T01:22:36Z</time>
      </trkpt>
      <trkpt lat="48.86257" lon="7.30444">
        <ele>319</ele>
        <time>2021-01-17T01:22:40Z</time>
      </trkpt>
      <trkpt lat="48.86244" lon="7.30488">
        <ele>316</ele>
        <time>2021-01-17T01:22:48Z</time>
      </trkpt>
      <trkpt lat="48.86152" lon="7.30729">
        <ele>302</ele>
        <time>2021-01-17T01:23:28Z</time>
      </trkpt>
      <trkpt lat="48.86148" lon="7.30785">
        <ele>300</ele>
        <time>2021-01-17T01:23:36Z</time>
      </trkpt>
      <trkpt lat="48.86157" lon="7.30895">
        <ele>296</ele>
        <time>2021-01-17T01:23:55Z</time>
      </trkpt>
      <trkpt lat="48.86167" lon="7.30949">
        <ele>297</ele>
        <time>2021-01-17T01:24:06Z</time>
      </trkpt>
      <trkpt lat="48.86181" lon="7.3098">
        <ele>297</ele>
        <time>2021-01-17T01:24:15Z</time>
      </trkpt>
      <trkpt lat="48.86216" lon="7.31028">
        <ele>297</ele>
        <time>2021-01-17T01:24:35Z</time>
      </trkpt>
      <trkpt lat="48.86263" lon="7.31063">
        <ele>298</ele>
        <time>2021-01-17T01:25:00Z</time>
      </trkpt>
      <trkpt lat="48.86327" lon="7.31139">
        <ele>301</ele>
        <time>2021-01-17T01:25:44Z</time>
      </trkpt>
      <trkpt lat="48.86345" lon="7.31164">
        <ele>302</ele>
        <time>2021-01-17T01:25:57Z</time>
      </trkpt>
      <trkpt lat="48.8635" lon="7.3119">
        <ele>303</ele>
        <time>2021-01-17T01:26:07Z</time>
      </trkpt>
      <trkpt lat="48.86344" lon="7.31201">
        <ele>303</ele>
        <time>2021-01-17T01:26:12Z</time>
      </trkpt>
      <trkpt lat="48.86328" lon="7.31207">
        <ele>304</ele>
        <time>2021-01-17T01:26:20Z</time>
      </trkpt>
      <trkpt lat="48.8626" lon="7.31209">
        <ele>307</ele>
        <time>2021-01-17T01:26:55Z</time>
      </trkpt>
      <trkpt lat="48.8626" lon="7.31225">
        <ele>307</ele>
        <time>2021-01-17T01:27:01Z</time>
      </trkpt>
      <trkpt lat="48.86273" lon="7.31299">
        <ele>309</ele>
        <time>2021-01-17T01:27:27Z</time>
      </trkpt>
      <trkpt lat="48.86273" lon="7.31421">
        <ele>312</ele>
        <time>2021-01-17T01:28:06Z</time>
      </trkpt>
      <trkpt lat="48.86257" lon="7.31485">
        <ele>311</ele>
        <time>2021-01-17T01:28:25Z</time>
      </trkpt>
      <trkpt lat="48.86243" lon="7.315">
        <ele>311</ele>
        <time>2021-01-17T01:28:32Z</time>
      </trkpt>
      <trkpt lat="48.86173" lon="7.31413">
        <ele>311</ele>
        <time>2021-01-17T01:28:59Z</time>
      </trkpt>
      <trkpt lat="48.86088" lon="7.31268">
        <ele>303</ele>
        <time>2021-01-17T01:29:29Z</time>
      </trkpt>
      <trkpt lat="48.86072" lon="7.31251">
        <ele>302</ele>
        <time>2021-01-17T01:29:33Z</time>
      </trkpt>
      <trkpt lat="48.86052" lon="7.31244">
        <ele>301</ele>
        <time>2021-01-17T01:29:38Z</time>
      </trkpt>
      <trkpt lat="48.86009" lon="7.31285">
        <ele>300</ele>
        <time>2021-01-17T01:29:39Z</time>
      </trkpt>
      <trkpt lat="48.85973" lon="7.31369">
        <ele>299</ele>
        <time>2021-01-17T01:29:41Z</time>
      </trkpt>
      <trkpt lat="48.85947" lon="7.3154">
        <ele>295</ele>
        <time>2021-01-17T01:29:55Z</time>
      </trkpt>
      <trkpt lat="48.85935" lon="7.31763">
        <ele>291</ele>
        <time>2021-01-17T01:30:15Z</time>
      </trkpt>
      <trkpt lat="48.85921" lon="7.31879">
        <ele>290</ele>
        <time>2021-01-17T01:30:38Z</time>
      </trkpt>
      <trkpt lat="48.85963" lon="7.32071">
        <ele>291</ele>
        <time>2021-01-17T01:30:48Z</time>
      </trkpt>
      <trkpt lat="48.85887" lon="7.32082">
        <ele>291</ele>
        <time>2021-01-17T01:30:54Z</time>
      </trkpt>
      <trkpt lat="48.85792" lon="7.32064">
        <ele>291</ele>
        <time>2021-01-17T01:30:58Z</time>
      </trkpt>
      <trkpt lat="48.85732" lon="7.31986">
        <ele>291</ele>
        <time>2021-01-17T01:31:09Z</time>
      </trkpt>
      <trkpt lat="48.85701" lon="7.31973">
        <ele>291</ele>
        <time>2021-01-17T01:31:40Z</time>
      </trkpt>
      <trkpt lat="48.85665" lon="7.31973">
        <ele>291</ele>
        <time>2021-01-17T01:32:00Z</time>
      </trkpt>
      <trkpt lat="48.85645" lon="7.31969">
        <ele>292</ele>
        <time>2021-01-17T01:32:11Z</time>
      </trkpt>
      <trkpt lat="48.85639" lon="7.31941">
        <ele>310</ele>
        <time>2021-01-17T01:35:16Z</time>
      </trkpt>
      <trkpt lat="48.85651" lon="7.31893">
        <ele>337</ele>
        <time>2021-01-17T01:39:41Z</time>
      </trkpt>
      <trkpt lat="48.85658" lon="7.31819">
        <ele>339</ele>
        <time>2021-01-17T01:39:55Z</time>
      </trkpt>
      <trkpt lat="48.85655" lon="7.31778">
        <ele>339</ele>
        <time>2021-01-17T01:39:56Z</time>
      </trkpt>
      <trkpt lat="48.85686" lon="7.31617">
        <ele>336.3</ele>
      </trkpt>
      <trkpt lat="48.85706" lon="7.31447">
        <ele>339</ele>
        <time>2021-01-17T01:40:12Z</time>
      </trkpt>
      <trkpt lat="48.85686" lon="7.31615">
        <ele>334</ele>
        <time>2021-01-17T09:34:04Z</time>
      </trkpt>
      <trkpt lat="48.85662" lon="7.31605">
        <ele>334</ele>
        <time>2021-01-17T09:34:17Z</time>
      </trkpt>
      <trkpt lat="48.85641" lon="7.31704">
        <ele>336</ele>
        <time>2021-01-17T09:34:41Z</time>
      </trkpt>
      <trkpt lat="48.85643" lon="7.31721">
        <ele>336</ele>
        <time>2021-01-17T09:34:43Z</time>
      </trkpt>
      <trkpt lat="48.85648" lon="7.31732">
        <ele>337</ele>
        <time>2021-01-17T09:34:50Z</time>
      </trkpt>
      <trkpt lat="48.85641" lon="7.31764">
        <ele>338</ele>
        <time>2021-01-17T09:34:59Z</time>
      </trkpt>
      <trkpt lat="48.85647" lon="7.31814">
        <ele>340</ele>
        <time>2021-01-17T09:35:17Z</time>
      </trkpt>
      <trkpt lat="48.85667" lon="7.31819">
        <ele>341</ele>
        <time>2021-01-17T09:35:35Z</time>
      </trkpt>
      <trkpt lat="48.85671" lon="7.31818">
        <ele>344</ele>
        <time>2021-01-17T09:36:07Z</time>
      </trkpt>
      <trkpt lat="48.85661" lon="7.31825">
        <ele>345</ele>
        <time>2021-01-17T09:36:15Z</time>
      </trkpt>
      <trkpt lat="48.8565" lon="7.31821">
        <ele>346</ele>
        <time>2021-01-17T09:36:25Z</time>
      </trkpt>
      <trkpt lat="48.85636" lon="7.31843">
        <ele>347</ele>
        <time>2021-01-17T09:36:36Z</time>
      </trkpt>
      <trkpt lat="48.85628" lon="7.3185">
        <ele>347</ele>
        <time>2021-01-17T09:36:43Z</time>
      </trkpt>
      <trkpt lat="48.85585" lon="7.31865">
        <ele>350</ele>
        <time>2021-01-17T09:37:10Z</time>
      </trkpt>
      <trkpt lat="48.85557" lon="7.31866">
        <ele>351</ele>
        <time>2021-01-17T09:37:28Z</time>
      </trkpt>
      <trkpt lat="48.85496" lon="7.31831">
        <ele>354</ele>
        <time>2021-01-17T09:38:00Z</time>
      </trkpt>
      <trkpt lat="48.85481" lon="7.31816">
        <ele>354</ele>
        <time>2021-01-17T09:38:08Z</time>
      </trkpt>
      <trkpt lat="48.85471" lon="7.31752">
        <ele>353</ele>
        <time>2021-01-17T09:38:16Z</time>
      </trkpt>
      <trkpt lat="48.85455" lon="7.3166">
        <ele>353</ele>
        <time>2021-01-17T09:38:19Z</time>
      </trkpt>
      <trkpt lat="48.85442" lon="7.31585">
        <ele>352</ele>
        <time>2021-01-17T09:38:41Z</time>
      </trkpt>
      <trkpt lat="48.85444" lon="7.31468">
        <ele>346</ele>
        <time>2021-01-17T09:39:04Z</time>
      </trkpt>
      <trkpt lat="48.85449" lon="7.31406">
        <ele>337</ele>
        <time>2021-01-17T09:39:29Z</time>
      </trkpt>
      <trkpt lat="48.85477" lon="7.31284">
        <ele>333</ele>
        <time>2021-01-17T09:39:42Z</time>
      </trkpt>
      <trkpt lat="48.85474" lon="7.31191">
        <ele>331</ele>
        <time>2021-01-17T09:39:50Z</time>
      </trkpt>
      <trkpt lat="48.85472" lon="7.31107">
        <ele>329</ele>
        <time>2021-01-17T09:39:57Z</time>
      </trkpt>
      <trkpt lat="48.85461" lon="7.31017">
        <ele>328</ele>
        <time>2021-01-17T09:40:02Z</time>
      </trkpt>
      <trkpt lat="48.85431" lon="7.30949">
        <ele>326</ele>
        <time>2021-01-17T09:40:13Z</time>
      </trkpt>
      <trkpt lat="48.85387" lon="7.30907">
        <ele>323</ele>
        <time>2021-01-17T09:40:33Z</time>
      </trkpt>
      <trkpt lat="48.85323" lon="7.30894">
        <ele>323</ele>
        <time>2021-01-17T09:40:36Z</time>
      </trkpt>
      <trkpt lat="48.85305" lon="7.30878">
        <ele>319</ele>
        <time>2021-01-17T09:41:08Z</time>
      </trkpt>
      <trkpt lat="48.85309" lon="7.30787">
        <ele>316</ele>
        <time>2021-01-17T09:41:26Z</time>
      </trkpt>
      <trkpt lat="48.85249" lon="7.30764">
        <ele>313</ele>
        <time>2021-01-17T09:41:42Z</time>
      </trkpt>
      <trkpt lat="48.85196" lon="7.3074">
        <ele>312</ele>
        <time>2021-01-17T09:41:49Z</time>
      </trkpt>
      <trkpt lat="48.85128" lon="7.30737">
        <ele>309</ele>
        <time>2021-01-17T09:42:04Z</time>
      </trkpt>
      <trkpt lat="48.85038" lon="7.30754">
        <ele>304</ele>
        <time>2021-01-17T09:42:27Z</time>
      </trkpt>
      <trkpt lat="48.84975" lon="7.30792">
        <ele>303</ele>
        <time>2021-01-17T09:42:35Z</time>
      </trkpt>
      <trkpt lat="48.84952" lon="7.30805">
        <ele>301</ele>
        <time>2021-01-17T09:42:41Z</time>
      </trkpt>
      <trkpt lat="48.84686" lon="7.30731">
        <ele>301</ele>
        <time>2021-01-17T09:42:43Z</time>
      </trkpt>
      <trkpt lat="48.84679" lon="7.30615">
        <ele>283</ele>
        <time>2021-01-17T09:43:42Z</time>
      </trkpt>
      <trkpt lat="48.84683" lon="7.30483">
        <ele>276</ele>
        <time>2021-01-17T09:43:58Z</time>
      </trkpt>
      <trkpt lat="48.84667" lon="7.30475">
        <ele>273</ele>
        <time>2021-01-17T09:44:04Z</time>
      </trkpt>
      <trkpt lat="48.84652" lon="7.30527">
        <ele>260</ele>
        <time>2021-01-17T09:44:27Z</time>
      </trkpt>
      <trkpt lat="48.84629" lon="7.3056">
        <ele>256</ele>
        <time>2021-01-17T09:44:33Z</time>
      </trkpt>
      <trkpt lat="48.84637" lon="7.30641">
        <ele>240</ele>
        <time>2021-01-17T09:45:11Z</time>
      </trkpt>
      <trkpt lat="48.84607" lon="7.30747">
        <ele>239</ele>
        <time>2021-01-17T09:45:17Z</time>
      </trkpt>
      <trkpt lat="48.84488" lon="7.30815">
        <ele>229.3</ele>
      </trkpt>
      <trkpt lat="48.84397" lon="7.30953">
        <ele>228.4</ele>
      </trkpt>
      <trkpt lat="48.84319" lon="7.3108">
        <ele>228.9</ele>
      </trkpt>
      <trkpt lat="48.84285" lon="7.31232">
        <ele>236</ele>
        <time>2021-01-17T09:45:30Z</time>
      </trkpt>
      <trkpt lat="48.84293" lon="7.31372">
        <ele>232</ele>
        <time>2021-01-17T09:45:49Z</time>
      </trkpt>
      <trkpt lat="48.84311" lon="7.31438">
        <ele>222</ele>
        <time>2021-01-17T09:49:23Z</time>
      </trkpt>
      <trkpt lat="48.8431" lon="7.31427">
        <ele>222</ele>
        <time>2021-01-17T09:49:25Z</time>
      </trkpt>
      <trkpt lat="48.84252" lon="7.31338">
        <ele>224</ele>
        <time>2021-01-17T09:50:02Z</time>
      </trkpt>
      <trkpt lat="48.84079" lon="7.31152">
        <ele>237</ele>
        <time>2021-01-17T09:52:22Z</time>
      </trkpt>
      <trkpt lat="48.84059" lon="7.31121">
        <ele>239</ele>
        <time>2021-01-17T09:52:47Z</time>
      </trkpt>
      <trkpt lat="48.84024" lon="7.31016">
        <ele>245</ele>
        <time>2021-01-17T09:53:45Z</time>
      </trkpt>
      <trkpt lat="48.84023" lon="7.30978">
        <ele>247</ele>
        <time>2021-01-17T09:54:00Z</time>
      </trkpt>
      <trkpt lat="48.83985" lon="7.30949">
        <ele>250</ele>
        <time>2021-01-17T09:54:32Z</time>
      </trkpt>
      <trkpt lat="48.83929" lon="7.30974">
        <ele>254</ele>
        <time>2021-01-17T09:55:05Z</time>
      </trkpt>
      <trkpt lat="48.83863" lon="7.30936">
        <ele>256</ele>
        <time>2021-01-17T09:55:43Z</time>
      </trkpt>
      <trkpt lat="48.83827" lon="7.30893">
        <ele>258</ele>
        <time>2021-01-17T09:56:00Z</time>
      </trkpt>
      <trkpt lat="48.83795" lon="7.30829">
        <ele>260</ele>
        <time>2021-01-17T09:56:23Z</time>
      </trkpt>
      <trkpt lat="48.83783" lon="7.30781">
        <ele>262</ele>
        <time>2021-01-17T09:56:39Z</time>
      </trkpt>
      <trkpt lat="48.83801" lon="7.30697">
        <ele>264</ele>
        <time>2021-01-17T09:57:10Z</time>
      </trkpt>
      <trkpt lat="48.83809" lon="7.30506">
        <ele>272</ele>
        <time>2021-01-17T09:58:32Z</time>
      </trkpt>
      <trkpt lat="48.83834" lon="7.30289">
        <ele>286</ele>
        <time>2021-01-17T10:00:25Z</time>
      </trkpt>
      <trkpt lat="48.83842" lon="7.30251">
        <ele>289</ele>
        <time>2021-01-17T10:00:48Z</time>
      </trkpt>
      <trkpt lat="48.83858" lon="7.30205">
        <ele>293</ele>
        <time>2021-01-17T10:01:18Z</time>
      </trkpt>
      <trkpt lat="48.83891" lon="7.30148">
        <ele>299</ele>
        <time>2021-01-17T10:02:04Z</time>
      </trkpt>
      <trkpt lat="48.83901" lon="7.30096">
        <ele>303</ele>
        <time>2021-01-17T10:02:39Z</time>
      </trkpt>
      <trkpt lat="48.83896" lon="7.29974">
        <ele>315</ele>
        <time>2021-01-17T10:04:05Z</time>
      </trkpt>
      <trkpt lat="48.83877" lon="7.29894">
        <ele>324</ele>
        <time>2021-01-17T10:05:11Z</time>
      </trkpt>
      <trkpt lat="48.83863" lon="7.29858">
        <ele>328</ele>
        <time>2021-01-17T10:05:43Z</time>
      </trkpt>
      <trkpt lat="48.83849" lon="7.29845">
        <ele>331</ele>
        <time>2021-01-17T10:06:03Z</time>
      </trkpt>
      <trkpt lat="48.83764" lon="7.29822">
        <ele>343</ele>
        <time>2021-01-17T10:07:38Z</time>
      </trkpt>
      <trkpt lat="48.83719" lon="7.29816">
        <ele>349</ele>
        <time>2021-01-17T10:08:25Z</time>
      </trkpt>
      <trkpt lat="48.83678" lon="7.29816">
        <ele>355</ele>
        <time>2021-01-17T10:09:02Z</time>
      </trkpt>
      <trkpt lat="48.8361" lon="7.29837">
        <ele>358</ele>
        <time>2021-01-17T10:09:54Z</time>
      </trkpt>
      <trkpt lat="48.83596" lon="7.29823">
        <ele>359</ele>
        <time>2021-01-17T10:10:03Z</time>
      </trkpt>
      <trkpt lat="48.83595" lon="7.29737">
        <ele>361</ele>
        <time>2021-01-17T10:10:28Z</time>
      </trkpt>
      <trkpt lat="48.83583" lon="7.2971">
        <ele>362</ele>
        <time>2021-01-17T10:10:35Z</time>
      </trkpt>
      <trkpt lat="48.83536" lon="7.29656">
        <ele>361</ele>
        <time>2021-01-17T10:10:51Z</time>
      </trkpt>
      <trkpt lat="48.83438" lon="7.29512">
        <ele>354</ele>
        <time>2021-01-17T10:11:22Z</time>
      </trkpt>
      <trkpt lat="48.83398" lon="7.29486">
        <ele>351</ele>
        <time>2021-01-17T10:11:32Z</time>
      </trkpt>
      <trkpt lat="48.8335" lon="7.29423">
        <ele>347</ele>
        <time>2021-01-17T10:11:47Z</time>
      </trkpt>
      <trkpt lat="48.8331" lon="7.29333">
        <ele>342</ele>
        <time>2021-01-17T10:12:03Z</time>
      </trkpt>
      <trkpt lat="48.83307" lon="7.29284">
        <ele>340</ele>
        <time>2021-01-17T10:12:11Z</time>
      </trkpt>
      <trkpt lat="48.83248" lon="7.29115">
        <ele>333</ele>
        <time>2021-01-17T10:12:45Z</time>
      </trkpt>
      <trkpt lat="48.83215" lon="7.29088">
        <ele>332</ele>
        <time>2021-01-17T10:12:51Z</time>
      </trkpt>
      <trkpt lat="48.83206" lon="7.29054">
        <ele>331</ele>
        <time>2021-01-17T10:12:57Z</time>
      </trkpt>
      <trkpt lat="48.83199" lon="7.29045">
        <ele>331</ele>
        <time>2021-01-17T10:12:59Z</time>
      </trkpt>
      <trkpt lat="48.83161" lon="7.2906">
        <ele>329</ele>
        <time>2021-01-17T10:13:09Z</time>
      </trkpt>
      <trkpt lat="48.83129" lon="7.29027">
        <ele>327</ele>
        <time>2021-01-17T10:13:18Z</time>
      </trkpt>
      <trkpt lat="48.83123" lon="7.29007">
        <ele>327</ele>
        <time>2021-01-17T10:13:22Z</time>
      </trkpt>
      <trkpt lat="48.83119" lon="7.28964">
        <ele>325</ele>
        <time>2021-01-17T10:13:29Z</time>
      </trkpt>
      <trkpt lat="48.83123" lon="7.28876">
        <ele>322</ele>
        <time>2021-01-17T10:13:43Z</time>
      </trkpt>
      <trkpt lat="48.83102" lon="7.28743">
        <ele>316</ele>
        <time>2021-01-17T10:14:04Z</time>
      </trkpt>
      <trkpt lat="48.83007" lon="7.28509">
        <ele>302</ele>
        <time>2021-01-17T10:14:44Z</time>
      </trkpt>
      <trkpt lat="48.82942" lon="7.28374">
        <ele>291</ele>
        <time>2021-01-17T10:15:08Z</time>
      </trkpt>
      <trkpt lat="48.82867" lon="7.28247">
        <ele>280</ele>
        <time>2021-01-17T10:15:32Z</time>
      </trkpt>
      <trkpt lat="48.82846" lon="7.28191">
        <ele>274</ele>
        <time>2021-01-17T10:15:41Z</time>
      </trkpt>
      <trkpt lat="48.82833" lon="7.28173">
        <ele>272</ele>
        <time>2021-01-17T10:15:45Z</time>
      </trkpt>
      <trkpt lat="48.82713" lon="7.28168">
        <ele>256</ele>
        <time>2021-01-17T10:16:09Z</time>
      </trkpt>
      <trkpt lat="48.82661" lon="7.28149">
        <ele>250</ele>
        <time>2021-01-17T10:16:20Z</time>
      </trkpt>
      <trkpt lat="48.82548" lon="7.28143">
        <ele>239</ele>
        <time>2021-01-17T10:16:45Z</time>
      </trkpt>
      <trkpt lat="48.82429" lon="7.282">
        <ele>235</ele>
        <time>2021-01-17T10:17:11Z</time>
      </trkpt>
      <trkpt lat="48.82389" lon="7.28205">
        <ele>235</ele>
        <time>2021-01-17T10:17:25Z</time>
      </trkpt>
      <trkpt lat="48.82358" lon="7.28199">
        <ele>234</ele>
        <time>2021-01-17T10:17:35Z</time>
      </trkpt>
      <trkpt lat="48.82157" lon="7.28189">
        <ele>225</ele>
        <time>2021-01-17T10:18:04Z</time>
      </trkpt>
      <trkpt lat="48.8213" lon="7.28195">
        <ele>223</ele>
        <time>2021-01-17T10:18:07Z</time>
      </trkpt>
      <trkpt lat="48.82132" lon="7.28178">
        <ele>222</ele>
        <time>2021-01-17T10:18:09Z</time>
      </trkpt>
      <trkpt lat="48.82141" lon="7.28165">
        <ele>221</ele>
        <time>2021-01-17T10:18:10Z</time>
      </trkpt>
      <trkpt lat="48.82136" lon="7.28066">
        <ele>216</ele>
        <time>2021-01-17T10:18:19Z</time>
      </trkpt>
      <trkpt lat="48.82132" lon="7.28051">
        <ele>215</ele>
        <time>2021-01-17T10:18:20Z</time>
      </trkpt>
      <trkpt lat="48.82076" lon="7.28075">
        <ele>212</ele>
        <time>2021-01-17T10:18:28Z</time>
      </trkpt>
      <trkpt lat="48.82026" lon="7.28082">
        <ele>212</ele>
        <time>2021-01-17T10:18:37Z</time>
      </trkpt>
      <trkpt lat="48.81993" lon="7.28066">
        <ele>212</ele>
        <time>2021-01-17T10:18:43Z</time>
      </trkpt>
      <trkpt lat="48.81948" lon="7.28025">
        <ele>211</ele>
        <time>2021-01-17T10:19:07Z</time>
      </trkpt>
      <trkpt lat="48.81959" lon="7.27959">
        <ele>212</ele>
        <time>2021-01-17T10:19:25Z</time>
      </trkpt>
      <trkpt lat="48.81944" lon="7.27948">
        <ele>213</ele>
        <time>2021-01-17T10:19:38Z</time>
      </trkpt>
      <trkpt lat="48.8188" lon="7.27922">
        <ele>216</ele>
        <time>2021-01-17T10:20:23Z</time>
      </trkpt>
      <trkpt lat="48.81864" lon="7.27978">
        <ele>218</ele>
        <time>2021-01-17T10:20:47Z</time>
      </trkpt>
      <trkpt lat="48.81831" lon="7.28038">
        <ele>220</ele>
        <time>2021-01-17T10:21:18Z</time>
      </trkpt>
      <trkpt lat="48.81753" lon="7.28113">
        <ele>223</ele>
        <time>2021-01-17T10:21:55Z</time>
      </trkpt>
      <trkpt lat="48.81666" lon="7.28178">
        <ele>226</ele>
        <time>2021-01-17T10:22:44Z</time>
      </trkpt>
      <trkpt lat="48.81654" lon="7.28192">
        <ele>227</ele>
        <time>2021-01-17T10:22:52Z</time>
      </trkpt>
      <trkpt lat="48.81629" lon="7.28247">
        <ele>228</ele>
        <time>2021-01-17T10:23:17Z</time>
      </trkpt>
      <trkpt lat="48.81589" lon="7.28303">
        <ele>230</ele>
        <time>2021-01-17T10:23:45Z</time>
      </trkpt>
      <trkpt lat="48.81556" lon="7.28368">
        <ele>231</ele>
        <time>2021-01-17T10:24:04Z</time>
      </trkpt>
      <trkpt lat="48.81516" lon="7.28509">
        <ele>230</ele>
        <time>2021-01-17T10:24:36Z</time>
      </trkpt>
      <trkpt lat="48.81505" lon="7.28542">
        <ele>230</ele>
        <time>2021-01-17T10:24:44Z</time>
      </trkpt>
      <trkpt lat="48.81489" lon="7.2857">
        <ele>229</ele>
        <time>2021-01-17T10:24:50Z</time>
      </trkpt>
      <trkpt lat="48.81432" lon="7.28624">
        <ele>230</ele>
        <time>2021-01-17T10:25:08Z</time>
      </trkpt>
      <trkpt lat="48.81326" lon="7.28686">
        <ele>231</ele>
        <time>2021-01-17T10:26:00Z</time>
      </trkpt>
      <trkpt lat="48.81292" lon="7.28699">
        <ele>230</ele>
        <time>2021-01-17T10:26:14Z</time>
      </trkpt>
      <trkpt lat="48.81263" lon="7.28686">
        <ele>230</ele>
        <time>2021-01-17T10:26:24Z</time>
      </trkpt>
      <trkpt lat="48.81253" lon="7.28692">
        <ele>230</ele>
        <time>2021-01-17T10:26:33Z</time>
      </trkpt>
      <trkpt lat="48.8125" lon="7.28725">
        <ele>229</ele>
        <time>2021-01-17T10:26:39Z</time>
      </trkpt>
      <trkpt lat="48.81233" lon="7.28768">
        <ele>229</ele>
        <time>2021-01-17T10:26:48Z</time>
      </trkpt>
      <trkpt lat="48.81127" lon="7.28952">
        <ele>223</ele>
        <time>2021-01-17T10:27:27Z</time>
      </trkpt>
      <trkpt lat="48.81049" lon="7.29024">
        <ele>218</ele>
        <time>2021-01-17T10:27:48Z</time>
      </trkpt>
      <trkpt lat="48.80988" lon="7.29108">
        <ele>217</ele>
        <time>2021-01-17T10:28:11Z</time>
      </trkpt>
      <trkpt lat="48.80886" lon="7.29179">
        <ele>216</ele>
        <time>2021-01-17T10:28:48Z</time>
      </trkpt>
      <trkpt lat="48.80742" lon="7.2934">
        <ele>220</ele>
        <time>2021-01-17T10:30:09Z</time>
      </trkpt>
      <trkpt lat="48.8065" lon="7.29386">
        <ele>222</ele>
        <time>2021-01-17T10:30:52Z</time>
      </trkpt>
      <trkpt lat="48.80633" lon="7.29399">
        <ele>222</ele>
        <time>2021-01-17T10:31:00Z</time>
      </trkpt>
      <trkpt lat="48.80557" lon="7.29871">
        <ele>220</ele>
        <time>2021-01-17T10:32:36Z</time>
      </trkpt>
      <trkpt lat="48.80542" lon="7.29937">
        <ele>220</ele>
        <time>2021-01-17T10:32:48Z</time>
      </trkpt>
      <trkpt lat="48.80479" lon="7.30054">
        <ele>219</ele>
        <time>2021-01-17T10:33:16Z</time>
      </trkpt>
      <trkpt lat="48.80403" lon="7.30141">
        <ele>219</ele>
        <time>2021-01-17T10:33:47Z</time>
      </trkpt>
      <trkpt lat="48.80311" lon="7.30261">
        <ele>219</ele>
        <time>2021-01-17T10:34:31Z</time>
      </trkpt>
      <trkpt lat="48.803" lon="7.30288">
        <ele>219</ele>
        <time>2021-01-17T10:34:38Z</time>
      </trkpt>
      <trkpt lat="48.80249" lon="7.30483">
        <ele>216</ele>
        <time>2021-01-17T10:35:17Z</time>
      </trkpt>
      <trkpt lat="48.80202" lon="7.30611">
        <ele>214</ele>
        <time>2021-01-17T10:35:42Z</time>
      </trkpt>
      <trkpt lat="48.8014" lon="7.30687">
        <ele>210</ele>
        <time>2021-01-17T10:36:02Z</time>
      </trkpt>
      <trkpt lat="48.80053" lon="7.30729">
        <ele>206</ele>
        <time>2021-01-17T10:36:23Z</time>
      </trkpt>
      <trkpt lat="48.79934" lon="7.30888">
        <ele>206</ele>
        <time>2021-01-17T10:37:09Z</time>
      </trkpt>
      <trkpt lat="48.79926" lon="7.30902">
        <ele>206</ele>
        <time>2021-01-17T10:37:18Z</time>
      </trkpt>
      <trkpt lat="48.79903" lon="7.30906">
        <ele>207</ele>
        <time>2021-01-17T10:37:29Z</time>
      </trkpt>
      <trkpt lat="48.79884" lon="7.30887">
        <ele>208</ele>
        <time>2021-01-17T10:37:44Z</time>
      </trkpt>
      <trkpt lat="48.79844" lon="7.30774">
        <ele>215</ele>
        <time>2021-01-17T10:38:44Z</time>
      </trkpt>
      <trkpt lat="48.79833" lon="7.30756">
        <ele>216</ele>
        <time>2021-01-17T10:39:00Z</time>
      </trkpt>
      <trkpt lat="48.79806" lon="7.30844">
        <ele>221</ele>
        <time>2021-01-17T10:39:42Z</time>
      </trkpt>
      <trkpt lat="48.79787" lon="7.30644">
        <ele>229</ele>
        <time>2021-01-17T10:41:11Z</time>
      </trkpt>
      <trkpt lat="48.79776" lon="7.306">
        <ele>231</ele>
        <time>2021-01-17T10:41:25Z</time>
      </trkpt>
      <trkpt lat="48.79776" lon="7.30375">
        <ele>228</ele>
        <time>2021-01-17T10:42:06Z</time>
      </trkpt>
      <trkpt lat="48.798" lon="7.30265">
        <ele>228</ele>
        <time>2021-01-17T10:42:25Z</time>
      </trkpt>
      <trkpt lat="48.79795" lon="7.30224">
        <ele>228</ele>
        <time>2021-01-17T10:42:33Z</time>
      </trkpt>
      <trkpt lat="48.79767" lon="7.30153">
        <ele>228</ele>
        <time>2021-01-17T10:42:51Z</time>
      </trkpt>
      <trkpt lat="48.79765" lon="7.30128">
        <ele>228</ele>
        <time>2021-01-17T10:42:57Z</time>
      </trkpt>
      <trkpt lat="48.79746" lon="7.30062">
        <ele>228</ele>
        <time>2021-01-17T10:43:18Z</time>
      </trkpt>
      <trkpt lat="48.79674" lon="7.29902">
        <ele>231</ele>
        <time>2021-01-17T10:44:22Z</time>
      </trkpt>
      <trkpt lat="48.7945" lon="7.29504">
        <ele>234</ele>
        <time>2021-01-17T10:46:28Z</time>
      </trkpt>
      <trkpt lat="48.7939" lon="7.29343">
        <ele>230</ele>
        <time>2021-01-17T10:47:00Z</time>
      </trkpt>
      <trkpt lat="48.79381" lon="7.29114">
        <ele>222</ele>
        <time>2021-01-17T10:47:35Z</time>
      </trkpt>
      <trkpt lat="48.79387" lon="7.29089">
        <ele>221</ele>
        <time>2021-01-17T10:47:40Z</time>
      </trkpt>
      <trkpt lat="48.79349" lon="7.29013">
        <ele>218</ele>
        <time>2021-01-17T10:47:48Z</time>
      </trkpt>
      <trkpt lat="48.79348" lon="7.28942">
        <ele>215</ele>
        <time>2021-01-17T10:48:04Z</time>
      </trkpt>
      <trkpt lat="48.79363" lon="7.28922">
        <ele>215</ele>
        <time>2021-01-17T10:48:08Z</time>
      </trkpt>
      <trkpt lat="48.79381" lon="7.28894">
        <ele>215</ele>
        <time>2021-01-17T10:48:14Z</time>
      </trkpt>
      <trkpt lat="48.79385" lon="7.28881">
        <ele>215</ele>
        <time>2021-01-17T10:48:18Z</time>
      </trkpt>
      <trkpt lat="48.79376" lon="7.28713">
        <ele>214</ele>
        <time>2021-01-17T10:48:53Z</time>
      </trkpt>
      <trkpt lat="48.79377" lon="7.28599">
        <ele>214</ele>
        <time>2021-01-17T10:49:19Z</time>
      </trkpt>
      <trkpt lat="48.79381" lon="7.28581">
        <ele>214</ele>
        <time>2021-01-17T10:49:23Z</time>
      </trkpt>
      <trkpt lat="48.79427" lon="7.28444">
        <ele>215</ele>
        <time>2021-01-17T10:49:59Z</time>
      </trkpt>
      <trkpt lat="48.79428" lon="7.28416">
        <ele>215</ele>
        <time>2021-01-17T10:50:05Z</time>
      </trkpt>
      <trkpt lat="48.79363" lon="7.28246">
        <ele>216</ele>
        <time>2021-01-17T10:50:54Z</time>
      </trkpt>
      <trkpt lat="48.7935" lon="7.28191">
        <ele>217</ele>
        <time>2021-01-17T10:51:09Z</time>
      </trkpt>
      <trkpt lat="48.79331" lon="7.28009">
        <ele>218</ele>
        <time>2021-01-17T10:51:55Z</time>
      </trkpt>
      <trkpt lat="48.79336" lon="7.27977">
        <ele>218</ele>
        <time>2021-01-17T10:52:04Z</time>
      </trkpt>
      <trkpt lat="48.79352" lon="7.27941">
        <ele>219</ele>
        <time>2021-01-17T10:52:15Z</time>
      </trkpt>
      <trkpt lat="48.79352" lon="7.27928">
        <ele>219</ele>
        <time>2021-01-17T10:52:18Z</time>
      </trkpt>
      <trkpt lat="48.79347" lon="7.2792">
        <ele>219</ele>
        <time>2021-01-17T10:52:20Z</time>
      </trkpt>
      <trkpt lat="48.79308" lon="7.27923">
        <ele>220</ele>
        <time>2021-01-17T10:52:35Z</time>
      </trkpt>
      <trkpt lat="48.79265" lon="7.27896">
        <ele>220</ele>
        <time>2021-01-17T10:52:52Z</time>
      </trkpt>
      <trkpt lat="48.79232" lon="7.27822">
        <ele>221</ele>
        <time>2021-01-17T10:53:16Z</time>
      </trkpt>
      <trkpt lat="48.79198" lon="7.27677">
        <ele>222</ele>
        <time>2021-01-17T10:53:56Z</time>
      </trkpt>
      <trkpt lat="48.79112" lon="7.27484">
        <ele>223</ele>
        <time>2021-01-17T10:54:50Z</time>
      </trkpt>
      <trkpt lat="48.79058" lon="7.27324">
        <ele>224</ele>
        <time>2021-01-17T10:55:28Z</time>
      </trkpt>
      <trkpt lat="48.79033" lon="7.27197">
        <ele>225</ele>
        <time>2021-01-17T10:56:01Z</time>
      </trkpt>
      <trkpt lat="48.7903" lon="7.27168">
        <ele>225</ele>
        <time>2021-01-17T10:56:07Z</time>
      </trkpt>
      <trkpt lat="48.79022" lon="7.27144">
        <ele>225</ele>
        <time>2021-01-17T10:56:15Z</time>
      </trkpt>
      <trkpt lat="48.78976" lon="7.2698">
        <ele>228</ele>
        <time>2021-01-17T10:57:03Z</time>
      </trkpt>
      <trkpt lat="48.78971" lon="7.26951">
        <ele>229</ele>
        <time>2021-01-17T10:57:12Z</time>
      </trkpt>
      <trkpt lat="48.78968" lon="7.26856">
        <ele>232</ele>
        <time>2021-01-17T10:57:46Z</time>
      </trkpt>
      <trkpt lat="48.78929" lon="7.26834">
        <ele>233</ele>
        <time>2021-01-17T10:58:25Z</time>
      </trkpt>
      <trkpt lat="48.7892" lon="7.26832">
        <ele>234</ele>
        <time>2021-01-17T10:58:30Z</time>
      </trkpt>
      <trkpt lat="48.78912" lon="7.26836">
        <ele>235</ele>
        <time>2021-01-17T10:58:39Z</time>
      </trkpt>
      <trkpt lat="48.78889" lon="7.26855">
        <ele>237</ele>
        <time>2021-01-17T10:58:54Z</time>
      </trkpt>
      <trkpt lat="48.78818" lon="7.26843">
        <ele>242</ele>
        <time>2021-01-17T10:59:45Z</time>
      </trkpt>
      <trkpt lat="48.78765" lon="7.26813">
        <ele>247</ele>
        <time>2021-01-17T11:00:32Z</time>
      </trkpt>
      <trkpt lat="48.78612" lon="7.26695">
        <ele>257</ele>
        <time>2021-01-17T11:02:20Z</time>
      </trkpt>
      <trkpt lat="48.78593" lon="7.26687">
        <ele>259</ele>
        <time>2021-01-17T11:02:31Z</time>
      </trkpt>
      <trkpt lat="48.78481" lon="7.26615">
        <ele>263</ele>
        <time>2021-01-17T11:03:35Z</time>
      </trkpt>
      <trkpt lat="48.7846" lon="7.26611">
        <ele>264</ele>
        <time>2021-01-17T11:03:45Z</time>
      </trkpt>
      <trkpt lat="48.78438" lon="7.26634">
        <ele>265</ele>
        <time>2021-01-17T11:03:58Z</time>
      </trkpt>
      <trkpt lat="48.78385" lon="7.26638">
        <ele>267</ele>
        <time>2021-01-17T11:04:16Z</time>
      </trkpt>
      <trkpt lat="48.7838" lon="7.26647">
        <ele>267</ele>
        <time>2021-01-17T11:04:18Z</time>
      </trkpt>
      <trkpt lat="48.78362" lon="7.26641">
        <ele>267</ele>
        <time>2021-01-17T11:04:25Z</time>
      </trkpt>
      <trkpt lat="48.78297" lon="7.26635">
        <ele>269</ele>
        <time>2021-01-17T11:04:45Z</time>
      </trkpt>
      <trkpt lat="48.78124" lon="7.26664">
        <ele>271</ele>
        <time>2021-01-17T11:05:27Z</time>
      </trkpt>
      <trkpt lat="48.78016" lon="7.26621">
        <ele>273</ele>
        <time>2021-01-17T11:05:59Z</time>
      </trkpt>
      <trkpt lat="48.77819" lon="7.26524">
        <ele>280</ele>
        <time>2021-01-17T11:07:13Z</time>
      </trkpt>
      <trkpt lat="48.77761" lon="7.26479">
        <ele>283</ele>
        <time>2021-01-17T11:07:38Z</time>
      </trkpt>
      <trkpt lat="48.77729" lon="7.26431">
        <ele>284</ele>
        <time>2021-01-17T11:07:56Z</time>
      </trkpt>
      <trkpt lat="48.77663" lon="7.26301">
        <ele>289</ele>
        <time>2021-01-17T11:08:41Z</time>
      </trkpt>
      <trkpt lat="48.77637" lon="7.26271">
        <ele>290</ele>
        <time>2021-01-17T11:08:54Z</time>
      </trkpt>
      <trkpt lat="48.77594" lon="7.26238">
        <ele>292</ele>
        <time>2021-01-17T11:09:12Z</time>
      </trkpt>
      <trkpt lat="48.77532" lon="7.26206">
        <ele>295</ele>
        <time>2021-01-17T11:09:36Z</time>
      </trkpt>
      <trkpt lat="48.77432" lon="7.2621">
        <ele>299</ele>
        <time>2021-01-17T11:10:15Z</time>
      </trkpt>
      <trkpt lat="48.77346" lon="7.2626">
        <ele>304</ele>
        <time>2021-01-17T11:10:55Z</time>
      </trkpt>
      <trkpt lat="48.77255" lon="7.26275">
        <ele>309</ele>
        <time>2021-01-17T11:11:44Z</time>
      </trkpt>
      <trkpt lat="48.77198" lon="7.26279">
        <ele>312</ele>
        <time>2021-01-17T11:12:14Z</time>
      </trkpt>
      <trkpt lat="48.77122" lon="7.26296">
        <ele>317</ele>
        <time>2021-01-17T11:12:50Z</time>
      </trkpt>
      <trkpt lat="48.76995" lon="7.26321">
        <ele>322</ele>
        <time>2021-01-17T11:13:43Z</time>
      </trkpt>
      <trkpt lat="48.76963" lon="7.26323">
        <ele>323</ele>
        <time>2021-01-17T11:13:53Z</time>
      </trkpt>
      <trkpt lat="48.7696" lon="7.26247">
        <ele>325</ele>
        <time>2021-01-17T11:14:11Z</time>
      </trkpt>
      <trkpt lat="48.76973" lon="7.2624">
        <ele>326</ele>
        <time>2021-01-17T11:14:15Z</time>
      </trkpt>
      <trkpt lat="48.7705" lon="7.26135">
        <ele>329</ele>
        <time>2021-01-17T11:14:56Z</time>
      </trkpt>
      <trkpt lat="48.77002" lon="7.26046">
        <ele>331</ele>
        <time>2021-01-17T11:15:21Z</time>
      </trkpt>
      <trkpt lat="48.76999" lon="7.26035">
        <ele>332</ele>
        <time>2021-01-17T11:15:25Z</time>
      </trkpt>
      <trkpt lat="48.76964" lon="7.25948">
        <ele>333</ele>
        <time>2021-01-17T11:15:57Z</time>
      </trkpt>
      <trkpt lat="48.76948" lon="7.25942">
        <ele>334</ele>
        <time>2021-01-17T11:16:05Z</time>
      </trkpt>
      <trkpt lat="48.76944" lon="7.25909">
        <ele>334</ele>
        <time>2021-01-17T11:16:15Z</time>
      </trkpt>
      <trkpt lat="48.76945" lon="7.25897">
        <ele>335</ele>
        <time>2021-01-17T11:16:19Z</time>
      </trkpt>
      <trkpt lat="48.76943" lon="7.25879">
        <ele>335</ele>
        <time>2021-01-17T11:16:22Z</time>
      </trkpt>
      <trkpt lat="48.76788" lon="7.25963">
        <ele>337</ele>
        <time>2021-01-17T11:17:03Z</time>
      </trkpt>
      <trkpt lat="48.7675" lon="7.25984">
        <ele>337</ele>
        <time>2021-01-17T11:17:11Z</time>
      </trkpt>
      <trkpt lat="48.76739" lon="7.25911">
        <ele>337</ele>
        <time>2021-01-17T11:17:20Z</time>
      </trkpt>
      <trkpt lat="48.76749" lon="7.25909">
        <ele>337</ele>
        <time>2021-01-17T11:17:22Z</time>
      </trkpt>
      <trkpt lat="48.76738" lon="7.25818">
        <ele>337</ele>
        <time>2021-01-17T11:17:37Z</time>
      </trkpt>
      <trkpt lat="48.76667" lon="7.25836">
        <ele>336</ele>
        <time>2021-01-17T11:17:49Z</time>
      </trkpt>
      <trkpt lat="48.76672" lon="7.25884">
        <ele>336</ele>
        <time>2021-01-17T11:17:55Z</time>
      </trkpt>
      <trkpt lat="48.76564" lon="7.25917">
        <ele>334</ele>
        <time>2021-01-17T11:18:14Z</time>
      </trkpt>
      <trkpt lat="48.76552" lon="7.25926">
        <ele>334</ele>
        <time>2021-01-17T11:18:17Z</time>
      </trkpt>
      <trkpt lat="48.76544" lon="7.25937">
        <ele>334</ele>
        <time>2021-01-17T11:18:20Z</time>
      </trkpt>
      <trkpt lat="48.76539" lon="7.2595">
        <ele>333</ele>
        <time>2021-01-17T11:18:22Z</time>
      </trkpt>
      <trkpt lat="48.76533" lon="7.25976">
        <ele>333</ele>
        <time>2021-01-17T11:18:25Z</time>
      </trkpt>
      <trkpt lat="48.76465" lon="7.2605">
        <ele>329</ele>
        <time>2021-01-17T11:19:14Z</time>
      </trkpt>
      <trkpt lat="48.76459" lon="7.26083">
        <ele>328</ele>
        <time>2021-01-17T11:19:30Z</time>
      </trkpt>
      <trkpt lat="48.7644" lon="7.26107">
        <ele>327</ele>
        <time>2021-01-17T11:19:48Z</time>
      </trkpt>
      <trkpt lat="48.76432" lon="7.26114">
        <ele>327</ele>
        <time>2021-01-17T11:19:49Z</time>
      </trkpt>
      <trkpt lat="48.76363" lon="7.26146">
        <ele>323</ele>
        <time>2021-01-17T11:19:58Z</time>
      </trkpt>
      <trkpt lat="48.7635" lon="7.26109">
        <ele>322</ele>
        <time>2021-01-17T11:20:02Z</time>
      </trkpt>
      <trkpt lat="48.7614" lon="7.26039">
        <ele>313</ele>
        <time>2021-01-17T11:20:33Z</time>
      </trkpt>
      <trkpt lat="48.7606" lon="7.26023">
        <ele>310</ele>
        <time>2021-01-17T11:20:50Z</time>
      </trkpt>
      <trkpt lat="48.7603" lon="7.26029">
        <ele>309</ele>
        <time>2021-01-17T11:20:56Z</time>
      </trkpt>
      <trkpt lat="48.75983" lon="7.26067">
        <ele>307</ele>
        <time>2021-01-17T11:21:08Z</time>
      </trkpt>
      <trkpt lat="48.75892" lon="7.262">
        <ele>303</ele>
        <time>2021-01-17T11:21:32Z</time>
      </trkpt>
      <trkpt lat="48.75888" lon="7.26211">
        <ele>303</ele>
        <time>2021-01-17T11:21:34Z</time>
      </trkpt>
      <trkpt lat="48.7592" lon="7.26268">
        <ele>301</ele>
        <time>2021-01-17T11:21:46Z</time>
      </trkpt>
      <trkpt lat="48.75928" lon="7.263">
        <ele>300</ele>
        <time>2021-01-17T11:21:52Z</time>
      </trkpt>
      <trkpt lat="48.75908" lon="7.26323">
        <ele>299</ele>
        <time>2021-01-17T11:21:58Z</time>
      </trkpt>
      <trkpt lat="48.75884" lon="7.26369">
        <ele>298</ele>
        <time>2021-01-17T11:22:08Z</time>
      </trkpt>
      <trkpt lat="48.75793" lon="7.2646">
        <ele>297</ele>
        <time>2021-01-17T11:22:40Z</time>
      </trkpt>
      <trkpt lat="48.75738" lon="7.26499">
        <ele>296</ele>
        <time>2021-01-17T11:22:59Z</time>
      </trkpt>
      <trkpt lat="48.75682" lon="7.26572">
        <ele>296</ele>
        <time>2021-01-17T11:23:21Z</time>
      </trkpt>
      <trkpt lat="48.75574" lon="7.2666">
        <ele>296</ele>
        <time>2021-01-17T11:24:00Z</time>
      </trkpt>
      <trkpt lat="48.75604" lon="7.26662">
        <ele>297</ele>
        <time>2021-01-17T11:24:20Z</time>
      </trkpt>
      <trkpt lat="48.75624" lon="7.26683">
        <ele>297</ele>
        <time>2021-01-17T11:24:38Z</time>
      </trkpt>
      <trkpt lat="48.75642" lon="7.26729">
        <ele>299</ele>
        <time>2021-01-17T11:25:02Z</time>
      </trkpt>
      <trkpt lat="48.75636" lon="7.26751">
        <ele>299</ele>
        <time>2021-01-17T11:25:13Z</time>
      </trkpt>
      <trkpt lat="48.75641" lon="7.26817">
        <ele>300</ele>
        <time>2021-01-17T11:25:44Z</time>
      </trkpt>
      <trkpt lat="48.75687" lon="7.2691">
        <ele>302</ele>
        <time>2021-01-17T11:26:16Z</time>
      </trkpt>
      <trkpt lat="48.75745" lon="7.27016">
        <ele>304</ele>
        <time>2021-01-17T11:26:42Z</time>
      </trkpt>
      <trkpt lat="48.75715" lon="7.27022">
        <ele>305</ele>
        <time>2021-01-17T11:26:50Z</time>
      </trkpt>
      <trkpt lat="48.75628" lon="7.26995">
        <ele>301</ele>
        <time>2021-01-17T11:27:25Z</time>
      </trkpt>
      <trkpt lat="48.75559" lon="7.27021">
        <ele>299</ele>
        <time>2021-01-17T11:28:09Z</time>
      </trkpt>
      <trkpt lat="48.75454" lon="7.27111">
        <ele>297</ele>
        <time>2021-01-17T11:28:36Z</time>
      </trkpt>
      <trkpt lat="48.7535" lon="7.27167">
        <ele>295</ele>
        <time>2021-01-17T11:29:11Z</time>
      </trkpt>
      <trkpt lat="48.75282" lon="7.27216">
        <ele>294</ele>
        <time>2021-01-17T11:29:29Z</time>
      </trkpt>
      <trkpt lat="48.75212" lon="7.27328">
        <ele>294</ele>
        <time>2021-01-17T11:29:37Z</time>
      </trkpt>
      <trkpt lat="48.75179" lon="7.27405">
        <ele>294</ele>
        <time>2021-01-17T11:29:44Z</time>
      </trkpt>
      <trkpt lat="48.7516" lon="7.27459">
        <ele>293</ele>
        <time>2021-01-17T11:29:50Z</time>
      </trkpt>
      <trkpt lat="48.75114" lon="7.27497">
        <ele>293</ele>
        <time>2021-01-17T11:29:55Z</time>
      </trkpt>
      <trkpt lat="48.7506" lon="7.27601">
        <ele>293</ele>
        <time>2021-01-17T11:30:04Z</time>
      </trkpt>
      <trkpt lat="48.75024" lon="7.27652">
        <ele>291</ele>
        <time>2021-01-17T11:30:30Z</time>
      </trkpt>
      <trkpt lat="48.75036" lon="7.27728">
        <ele>289</ele>
        <time>2021-01-17T11:30:51Z</time>
      </trkpt>
      <trkpt lat="48.75008" lon="7.27816">
        <ele>282</ele>
        <time>2021-01-17T11:31:29Z</time>
      </trkpt>
      <trkpt lat="48.75043" lon="7.27901">
        <ele>364</ele>
      </trkpt>
      <trkpt lat="48.75109" lon="7.28132">
        <ele>366.4</ele>
      </trkpt>
      <trkpt lat="48.75072" lon="7.28169">
        <ele>363.9</ele>
      </trkpt>
      <trkpt lat="48.75029" lon="7.28145">
        <ele>364.8</ele>
      </trkpt>
      <trkpt lat="48.74981" lon="7.2813">
        <ele>363.4</ele>
      </trkpt>
      <trkpt lat="48.74914" lon="7.28134">
        <ele>359.8</ele>
      </trkpt>
      <trkpt lat="48.74774" lon="7.28175">
        <ele>354.8</ele>
      </trkpt>
      <trkpt lat="48.7465" lon="7.28195">
        <ele>349.3</ele>
      </trkpt>
      <trkpt lat="48.74524" lon="7.28237">
        <ele>337.1</ele>
      </trkpt>
      <trkpt lat="48.74452" lon="7.28297">
        <ele>333.7</ele>
      </trkpt>
      <trkpt lat="48.74388" lon="7.28312">
        <ele>327.2</ele>
      </trkpt>
      <trkpt lat="48.74307" lon="7.28345">
        <ele>321.9</ele>
      </trkpt>
      <trkpt lat="48.74185" lon="7.2839">
        <ele>311.8</ele>
      </trkpt>
      <trkpt lat="48.74194" lon="7.28353">
        <ele>304.2</ele>
      </trkpt>
      <trkpt lat="48.74239" lon="7.28333">
        <ele>306.9</ele>
      </trkpt>
      <trkpt lat="48.74248" lon="7.28321">
        <ele>305.5</ele>
      </trkpt>
      <trkpt lat="48.74233" lon="7.28321">
        <ele>302.8</ele>
      </trkpt>
      <trkpt lat="48.74312" lon="7.28239">
        <ele>299</ele>
      </trkpt>
      <trkpt lat="48.74426" lon="7.28133">
        <ele>293.7</ele>
      </trkpt>
      <trkpt lat="48.74426" lon="7.28133">
        <ele>293.4</ele>
      </trkpt>
      <trkpt lat="48.74492" lon="7.28049">
        <ele>287</ele>
      </trkpt>
      <trkpt lat="48.74655" lon="7.27852">
        <ele>271.9</ele>
      </trkpt>
      <trkpt lat="48.74678" lon="7.27797">
        <ele>278</ele>
        <time>2021-01-17T11:31:55Z</time>
      </trkpt>
      <trkpt lat="48.7471" lon="7.27698">
        <ele>275</ele>
        <time>2021-01-17T11:32:14Z</time>
      </trkpt>
      <trkpt lat="48.74698" lon="7.27693">
        <ele>274</ele>
        <time>2021-01-17T11:32:19Z</time>
      </trkpt>
      <trkpt lat="48.74658" lon="7.27766">
        <ele>275</ele>
        <time>2021-01-17T11:32:29Z</time>
      </trkpt>
      <trkpt lat="48.74592" lon="7.27824">
        <ele>275</ele>
        <time>2021-01-17T11:32:33Z</time>
      </trkpt>
      <trkpt lat="48.74551" lon="7.27877">
        <ele>275</ele>
        <time>2021-01-17T11:32:42Z</time>
      </trkpt>
      <trkpt lat="48.74507" lon="7.279">
        <ele>275</ele>
        <time>2021-01-17T11:32:55Z</time>
      </trkpt>
      <trkpt lat="48.74415" lon="7.27977">
        <ele>275</ele>
        <time>2021-01-17T11:33:02Z</time>
      </trkpt>
      <trkpt lat="48.74346" lon="7.28012">
        <ele>276</ele>
        <time>2021-01-17T11:33:10Z</time>
      </trkpt>
      <trkpt lat="48.7426" lon="7.281">
        <ele>282</ele>
        <time>2021-01-17T11:38:03Z</time>
      </trkpt>
      <trkpt lat="48.74204" lon="7.28116">
        <ele>284</ele>
        <time>2021-01-17T11:38:57Z</time>
      </trkpt>
      <trkpt lat="48.74158" lon="7.28171">
        <ele>286</ele>
        <time>2021-01-17T11:39:25Z</time>
      </trkpt>
      <trkpt lat="48.741" lon="7.28176">
        <ele>288</ele>
        <time>2021-01-17T11:40:13Z</time>
      </trkpt>
      <trkpt lat="48.74026" lon="7.28228">
        <ele>290</ele>
        <time>2021-01-17T11:40:44Z</time>
      </trkpt>
      <trkpt lat="48.73896" lon="7.28281">
        <ele>294</ele>
        <time>2021-01-17T11:41:58Z</time>
      </trkpt>
      <trkpt lat="48.73801" lon="7.28295">
        <ele>294</ele>
        <time>2021-01-17T11:42:31Z</time>
      </trkpt>
      <trkpt lat="48.737" lon="7.28303">
        <ele>294</ele>
        <time>2021-01-17T11:43:34Z</time>
      </trkpt>
      <trkpt lat="48.73484" lon="7.28162">
        <ele>286</ele>
        <time>2021-01-17T11:45:15Z</time>
      </trkpt>
      <trkpt lat="48.73403" lon="7.28165">
        <ele>279</ele>
        <time>2021-01-17T11:46:18Z</time>
      </trkpt>
      <trkpt lat="48.73378" lon="7.2814">
        <ele>274</ele>
        <time>2021-01-17T11:47:04Z</time>
      </trkpt>
      <trkpt lat="48.7343" lon="7.28003">
        <ele>272</ele>
        <time>2021-01-17T11:47:59Z</time>
      </trkpt>
      <trkpt lat="48.73457" lon="7.27874">
        <ele>272</ele>
        <time>2021-01-17T11:49:32Z</time>
      </trkpt>
      <trkpt lat="48.73547" lon="7.27619">
        <ele>276</ele>
        <time>2021-01-17T11:51:02Z</time>
      </trkpt>
      <trkpt lat="48.73656" lon="7.27447">
        <ele>278</ele>
        <time>2021-01-17T11:51:52Z</time>
      </trkpt>
      <trkpt lat="48.73746" lon="7.27307">
        <ele>280</ele>
        <time>2021-01-17T11:52:52Z</time>
      </trkpt>
      <trkpt lat="48.73794" lon="7.27186">
        <ele>280</ele>
        <time>2021-01-17T11:53:48Z</time>
      </trkpt>
      <trkpt lat="48.73817" lon="7.27106">
        <ele>280</ele>
        <time>2021-01-17T11:54:11Z</time>
      </trkpt>
      <trkpt lat="48.73831" lon="7.26996">
        <ele>280</ele>
        <time>2021-01-17T11:54:49Z</time>
      </trkpt>
      <trkpt lat="48.73841" lon="7.26789">
        <ele>277</ele>
        <time>2021-01-17T11:55:42Z</time>
      </trkpt>
      <trkpt lat="48.7386" lon="7.26649">
        <ele>275</ele>
        <time>2021-01-17T11:56:41Z</time>
      </trkpt>
      <trkpt lat="48.73855" lon="7.26527">
        <ele>279</ele>
        <time>2021-01-17T12:04:45Z</time>
      </trkpt>
      <trkpt lat="48.73892" lon="7.26402">
        <ele>279</ele>
        <time>2021-01-17T12:05:20Z</time>
      </trkpt>
      <trkpt lat="48.73882" lon="7.26294">
        <ele>279</ele>
        <time>2021-01-17T12:06:06Z</time>
      </trkpt>
      <trkpt lat="48.73856" lon="7.26195">
        <ele>278</ele>
        <time>2021-01-17T12:06:16Z</time>
      </trkpt>
      <trkpt lat="48.73828" lon="7.26152">
        <ele>278</ele>
        <time>2021-01-17T12:06:25Z</time>
      </trkpt>
      <trkpt lat="48.73763" lon="7.26084">
        <ele>278</ele>
        <time>2021-01-17T12:07:08Z</time>
      </trkpt>
      <trkpt lat="48.73677" lon="7.25966">
        <ele>277</ele>
        <time>2021-01-17T12:08:05Z</time>
      </trkpt>
      <trkpt lat="48.73645" lon="7.25918">
        <ele>276</ele>
        <time>2021-01-17T12:08:54Z</time>
      </trkpt>
      <trkpt lat="48.73617" lon="7.25844">
        <ele>275</ele>
        <time>2021-01-17T12:09:03Z</time>
      </trkpt>
      <trkpt lat="48.73603" lon="7.25778">
        <ele>276</ele>
        <time>2021-01-17T12:09:07Z</time>
      </trkpt>
      <trkpt lat="48.73601" lon="7.25712">
        <ele>276</ele>
        <time>2021-01-17T12:09:11Z</time>
      </trkpt>
      <trkpt lat="48.73617" lon="7.25573">
        <ele>279</ele>
        <time>2021-01-17T12:09:50Z</time>
      </trkpt>
      <trkpt lat="48.73578" lon="7.25557">
        <ele>281</ele>
        <time>2021-01-17T12:10:36Z</time>
      </trkpt>
      <trkpt lat="48.73544" lon="7.25146">
        <ele>283</ele>
        <time>2021-01-17T12:11:16Z</time>
      </trkpt>
      <trkpt lat="48.73522" lon="7.25096">
        <ele>214</ele>
        <time>2021-01-17T12:19:31Z</time>
      </trkpt>
      <trkpt lat="48.73506" lon="7.25084">
        <ele>214</ele>
        <time>2021-01-17T12:19:45Z</time>
      </trkpt>
      <trkpt lat="48.73465" lon="7.25002">
        <ele>214</ele>
        <time>2021-01-17T12:19:52Z</time>
      </trkpt>
      <trkpt lat="48.73447" lon="7.24965">
        <ele>214</ele>
        <time>2021-01-17T12:19:54Z</time>
      </trkpt>
      <trkpt lat="48.73378" lon="7.24909">
        <ele>214</ele>
        <time>2021-01-17T12:20:06Z</time>
      </trkpt>
      <trkpt lat="48.7333" lon="7.24905">
        <ele>216</ele>
        <time>2021-01-17T12:20:25Z</time>
      </trkpt>
      <trkpt lat="48.73298" lon="7.24915">
        <ele>221</ele>
        <time>2021-01-17T12:21:08Z</time>
      </trkpt>
      <trkpt lat="48.73272" lon="7.2493">
        <ele>222</ele>
        <time>2021-01-17T12:21:23Z</time>
      </trkpt>
      <trkpt lat="48.73235" lon="7.24976">
        <ele>224</ele>
        <time>2021-01-17T12:21:45Z</time>
      </trkpt>
      <trkpt lat="48.73201" lon="7.25012">
        <ele>226</ele>
        <time>2021-01-17T12:22:09Z</time>
      </trkpt>
      <trkpt lat="48.73175" lon="7.25024">
        <ele>227</ele>
        <time>2021-01-17T12:22:12Z</time>
      </trkpt>
      <trkpt lat="48.7313" lon="7.25028">
        <ele>228</ele>
        <time>2021-01-17T12:22:20Z</time>
      </trkpt>
      <trkpt lat="48.73086" lon="7.25002">
        <ele>229</ele>
        <time>2021-01-17T12:22:29Z</time>
      </trkpt>
      <trkpt lat="48.73053" lon="7.2496">
        <ele>232</ele>
        <time>2021-01-17T12:24:01Z</time>
      </trkpt>
      <trkpt lat="48.73012" lon="7.24847">
        <ele>232</ele>
        <time>2021-01-17T12:24:06Z</time>
      </trkpt>
      <trkpt lat="48.72948" lon="7.24661">
        <ele>233</ele>
        <time>2021-01-17T12:24:16Z</time>
      </trkpt>
      <trkpt lat="48.72862" lon="7.24408">
        <ele>233</ele>
        <time>2021-01-17T12:24:26Z</time>
      </trkpt>
      <trkpt lat="48.72817" lon="7.24253">
        <ele>242</ele>
        <time>2021-01-17T12:26:37Z</time>
      </trkpt>
      <trkpt lat="48.72798" lon="7.24079">
        <ele>250</ele>
        <time>2021-01-17T12:27:47Z</time>
      </trkpt>
      <trkpt lat="48.72796" lon="7.23812">
        <ele>258</ele>
        <time>2021-01-17T12:29:05Z</time>
      </trkpt>
      <trkpt lat="48.72796" lon="7.2369">
        <ele>264</ele>
        <time>2021-01-17T12:30:00Z</time>
      </trkpt>
      <trkpt lat="48.72769" lon="7.2335">
        <ele>273</ele>
        <time>2021-01-17T12:31:23Z</time>
      </trkpt>
      <trkpt lat="48.7278" lon="7.23342">
        <ele>279</ele>
        <time>2021-01-17T12:33:49Z</time>
      </trkpt>
      <trkpt lat="48.72784" lon="7.23265">
        <ele>281</ele>
        <time>2021-01-17T12:34:12Z</time>
      </trkpt>
      <trkpt lat="48.72775" lon="7.23254">
        <ele>284</ele>
        <time>2021-01-17T12:34:45Z</time>
      </trkpt>
      <trkpt lat="48.72754" lon="7.23246">
        <ele>284</ele>
        <time>2021-01-17T12:34:50Z</time>
      </trkpt>
      <trkpt lat="48.72739" lon="7.23165">
        <ele>284</ele>
        <time>2021-01-17T12:40:43Z</time>
      </trkpt>
      <trkpt lat="48.72703" lon="7.23099">
        <ele>283</ele>
        <time>2021-01-17T12:40:48Z</time>
      </trkpt>
      <trkpt lat="48.72652" lon="7.23043">
        <ele>283</ele>
        <time>2021-01-17T12:41:03Z</time>
      </trkpt>
      <trkpt lat="48.72576" lon="7.23011">
        <ele>283</ele>
        <time>2021-01-17T12:41:19Z</time>
      </trkpt>
      <trkpt lat="48.72341" lon="7.22945">
        <ele>284</ele>
        <time>2021-01-17T12:41:50Z</time>
      </trkpt>
      <trkpt lat="48.72313" lon="7.22942">
        <ele>283</ele>
        <time>2021-01-17T12:42:14Z</time>
      </trkpt>
      <trkpt lat="48.72289" lon="7.23014">
        <ele>283</ele>
        <time>2021-01-17T12:42:21Z</time>
      </trkpt>
      <trkpt lat="48.72268" lon="7.23015">
        <ele>282</ele>
        <time>2021-01-17T12:42:26Z</time>
      </trkpt>
      <trkpt lat="48.72163" lon="7.22853">
        <ele>282</ele>
        <time>2021-01-17T12:42:33Z</time>
      </trkpt>
      <trkpt lat="48.7211" lon="7.22734">
        <ele>282</ele>
        <time>2021-01-17T12:42:48Z</time>
      </trkpt>
      <trkpt lat="48.72058" lon="7.22584">
        <ele>280</ele>
        <time>2021-01-17T12:43:02Z</time>
      </trkpt>
      <trkpt lat="48.72039" lon="7.22591">
        <ele>271</ele>
        <time>2021-01-17T12:43:41Z</time>
      </trkpt>
      <trkpt lat="48.72034" lon="7.22546">
        <ele>271</ele>
        <time>2021-01-17T12:43:55Z</time>
      </trkpt>
      <trkpt lat="48.72002" lon="7.2238">
        <ele>270</ele>
        <time>2021-01-17T12:44:11Z</time>
      </trkpt>
      <trkpt lat="48.71988" lon="7.22272">
        <ele>270</ele>
        <time>2021-01-17T12:44:41Z</time>
      </trkpt>
      <trkpt lat="48.71981" lon="7.22152">
        <ele>271</ele>
        <time>2021-01-17T12:44:53Z</time>
      </trkpt>
      <trkpt lat="48.71987" lon="7.22122">
        <ele>274</ele>
        <time>2021-01-17T12:45:49Z</time>
      </trkpt>
      <trkpt lat="48.71997" lon="7.22115">
        <ele>275</ele>
        <time>2021-01-17T12:46:05Z</time>
      </trkpt>
      <trkpt lat="48.71998" lon="7.22033">
        <ele>279</ele>
        <time>2021-01-17T12:46:57Z</time>
      </trkpt>
      <trkpt lat="48.72004" lon="7.22032">
        <ele>281</ele>
        <time>2021-01-17T12:47:13Z</time>
      </trkpt>
      <trkpt lat="48.72004" lon="7.21962">
        <ele>283</ele>
        <time>2021-01-17T12:47:37Z</time>
      </trkpt>
      <trkpt lat="48.71999" lon="7.21958">
        <ele>286</ele>
        <time>2021-01-17T12:47:56Z</time>
      </trkpt>
      <trkpt lat="48.72" lon="7.21919">
        <ele>287</ele>
        <time>2021-01-17T12:48:07Z</time>
      </trkpt>
      <trkpt lat="48.72027" lon="7.2176">
        <ele>302</ele>
        <time>2021-01-17T12:50:12Z</time>
      </trkpt>
      <trkpt lat="48.72028" lon="7.2175">
        <ele>237.9</ele>
      </trkpt>
      <trkpt lat="48.72019" lon="7.2174">
        <ele>235.9</ele>
      </trkpt>
      <trkpt lat="48.7205" lon="7.21549">
        <ele>234.2</ele>
      </trkpt>
      <trkpt lat="48.72078" lon="7.21513">
        <ele>236</ele>
      </trkpt>
      <trkpt lat="48.72098" lon="7.21501">
        <ele>240.2</ele>
      </trkpt>
      <trkpt lat="48.72144" lon="7.21453">
        <ele>245.1</ele>
      </trkpt>
      <trkpt lat="48.72206" lon="7.21292">
        <ele>243.6</ele>
      </trkpt>
      <trkpt lat="48.72284" lon="7.21154">
        <ele>237.9</ele>
      </trkpt>
      <trkpt lat="48.72305" lon="7.21105">
        <ele>279</ele>
        <time>2021-01-17T13:00:29Z</time>
      </trkpt>
      <trkpt lat="48.72333" lon="7.20866">
        <ele>283</ele>
        <time>2021-01-17T13:01:31Z</time>
      </trkpt>
      <trkpt lat="48.72361" lon="7.20725">
        <ele>284</ele>
        <time>2021-01-17T13:02:27Z</time>
      </trkpt>
      <trkpt lat="48.72428" lon="7.20523">
        <ele>285</ele>
        <time>2021-01-17T13:02:43Z</time>
      </trkpt>
      <trkpt lat="48.72459" lon="7.20391">
        <ele>285</ele>
        <time>2021-01-17T13:02:48Z</time>
      </trkpt>
      <trkpt lat="48.72463" lon="7.2031">
        <ele>284</ele>
        <time>2021-01-17T13:02:52Z</time>
      </trkpt>
      <trkpt lat="48.72465" lon="7.20098">
        <ele>284</ele>
        <time>2021-01-17T13:02:55Z</time>
      </trkpt>
      <trkpt lat="48.72488" lon="7.19886">
        <ele>283</ele>
        <time>2021-01-17T13:03:00Z</time>
      </trkpt>
      <trkpt lat="48.7248" lon="7.19807">
        <ele>238.8</ele>
      </trkpt>
      <trkpt lat="48.72422" lon="7.19594">
        <ele>239.8</ele>
      </trkpt>
      <trkpt lat="48.72395" lon="7.19472">
        <ele>241.6</ele>
      </trkpt>
      <trkpt lat="48.72387" lon="7.19225">
        <ele>246.9</ele>
      </trkpt>
      <trkpt lat="48.72399" lon="7.19075">
        <ele>257.3</ele>
      </trkpt>
      <trkpt lat="48.72444" lon="7.18827">
        <ele>270.5</ele>
      </trkpt>
      <trkpt lat="48.72484" lon="7.18715">
        <ele>279.1</ele>
      </trkpt>
      <trkpt lat="48.72524" lon="7.18658">
        <ele>277.9</ele>
      </trkpt>
      <trkpt lat="48.7254" lon="7.18555">
        <ele>281.7</ele>
      </trkpt>
      <trkpt lat="48.72504" lon="7.18455">
        <ele>288.7</ele>
      </trkpt>
      <trkpt lat="48.7251" lon="7.18407">
        <ele>289.1</ele>
      </trkpt>
      <trkpt lat="48.72449" lon="7.18151">
        <ele>292.3</ele>
      </trkpt>
      <trkpt lat="48.72428" lon="7.18067">
        <ele>292</ele>
      </trkpt>
      <trkpt lat="48.72411" lon="7.1801">
        <ele>291.8</ele>
      </trkpt>
      <trkpt lat="48.72394" lon="7.17997">
        <ele>292.5</ele>
      </trkpt>
      <trkpt lat="48.72381" lon="7.17969">
        <ele>292.7</ele>
      </trkpt>
      <trkpt lat="48.72374" lon="7.17971">
        <ele>293.5</ele>
      </trkpt>
      <trkpt lat="48.72363" lon="7.18065">
        <ele>298.5</ele>
      </trkpt>
      <trkpt lat="48.724" lon="7.18477">
        <ele>305.5</ele>
      </trkpt>
      <trkpt lat="48.7239" lon="7.18574">
        <ele>305.2</ele>
      </trkpt>
      <trkpt lat="48.72354" lon="7.18694">
        <ele>300</ele>
      </trkpt>
      <trkpt lat="48.7231" lon="7.18801">
        <ele>285.4</ele>
      </trkpt>
      <trkpt lat="48.72275" lon="7.18929">
        <ele>278.4</ele>
      </trkpt>
      <trkpt lat="48.72267" lon="7.19202">
        <ele>271.4</ele>
      </trkpt>
      <trkpt lat="48.72269" lon="7.19484">
        <ele>254.4</ele>
      </trkpt>
      <trkpt lat="48.72277" lon="7.19592">
        <ele>261.5</ele>
      </trkpt>
      <trkpt lat="48.72346" lon="7.19898">
        <ele>260.6</ele>
      </trkpt>
      <trkpt lat="48.7235" lon="7.20355">
        <ele>260</ele>
      </trkpt>
      <trkpt lat="48.72337" lon="7.2044">
        <ele>258.2</ele>
      </trkpt>
      <trkpt lat="48.72237" lon="7.2077">
        <ele>261.1</ele>
      </trkpt>
      <trkpt lat="48.72207" lon="7.20993">
        <ele>261.3</ele>
      </trkpt>
      <trkpt lat="48.72038" lon="7.21348">
        <ele>264.8</ele>
      </trkpt>
      <trkpt lat="48.71855" lon="7.21637">
        <ele>229</ele>
        <time>2021-01-17T13:17:31Z</time>
      </trkpt>
      <trkpt lat="48.71869" lon="7.21643">
        <ele>258.4</ele>
      </trkpt>
      <trkpt lat="48.71872" lon="7.21655">
        <ele>255.4</ele>
      </trkpt>
      <trkpt lat="48.71863" lon="7.21672">
        <ele>254.2</ele>
      </trkpt>
      <trkpt lat="48.71873" lon="7.21684">
        <ele>249.5</ele>
      </trkpt>
      <trkpt lat="48.71934" lon="7.21636">
        <ele>242.7</ele>
      </trkpt>
      <trkpt lat="48.71921" lon="7.21725">
        <ele>232.8</ele>
      </trkpt>
      <trkpt lat="48.71967" lon="7.22079">
        <ele>225</ele>
      </trkpt>
      <trkpt lat="48.71966" lon="7.22142">
        <ele>229</ele>
        <time>2021-01-17T13:17:37Z</time>
      </trkpt>
      <trkpt lat="48.71938" lon="7.22258">
        <ele>230</ele>
        <time>2021-01-17T13:18:03Z</time>
      </trkpt>
      <trkpt lat="48.71929" lon="7.22342">
        <ele>232</ele>
        <time>2021-01-17T13:18:28Z</time>
      </trkpt>
      <trkpt lat="48.71909" lon="7.22391">
        <ele>234</ele>
        <time>2021-01-17T13:18:44Z</time>
      </trkpt>
      <trkpt lat="48.71848" lon="7.22472">
        <ele>237</ele>
        <time>2021-01-17T13:19:16Z</time>
      </trkpt>
      <trkpt lat="48.7191" lon="7.22631">
        <ele>238</ele>
        <time>2021-01-17T13:19:25Z</time>
      </trkpt>
      <trkpt lat="48.71979" lon="7.22787">
        <ele>239</ele>
        <time>2021-01-17T13:19:37Z</time>
      </trkpt>
      <trkpt lat="48.72003" lon="7.22839">
        <ele>239</ele>
        <time>2021-01-17T13:19:42Z</time>
      </trkpt>
      <trkpt lat="48.72036" lon="7.22877">
        <ele>239</ele>
        <time>2021-01-17T13:19:49Z</time>
      </trkpt>
      <trkpt lat="48.7202" lon="7.22898">
        <ele>245</ele>
        <time>2021-01-17T13:21:24Z</time>
      </trkpt>
      <trkpt lat="48.71961" lon="7.22844">
        <ele>245</ele>
        <time>2021-01-17T13:21:27Z</time>
      </trkpt>
      <trkpt lat="48.71932" lon="7.22824">
        <ele>247</ele>
        <time>2021-01-17T13:21:52Z</time>
      </trkpt>
      <trkpt lat="48.71923" lon="7.2277">
        <ele>250</ele>
        <time>2021-01-17T13:22:29Z</time>
      </trkpt>
      <trkpt lat="48.71833" lon="7.22698">
        <ele>240.4</ele>
      </trkpt>
      <trkpt lat="48.71686" lon="7.22637">
        <ele>245.2</ele>
      </trkpt>
      <trkpt lat="48.71571" lon="7.22699">
        <ele>254.1</ele>
      </trkpt>
      <trkpt lat="48.7147" lon="7.22821">
        <ele>252</ele>
        <time>2021-01-17T13:22:48Z</time>
      </trkpt>
      <trkpt lat="48.71484" lon="7.22831">
        <ele>273.4</ele>
      </trkpt>
      <trkpt lat="48.71604" lon="7.2275">
        <ele>269.7</ele>
      </trkpt>
      <trkpt lat="48.7164" lon="7.2277">
        <ele>272.4</ele>
      </trkpt>
      <trkpt lat="48.71768" lon="7.22949">
        <ele>275</ele>
      </trkpt>
      <trkpt lat="48.71858" lon="7.23106">
        <ele>255</ele>
        <time>2021-01-17T13:23:12Z</time>
      </trkpt>
      <trkpt lat="48.71823" lon="7.2324">
        <ele>287.9</ele>
      </trkpt>
      <trkpt lat="48.71844" lon="7.23363">
        <ele>291.3</ele>
      </trkpt>
      <trkpt lat="48.71894" lon="7.23402">
        <ele>258</ele>
        <time>2021-01-17T13:23:39Z</time>
      </trkpt>
      <trkpt lat="48.71978" lon="7.23395">
        <ele>301.8</ele>
      </trkpt>
      <trkpt lat="48.72013" lon="7.23361">
        <ele>304.2</ele>
      </trkpt>
      <trkpt lat="48.72046" lon="7.23294">
        <ele>296.6</ele>
      </trkpt>
      <trkpt lat="48.72091" lon="7.23275">
        <ele>261</ele>
        <time>2021-01-17T13:24:17Z</time>
      </trkpt>
      <trkpt lat="48.72263" lon="7.23315">
        <ele>265</ele>
        <time>2021-01-17T13:25:06Z</time>
      </trkpt>
      <trkpt lat="48.72361" lon="7.23314">
        <ele>268</ele>
        <time>2021-01-17T13:25:39Z</time>
      </trkpt>
      <trkpt lat="48.72477" lon="7.23337">
        <ele>270</ele>
        <time>2021-01-17T13:25:52Z</time>
      </trkpt>
      <trkpt lat="48.72501" lon="7.2338">
        <ele>272</ele>
        <time>2021-01-17T13:26:13Z</time>
      </trkpt>
      <trkpt lat="48.72519" lon="7.23546">
        <ele>273</ele>
        <time>2021-01-17T13:26:40Z</time>
      </trkpt>
      <trkpt lat="48.72543" lon="7.23663">
        <ele>274</ele>
        <time>2021-01-17T13:26:53Z</time>
      </trkpt>
      <trkpt lat="48.72551" lon="7.23895">
        <ele>274</ele>
        <time>2021-01-17T13:26:57Z</time>
      </trkpt>
      <trkpt lat="48.72511" lon="7.24003">
        <ele>275</ele>
        <time>2021-01-17T13:27:13Z</time>
      </trkpt>
      <trkpt lat="48.72515" lon="7.24122">
        <ele>276</ele>
        <time>2021-01-17T13:27:25Z</time>
      </trkpt>
      <trkpt lat="48.72584" lon="7.2439">
        <ele>277</ele>
        <time>2021-01-17T13:27:30Z</time>
      </trkpt>
      <trkpt lat="48.7256" lon="7.24421">
        <ele>294</ele>
        <time>2021-01-17T13:35:14Z</time>
      </trkpt>
      <trkpt lat="48.72446" lon="7.24494">
        <ele>292</ele>
        <time>2021-01-17T13:35:19Z</time>
      </trkpt>
      <trkpt lat="48.72379" lon="7.24543">
        <ele>289</ele>
        <time>2021-01-17T13:35:24Z</time>
      </trkpt>
      <trkpt lat="48.72338" lon="7.24599">
        <ele>279</ele>
        <time>2021-01-17T13:35:42Z</time>
      </trkpt>
      <trkpt lat="48.72262" lon="7.24561">
        <ele>272</ele>
        <time>2021-01-17T13:36:02Z</time>
      </trkpt>
      <trkpt lat="48.72189" lon="7.24409">
        <ele>267</ele>
        <time>2021-01-17T13:36:29Z</time>
      </trkpt>
      <trkpt lat="48.72151" lon="7.2439">
        <ele>266</ele>
        <time>2021-01-17T13:36:38Z</time>
      </trkpt>
      <trkpt lat="48.72118" lon="7.24415">
        <ele>266</ele>
        <time>2021-01-17T13:36:43Z</time>
      </trkpt>
      <trkpt lat="48.72088" lon="7.24538">
        <ele>266</ele>
        <time>2021-01-17T13:37:22Z</time>
      </trkpt>
      <trkpt lat="48.72062" lon="7.24561">
        <ele>266</ele>
        <time>2021-01-17T13:37:44Z</time>
      </trkpt>
      <trkpt lat="48.71992" lon="7.246">
        <ele>266</ele>
        <time>2021-01-17T13:37:51Z</time>
      </trkpt>
      <trkpt lat="48.71955" lon="7.2457">
        <ele>266</ele>
        <time>2021-01-17T13:38:06Z</time>
      </trkpt>
      <trkpt lat="48.7184" lon="7.24353">
        <ele>265</ele>
        <time>2021-01-17T13:38:10Z</time>
      </trkpt>
      <trkpt lat="48.71812" lon="7.24335">
        <ele>262</ele>
        <time>2021-01-17T13:38:51Z</time>
      </trkpt>
      <trkpt lat="48.71767" lon="7.24348">
        <ele>262</ele>
        <time>2021-01-17T13:38:55Z</time>
      </trkpt>
      <trkpt lat="48.71722" lon="7.24384">
        <ele>261</ele>
        <time>2021-01-17T13:39:02Z</time>
      </trkpt>
      <trkpt lat="48.71641" lon="7.24324">
        <ele>260</ele>
        <time>2021-01-17T13:39:04Z</time>
      </trkpt>
      <trkpt lat="48.71587" lon="7.24215">
        <ele>314.4</ele>
      </trkpt>
      <trkpt lat="48.7154" lon="7.24204">
        <ele>314.4</ele>
      </trkpt>
      <trkpt lat="48.71523" lon="7.24244">
        <ele>308.1</ele>
      </trkpt>
      <trkpt lat="48.71482" lon="7.243">
        <ele>309.3</ele>
      </trkpt>
      <trkpt lat="48.71455" lon="7.24377">
        <ele>298.3</ele>
      </trkpt>
      <trkpt lat="48.71304" lon="7.24106">
        <ele>336.4</ele>
      </trkpt>
      <trkpt lat="48.71244" lon="7.23988">
        <ele>341.7</ele>
      </trkpt>
      <trkpt lat="48.71196" lon="7.23725">
        <ele>361.1</ele>
      </trkpt>
      <trkpt lat="48.71107" lon="7.23415">
        <ele>377.7</ele>
      </trkpt>
      <trkpt lat="48.71123" lon="7.23365">
        <ele>382.2</ele>
      </trkpt>
      <trkpt lat="48.71071" lon="7.23304">
        <ele>384.5</ele>
      </trkpt>
      <trkpt lat="48.71024" lon="7.23287">
        <ele>386.5</ele>
      </trkpt>
      <trkpt lat="48.70997" lon="7.23194">
        <ele>391.3</ele>
      </trkpt>
      <trkpt lat="48.70979" lon="7.23195">
        <ele>393.3</ele>
      </trkpt>
      <trkpt lat="48.70927" lon="7.23252">
        <ele>395.1</ele>
      </trkpt>
      <trkpt lat="48.70858" lon="7.23288">
        <ele>397</ele>
      </trkpt>
      <trkpt lat="48.70798" lon="7.23319">
        <ele>397.4</ele>
      </trkpt>
      <trkpt lat="48.70759" lon="7.23377">
        <ele>397.5</ele>
      </trkpt>
      <trkpt lat="48.70722" lon="7.23566">
        <ele>398</ele>
      </trkpt>
      <trkpt lat="48.70675" lon="7.2364">
        <ele>399.3</ele>
      </trkpt>
      <trkpt lat="48.70575" lon="7.23894">
        <ele>406.1</ele>
      </trkpt>
      <trkpt lat="48.70494" lon="7.24015">
        <ele>259</ele>
        <time>2021-01-17T13:39:13Z</time>
      </trkpt>
      <trkpt lat="48.7044" lon="7.24073">
        <ele>411.5</ele>
      </trkpt>
      <trkpt lat="48.70308" lon="7.24162">
        <ele>415.3</ele>
      </trkpt>
      <trkpt lat="48.70265" lon="7.24184">
        <ele>413.9</ele>
      </trkpt>
      <trkpt lat="48.70183" lon="7.24212">
        <ele>413</ele>
      </trkpt>
      <trkpt lat="48.7013" lon="7.24227">
        <ele>417.3</ele>
      </trkpt>
      <trkpt lat="48.70015" lon="7.24321">
        <ele>426.7</ele>
      </trkpt>
      <trkpt lat="48.69891" lon="7.24672">
        <ele>447.5</ele>
      </trkpt>
      <trkpt lat="48.69807" lon="7.24879">
        <ele>450.8</ele>
      </trkpt>
      <trkpt lat="48.69806" lon="7.25005">
        <ele>452.1</ele>
      </trkpt>
      <trkpt lat="48.69867" lon="7.25287">
        <ele>454</ele>
      </trkpt>
      <trkpt lat="48.69867" lon="7.2541">
        <ele>455.9</ele>
      </trkpt>
      <trkpt lat="48.69843" lon="7.25539">
        <ele>459.9</ele>
      </trkpt>
      <trkpt lat="48.69776" lon="7.25629">
        <ele>461.4</ele>
      </trkpt>
      <trkpt lat="48.69732" lon="7.25681">
        <ele>467.5</ele>
      </trkpt>
      <trkpt lat="48.69639" lon="7.25724">
        <ele>474.2</ele>
      </trkpt>
      <trkpt lat="48.69576" lon="7.25745">
        <ele>480</ele>
        <time>2021-01-17T14:36:11Z</time>
      </trkpt>
      <trkpt lat="48.69517" lon="7.25817">
        <ele>483</ele>
        <time>2021-01-17T14:37:13Z</time>
      </trkpt>
      <trkpt lat="48.69469" lon="7.25835">
        <ele>484</ele>
        <time>2021-01-17T14:37:28Z</time>
      </trkpt>
      <trkpt lat="48.69372" lon="7.25827">
        <ele>483</ele>
        <time>2021-01-17T14:38:03Z</time>
      </trkpt>
      <trkpt lat="48.69263" lon="7.25887">
        <ele>482</ele>
        <time>2021-01-17T14:38:24Z</time>
      </trkpt>
      <trkpt lat="48.69211" lon="7.25837">
        <ele>473</ele>
        <time>2021-01-17T14:39:07Z</time>
      </trkpt>
      <trkpt lat="48.69167" lon="7.25801">
        <ele>469</ele>
        <time>2021-01-17T14:39:18Z</time>
      </trkpt>
      <trkpt lat="48.69145" lon="7.25796">
        <ele>467</ele>
        <time>2021-01-17T14:39:23Z</time>
      </trkpt>
      <trkpt lat="48.69128" lon="7.25785">
        <ele>465</ele>
        <time>2021-01-17T14:39:27Z</time>
      </trkpt>
      <trkpt lat="48.69089" lon="7.2578">
        <ele>462</ele>
        <time>2021-01-17T14:39:36Z</time>
      </trkpt>
      <trkpt lat="48.68972" lon="7.25684">
        <ele>411</ele>
        <time>2021-01-17T14:51:30Z</time>
      </trkpt>
      <trkpt lat="48.68913" lon="7.25615">
        <ele>413</ele>
        <time>2021-01-17T14:51:51Z</time>
      </trkpt>
      <trkpt lat="48.68876" lon="7.25552">
        <ele>415</ele>
        <time>2021-01-17T14:52:35Z</time>
      </trkpt>
      <trkpt lat="48.68827" lon="7.25555">
        <ele>416</ele>
        <time>2021-01-17T14:53:03Z</time>
      </trkpt>
      <trkpt lat="48.68748" lon="7.25538">
        <ele>475</ele>
        <time>2021-01-17T15:02:57Z</time>
      </trkpt>
      <trkpt lat="48.68671" lon="7.25514">
        <ele>481</ele>
        <time>2021-01-17T15:03:56Z</time>
      </trkpt>
      <trkpt lat="48.68612" lon="7.25519">
        <ele>485</ele>
        <time>2021-01-17T15:04:35Z</time>
      </trkpt>
      <trkpt lat="48.68535" lon="7.25482">
        <ele>489</ele>
        <time>2021-01-17T15:05:20Z</time>
      </trkpt>
      <trkpt lat="48.68518" lon="7.25487">
        <ele>490</ele>
        <time>2021-01-17T15:05:28Z</time>
      </trkpt>
      <trkpt lat="48.68394" lon="7.25536">
        <ele>492</ele>
        <time>2021-01-17T15:06:28Z</time>
      </trkpt>
      <trkpt lat="48.6834" lon="7.25604">
        <ele>490</ele>
        <time>2021-01-17T15:06:47Z</time>
      </trkpt>
      <trkpt lat="48.68251" lon="7.2568">
        <ele>486</ele>
        <time>2021-01-17T15:07:11Z</time>
      </trkpt>
      <trkpt lat="48.68241" lon="7.25696">
        <ele>486</ele>
        <time>2021-01-17T15:07:14Z</time>
      </trkpt>
      <trkpt lat="48.68105" lon="7.2577">
        <ele>477</ele>
        <time>2021-01-17T15:07:48Z</time>
      </trkpt>
      <trkpt lat="48.68061" lon="7.25779">
        <ele>477</ele>
        <time>2021-01-17T15:08:00Z</time>
      </trkpt>
      <trkpt lat="48.68014" lon="7.25802">
        <ele>477</ele>
        <time>2021-01-17T15:08:18Z</time>
      </trkpt>
      <trkpt lat="48.67923" lon="7.25815">
        <ele>477</ele>
        <time>2021-01-17T15:08:57Z</time>
      </trkpt>
      <trkpt lat="48.67797" lon="7.25842">
        <ele>475</ele>
        <time>2021-01-17T15:09:37Z</time>
      </trkpt>
      <trkpt lat="48.67762" lon="7.25872">
        <ele>475</ele>
        <time>2021-01-17T15:09:47Z</time>
      </trkpt>
      <trkpt lat="48.67713" lon="7.25945">
        <ele>475</ele>
        <time>2021-01-17T15:10:04Z</time>
      </trkpt>
      <trkpt lat="48.67668" lon="7.25969">
        <ele>475</ele>
        <time>2021-01-17T15:10:18Z</time>
      </trkpt>
      <trkpt lat="48.67649" lon="7.25962">
        <ele>475</ele>
        <time>2021-01-17T15:10:25Z</time>
      </trkpt>
      <trkpt lat="48.67637" lon="7.25907">
        <ele>475</ele>
        <time>2021-01-17T15:10:42Z</time>
      </trkpt>
      <trkpt lat="48.67628" lon="7.25887">
        <ele>475</ele>
        <time>2021-01-17T15:10:53Z</time>
      </trkpt>
      <trkpt lat="48.67617" lon="7.25874">
        <ele>476</ele>
        <time>2021-01-17T15:11:01Z</time>
      </trkpt>
      <trkpt lat="48.67568" lon="7.25874">
        <ele>482</ele>
        <time>2021-01-17T15:11:35Z</time>
      </trkpt>
      <trkpt lat="48.67529" lon="7.25868">
        <ele>486</ele>
        <time>2021-01-17T15:12:12Z</time>
      </trkpt>
      <trkpt lat="48.6744" lon="7.25839">
        <ele>487</ele>
        <time>2021-01-17T15:12:23Z</time>
      </trkpt>
      <trkpt lat="48.67383" lon="7.25818">
        <ele>487</ele>
        <time>2021-01-17T15:12:30Z</time>
      </trkpt>
      <trkpt lat="48.67324" lon="7.25798">
        <ele>489</ele>
        <time>2021-01-17T15:12:44Z</time>
      </trkpt>
      <trkpt lat="48.67289" lon="7.25732">
        <ele>493</ele>
        <time>2021-01-17T15:13:16Z</time>
      </trkpt>
      <trkpt lat="48.67275" lon="7.25642">
        <ele>494</ele>
        <time>2021-01-17T15:13:33Z</time>
      </trkpt>
      <trkpt lat="48.6731" lon="7.25426">
        <ele>497</ele>
        <time>2021-01-17T15:13:58Z</time>
      </trkpt>
      <trkpt lat="48.67288" lon="7.25375">
        <ele>495</ele>
        <time>2021-01-17T15:17:52Z</time>
      </trkpt>
      <trkpt lat="48.67237" lon="7.25324">
        <ele>492</ele>
        <time>2021-01-17T15:17:59Z</time>
      </trkpt>
      <trkpt lat="48.67303" lon="7.2523">
        <ele>489</ele>
        <time>2021-01-17T15:18:06Z</time>
      </trkpt>
      <trkpt lat="48.67296" lon="7.25221">
        <ele>488</ele>
        <time>2021-01-17T15:18:08Z</time>
      </trkpt>
      <trkpt lat="48.67286" lon="7.2522">
        <ele>487</ele>
        <time>2021-01-17T15:18:11Z</time>
      </trkpt>
      <trkpt lat="48.67242" lon="7.25265">
        <ele>482</ele>
        <time>2021-01-17T15:18:22Z</time>
      </trkpt>
      <trkpt lat="48.67194" lon="7.25284">
        <ele>478</ele>
        <time>2021-01-17T15:18:33Z</time>
      </trkpt>
      <trkpt lat="48.67168" lon="7.25284">
        <ele>476</ele>
        <time>2021-01-17T15:18:38Z</time>
      </trkpt>
      <trkpt lat="48.67058" lon="7.25382">
        <ele>464</ele>
        <time>2021-01-17T15:19:07Z</time>
      </trkpt>
      <trkpt lat="48.66927" lon="7.25511">
        <ele>451</ele>
        <time>2021-01-17T15:19:41Z</time>
      </trkpt>
      <trkpt lat="48.66908" lon="7.25522">
        <ele>449</ele>
        <time>2021-01-17T15:19:46Z</time>
      </trkpt>
      <trkpt lat="48.66906" lon="7.25511">
        <ele>449</ele>
        <time>2021-01-17T15:19:48Z</time>
      </trkpt>
      <trkpt lat="48.66917" lon="7.25454">
        <ele>445</ele>
        <time>2021-01-17T15:19:56Z</time>
      </trkpt>
      <trkpt lat="48.66971" lon="7.25318">
        <ele>436</ele>
        <time>2021-01-17T15:20:19Z</time>
      </trkpt>
      <trkpt lat="48.6698" lon="7.25274">
        <ele>433</ele>
        <time>2021-01-17T15:20:26Z</time>
      </trkpt>
      <trkpt lat="48.67006" lon="7.25201">
        <ele>428</ele>
        <time>2021-01-17T15:20:38Z</time>
      </trkpt>
      <trkpt lat="48.67013" lon="7.25151">
        <ele>425</ele>
        <time>2021-01-17T15:20:45Z</time>
      </trkpt>
      <trkpt lat="48.6704" lon="7.2511">
        <ele>421</ele>
        <time>2021-01-17T15:20:54Z</time>
      </trkpt>
      <trkpt lat="48.67056" lon="7.25062">
        <ele>418</ele>
        <time>2021-01-17T15:21:02Z</time>
      </trkpt>
      <trkpt lat="48.67131" lon="7.24948">
        <ele>407</ele>
        <time>2021-01-17T15:21:24Z</time>
      </trkpt>
      <trkpt lat="48.67022" lon="7.24957">
        <ele>396</ele>
        <time>2021-01-17T15:21:48Z</time>
      </trkpt>
      <trkpt lat="48.66991" lon="7.24994">
        <ele>392</ele>
        <time>2021-01-17T15:21:56Z</time>
      </trkpt>
      <trkpt lat="48.66952" lon="7.2506">
        <ele>386</ele>
        <time>2021-01-17T15:22:08Z</time>
      </trkpt>
      <trkpt lat="48.66905" lon="7.25103">
        <ele>383</ele>
        <time>2021-01-17T15:22:21Z</time>
      </trkpt>
      <trkpt lat="48.66857" lon="7.25111">
        <ele>381</ele>
        <time>2021-01-17T15:22:33Z</time>
      </trkpt>
      <trkpt lat="48.66781" lon="7.25145">
        <ele>379</ele>
        <time>2021-01-17T15:22:56Z</time>
      </trkpt>
      <trkpt lat="48.66754" lon="7.25173">
        <ele>379</ele>
        <time>2021-01-17T15:23:07Z</time>
      </trkpt>
      <trkpt lat="48.6675" lon="7.25156">
        <ele>379</ele>
        <time>2021-01-17T15:23:12Z</time>
      </trkpt>
      <trkpt lat="48.66741" lon="7.25143">
        <ele>380</ele>
        <time>2021-01-17T15:23:17Z</time>
      </trkpt>
      <trkpt lat="48.66732" lon="7.25138">
        <ele>380</ele>
        <time>2021-01-17T15:23:22Z</time>
      </trkpt>
      <trkpt lat="48.66772" lon="7.25056">
        <ele>382</ele>
        <time>2021-01-17T15:23:57Z</time>
      </trkpt>
      <trkpt lat="48.66681" lon="7.25156">
        <ele>386</ele>
        <time>2021-01-17T15:24:55Z</time>
      </trkpt>
      <trkpt lat="48.66652" lon="7.25201">
        <ele>387</ele>
        <time>2021-01-17T15:25:16Z</time>
      </trkpt>
      <trkpt lat="48.66578" lon="7.25235">
        <ele>389</ele>
        <time>2021-01-17T15:25:52Z</time>
      </trkpt>
      <trkpt lat="48.66557" lon="7.25276">
        <ele>390</ele>
        <time>2021-01-17T15:26:06Z</time>
      </trkpt>
      <trkpt lat="48.6655" lon="7.2534">
        <ele>392</ele>
        <time>2021-01-17T15:26:23Z</time>
      </trkpt>
      <trkpt lat="48.66538" lon="7.25361">
        <ele>392</ele>
        <time>2021-01-17T15:26:31Z</time>
      </trkpt>
      <trkpt lat="48.66499" lon="7.25372">
        <ele>393</ele>
        <time>2021-01-17T15:26:47Z</time>
      </trkpt>
      <trkpt lat="48.6646" lon="7.25356">
        <ele>394</ele>
        <time>2021-01-17T15:27:06Z</time>
      </trkpt>
      <trkpt lat="48.66428" lon="7.25365">
        <ele>396</ele>
        <time>2021-01-17T15:27:25Z</time>
      </trkpt>
      <trkpt lat="48.66355" lon="7.25442">
        <ele>402</ele>
        <time>2021-01-17T15:28:14Z</time>
      </trkpt>
      <trkpt lat="48.66347" lon="7.25451">
        <ele>403</ele>
        <time>2021-01-17T15:28:21Z</time>
      </trkpt>
      <trkpt lat="48.66339" lon="7.25442">
        <ele>403</ele>
        <time>2021-01-17T15:28:28Z</time>
      </trkpt>
      <trkpt lat="48.66274" lon="7.25427">
        <ele>406</ele>
        <time>2021-01-17T15:28:56Z</time>
      </trkpt>
      <trkpt lat="48.66248" lon="7.25451">
        <ele>410</ele>
        <time>2021-01-17T15:29:31Z</time>
      </trkpt>
      <trkpt lat="48.66244" lon="7.25572">
        <ele>415</ele>
        <time>2021-01-17T15:30:08Z</time>
      </trkpt>
      <trkpt lat="48.66204" lon="7.25623">
        <ele>421</ele>
        <time>2021-01-17T15:30:46Z</time>
      </trkpt>
      <trkpt lat="48.66109" lon="7.2559">
        <ele>472</ele>
        <time>2021-01-17T15:38:40Z</time>
      </trkpt>
      <trkpt lat="48.66057" lon="7.25608">
        <ele>473</ele>
        <time>2021-01-17T15:38:53Z</time>
      </trkpt>
      <trkpt lat="48.66012" lon="7.25661">
        <ele>473</ele>
        <time>2021-01-17T15:38:58Z</time>
      </trkpt>
      <trkpt lat="48.65891" lon="7.25672">
        <ele>475</ele>
        <time>2021-01-17T15:39:19Z</time>
      </trkpt>
      <trkpt lat="48.65808" lon="7.25807">
        <ele>478</ele>
        <time>2021-01-17T15:39:55Z</time>
      </trkpt>
      <trkpt lat="48.65741" lon="7.25844">
        <ele>490</ele>
        <time>2021-01-17T15:44:39Z</time>
      </trkpt>
      <trkpt lat="48.6567" lon="7.25829">
        <ele>492</ele>
        <time>2021-01-17T15:45:10Z</time>
      </trkpt>
      <trkpt lat="48.65594" lon="7.25898">
        <ele>497</ele>
        <time>2021-01-17T15:46:00Z</time>
      </trkpt>
      <trkpt lat="48.65545" lon="7.25887">
        <ele>499</ele>
        <time>2021-01-17T15:46:15Z</time>
      </trkpt>
      <trkpt lat="48.65476" lon="7.25918">
        <ele>503</ele>
        <time>2021-01-17T15:46:55Z</time>
      </trkpt>
      <trkpt lat="48.65415" lon="7.26">
        <ele>513</ele>
        <time>2021-01-17T15:48:10Z</time>
      </trkpt>
      <trkpt lat="48.65361" lon="7.26008">
        <ele>518</ele>
        <time>2021-01-17T15:48:44Z</time>
      </trkpt>
      <trkpt lat="48.65299" lon="7.26">
        <ele>520</ele>
        <time>2021-01-17T15:49:08Z</time>
      </trkpt>
      <trkpt lat="48.65249" lon="7.26089">
        <ele>524</ele>
        <time>2021-01-17T15:49:37Z</time>
      </trkpt>
      <trkpt lat="48.65156" lon="7.26056">
        <ele>531</ele>
        <time>2021-01-17T15:50:39Z</time>
      </trkpt>
      <trkpt lat="48.6507" lon="7.26059">
        <ele>452</ele>
      </trkpt>
      <trkpt lat="48.64965" lon="7.262">
        <ele>466.4</ele>
      </trkpt>
      <trkpt lat="48.64655" lon="7.26245">
        <ele>491.2</ele>
      </trkpt>
      <trkpt lat="48.64743" lon="7.26196">
        <ele>497</ele>
      </trkpt>
      <trkpt lat="48.64883" lon="7.26152">
        <ele>497.9</ele>
      </trkpt>
      <trkpt lat="48.64923" lon="7.26111">
        <ele>501.5</ele>
      </trkpt>
      <trkpt lat="48.64977" lon="7.26">
        <ele>509.1</ele>
      </trkpt>
      <trkpt lat="48.65043" lon="7.25921">
        <ele>511</ele>
      </trkpt>
      <trkpt lat="48.65069" lon="7.25882">
        <ele>515.4</ele>
      </trkpt>
      <trkpt lat="48.65099" lon="7.25767">
        <ele>526.1</ele>
      </trkpt>
      <trkpt lat="48.65084" lon="7.25705">
        <ele>537</ele>
        <time>2021-01-17T15:51:29Z</time>
      </trkpt>
      <trkpt lat="48.65057" lon="7.25606">
        <ele>544</ele>
        <time>2021-01-17T15:52:21Z</time>
      </trkpt>
      <trkpt lat="48.65034" lon="7.25566">
        <ele>547</ele>
        <time>2021-01-17T15:52:43Z</time>
      </trkpt>
      <trkpt lat="48.64992" lon="7.25538">
        <ele>549</ele>
        <time>2021-01-17T15:53:03Z</time>
      </trkpt>
      <trkpt lat="48.64967" lon="7.25497">
        <ele>550</ele>
        <time>2021-01-17T15:53:16Z</time>
      </trkpt>
      <trkpt lat="48.6492" lon="7.2536">
        <ele>554</ele>
        <time>2021-01-17T15:53:50Z</time>
      </trkpt>
      <trkpt lat="48.64911" lon="7.2535">
        <ele>555</ele>
        <time>2021-01-17T15:53:54Z</time>
      </trkpt>
      <trkpt lat="48.64878" lon="7.25273">
        <ele>557</ele>
        <time>2021-01-17T15:54:15Z</time>
      </trkpt>
      <trkpt lat="48.64833" lon="7.2516">
        <ele>560</ele>
        <time>2021-01-17T15:54:51Z</time>
      </trkpt>
      <trkpt lat="48.64785" lon="7.25026">
        <ele>563</ele>
        <time>2021-01-17T15:55:29Z</time>
      </trkpt>
      <trkpt lat="48.64779" lon="7.24944">
        <ele>565</ele>
        <time>2021-01-17T15:55:48Z</time>
      </trkpt>
      <trkpt lat="48.64784" lon="7.24904">
        <ele>566</ele>
        <time>2021-01-17T15:55:57Z</time>
      </trkpt>
      <trkpt lat="48.64821" lon="7.24828">
        <ele>569</ele>
        <time>2021-01-17T15:56:17Z</time>
      </trkpt>
      <trkpt lat="48.64855" lon="7.24798">
        <ele>571</ele>
        <time>2021-01-17T15:56:31Z</time>
      </trkpt>
      <trkpt lat="48.6497" lon="7.24723">
        <ele>579</ele>
        <time>2021-01-17T15:57:38Z</time>
      </trkpt>
      <trkpt lat="48.65002" lon="7.24695">
        <ele>582</ele>
        <time>2021-01-17T15:58:01Z</time>
      </trkpt>
      <trkpt lat="48.65034" lon="7.24641">
        <ele>586</ele>
        <time>2021-01-17T15:58:34Z</time>
      </trkpt>
      <trkpt lat="48.65051" lon="7.2459">
        <ele>589</ele>
        <time>2021-01-17T15:58:59Z</time>
      </trkpt>
      <trkpt lat="48.65055" lon="7.24564">
        <ele>590</ele>
        <time>2021-01-17T15:59:09Z</time>
      </trkpt>
      <trkpt lat="48.65054" lon="7.24534">
        <ele>591</ele>
        <time>2021-01-17T15:59:24Z</time>
      </trkpt>
      <trkpt lat="48.65024" lon="7.24425">
        <ele>593</ele>
        <time>2021-01-17T15:59:55Z</time>
      </trkpt>
      <trkpt lat="48.65" lon="7.24389">
        <ele>595</ele>
        <time>2021-01-17T16:00:03Z</time>
      </trkpt>
      <trkpt lat="48.64971" lon="7.24366">
        <ele>596</ele>
        <time>2021-01-17T16:00:10Z</time>
      </trkpt>
      <trkpt lat="48.64945" lon="7.24362">
        <ele>596</ele>
        <time>2021-01-17T16:00:14Z</time>
      </trkpt>
      <trkpt lat="48.64914" lon="7.24371">
        <ele>596</ele>
        <time>2021-01-17T16:00:19Z</time>
      </trkpt>
      <trkpt lat="48.64851" lon="7.24469">
        <ele>597</ele>
        <time>2021-01-17T16:00:36Z</time>
      </trkpt>
      <trkpt lat="48.64842" lon="7.245">
        <ele>597</ele>
        <time>2021-01-17T16:00:44Z</time>
      </trkpt>
      <trkpt lat="48.64833" lon="7.24588">
        <ele>600</ele>
        <time>2021-01-17T16:01:07Z</time>
      </trkpt>
      <trkpt lat="48.64838" lon="7.24602">
        <ele>601</ele>
        <time>2021-01-17T16:01:14Z</time>
      </trkpt>
      <trkpt lat="48.64844" lon="7.24611">
        <ele>602</ele>
        <time>2021-01-17T16:01:25Z</time>
      </trkpt>
      <trkpt lat="48.64854" lon="7.24621">
        <ele>602</ele>
        <time>2021-01-17T16:01:27Z</time>
      </trkpt>
      <trkpt lat="48.6487" lon="7.24625">
        <ele>603</ele>
        <time>2021-01-17T16:01:36Z</time>
      </trkpt>
      <trkpt lat="48.64896" lon="7.24626">
        <ele>605</ele>
        <time>2021-01-17T16:01:48Z</time>
      </trkpt>
      <trkpt lat="48.64922" lon="7.24616">
        <ele>607</ele>
        <time>2021-01-17T16:02:06Z</time>
      </trkpt>
      <trkpt lat="48.64944" lon="7.24592">
        <ele>609</ele>
        <time>2021-01-17T16:02:25Z</time>
      </trkpt>
      <trkpt lat="48.64963" lon="7.24547">
        <ele>609</ele>
        <time>2021-01-17T16:02:46Z</time>
      </trkpt>
      <trkpt lat="48.64972" lon="7.24545">
        <ele>609</ele>
        <time>2021-01-17T16:02:49Z</time>
      </trkpt>
      <trkpt lat="48.64979" lon="7.24522">
        <ele>609</ele>
        <time>2021-01-17T16:02:57Z</time>
      </trkpt>
      <trkpt lat="48.64971" lon="7.24494">
        <ele>609</ele>
        <time>2021-01-17T16:03:11Z</time>
      </trkpt>
      <trkpt lat="48.64951" lon="7.24478">
        <ele>609</ele>
        <time>2021-01-17T16:03:23Z</time>
      </trkpt>
      <trkpt lat="48.64936" lon="7.2448">
        <ele>609</ele>
        <time>2021-01-17T16:03:27Z</time>
      </trkpt>
      <trkpt lat="48.64952" lon="7.24495">
        <ele>615</ele>
        <time>2020-12-20T13:58:26Z</time>
      </trkpt>
      <trkpt lat="48.6494" lon="7.24492">
        <ele>615</ele>
        <time>2020-12-20T13:58:29Z</time>
      </trkpt>
    </trkseg>
  </trk>
</gpx>